Provisional Data: Hammer Creek near Route 322


Please select a monitoring station.
Please select start date.
Please select start date.

Toggle Unit: C/F Toggle Unit: C/F
Sample Time Temperature (C) Temperature (F) Specific Conductivity (mS/cm) pH   Turbidity (NTU+) DO (mg/L)
3/23/2021 12:00:00 AM 9.72 49.496 0.435 8.05 4.06 10.67
3/23/2021 12:15:00 AM 9.57 49.226 0.435 8.05 4.05 10.69
3/23/2021 12:30:00 AM 9.43 48.974 0.435 8.04 4.11 10.7
3/23/2021 12:45:00 AM 9.29 48.722 0.435 8.03 4 10.73
3/23/2021 1:00:00 AM 9.15 48.47 0.435 8.03 4.56 10.78
3/23/2021 1:15:00 AM 9.02 48.236 0.434 8.02 4.14 10.81
3/23/2021 1:30:00 AM 8.89 48.002 0.435 8.02 5.17 10.85
3/23/2021 1:45:00 AM 8.77 47.786 0.435 8.02 8.47 10.94
3/23/2021 2:00:00 AM 8.66 47.588 0.435 8.01 4.1 10.95
3/23/2021 2:15:00 AM 8.55 47.39 0.434 8.01 5.53 11.02
3/23/2021 2:30:00 AM 8.45 47.21 0.435 8.01 3.57 11.04
3/23/2021 2:45:00 AM 8.35 47.03 0.435 8.01 3.77 11.08
3/23/2021 3:00:00 AM 8.25 46.85 0.435 8.01 3.96 11.1
3/23/2021 3:15:00 AM 8.16 46.688 0.435 8.01 3.97 11.14
3/23/2021 3:30:00 AM 8.08 46.544 0.435 8.01 3.68 11.17
3/23/2021 3:45:00 AM 7.99 46.382 0.435 8 4.2 11.17
3/23/2021 4:00:00 AM 7.91 46.238 0.435 8.01 3.9 11.21
3/23/2021 4:15:00 AM 7.84 46.112 0.435 8 3.62 11.26
3/23/2021 4:30:00 AM 7.76 45.968 0.435 8.01 3.67 11.26
3/23/2021 4:45:00 AM 7.69 45.842 0.435 8.01 3.43 11.27
3/23/2021 5:00:00 AM 7.62 45.716 0.435 8.01 3.74 11.33
3/23/2021 5:15:00 AM 7.55 45.59 0.435 8.01 3.91 11.33
3/23/2021 5:30:00 AM 7.49 45.482 0.436 8.01 5.36 11.36
3/23/2021 5:45:00 AM 7.42 45.356 0.436 8.01 5.14 11.37
3/23/2021 6:00:00 AM 7.36 45.248 0.436 8.01 3.74 11.41
3/23/2021 6:15:00 AM 7.3 45.14 0.436 8.01 3.61 11.42
3/23/2021 6:30:00 AM 7.24 45.032 0.436 8.01 3.67 11.45
3/23/2021 6:45:00 AM 7.18 44.924 0.436 8 3.61 11.49
3/23/2021 7:00:00 AM 7.12 44.816 0.436 8 3.64 11.48
3/23/2021 7:15:00 AM 7.07 44.726 0.436 8 3.85 11.52
3/23/2021 7:30:00 AM 7.02 44.636 0.436 8 3.58 11.54
3/23/2021 7:45:00 AM 6.98 44.564 0.436 8.01 3.97 11.59
3/23/2021 8:00:00 AM 6.95 44.51 0.436 8.01 3.58 11.66
3/23/2021 8:15:00 AM 6.93 44.474 0.436 8.02 3.75 11.76
3/23/2021 8:30:00 AM 6.92 44.456 0.437 8.02 3.46 11.82
3/23/2021 8:45:00 AM 6.92 44.456 0.436 8.03 3.3 11.97
3/23/2021 9:00:00 AM 6.94 44.492 0.437 8.04 3.38 12.03
3/23/2021 9:15:00 AM 6.99 44.582 0.437 8.05 3.34 12.15
3/23/2021 9:30:00 AM 7.07 44.726 0.436 8.07 3.32 12.27
3/23/2021 9:45:00 AM 7.16 44.888 0.436 8.08 3.67 12.33
3/23/2021 10:00:00 AM 7.28 45.104 0.436 8.1 3.37 12.53
3/23/2021 10:15:00 AM 7.43 45.374 0.436 8.12 3.08 12.66
3/23/2021 10:30:00 AM 7.6 45.68 0.435 8.14 3.17 12.75
3/23/2021 10:45:00 AM 7.78 46.004 0.435 8.16 3.07 12.95
3/23/2021 11:00:00 AM 8 46.4 0.434 8.18 3.14 13.19
3/23/2021 11:15:00 AM 8.24 46.832 0.434 8.21 2.97 13.13
3/23/2021 11:30:00 AM 8.52 47.336 0.433 8.24 3.25 13.25
3/23/2021 11:45:00 AM 8.83 47.894 0.432 8.28 3.19 13.5
3/23/2021 12:00:00 PM 9.14 48.452 0.431 8.32 3.42 13.55
3/23/2021 12:15:00 PM 9.48 49.064 0.43 8.36 3.16 13.55
3/23/2021 12:30:00 PM 9.85 49.73 0.429 8.4 3.27 13.56
3/23/2021 12:45:00 PM 10.26 50.468 0.428 8.45 3.27 13.65
3/23/2021 1:00:00 PM 10.65 51.17 0.426 8.49 3.58 13.68
3/23/2021 1:15:00 PM 11.03 51.854 0.425 8.54 3.82 13.83
3/23/2021 1:30:00 PM 11.34 52.412 0.423 8.58 3.46 13.76
3/23/2021 1:45:00 PM 11.62 52.916 0.422 8.62 3.92 13.72
3/23/2021 2:00:00 PM 12.02 53.636 0.421 8.66 3.72 13.69
3/23/2021 2:15:00 PM 12.37 54.266 0.42 8.69 3.82 13.65
3/23/2021 2:30:00 PM 12.7 54.86 0.418 8.73 3.95 13.6
3/23/2021 2:45:00 PM 12.9 55.22 0.417 8.76 4.23 13.55
3/23/2021 3:00:00 PM 13.1 55.58 0.416 8.79 4.04 13.51
3/23/2021 3:15:00 PM 13.28 55.904 0.415 8.82 4.27 13.47
3/23/2021 3:30:00 PM 13.42 56.156 0.413 8.84 5.29 13.45
3/23/2021 3:45:00 PM 13.6 56.48 0.412 8.87 5.07 13.39
3/23/2021 4:00:00 PM 13.73 56.714 0.412 8.89 5.91 13.32
3/23/2021 4:15:00 PM 13.78 56.804 0.41 8.9 5.83 13.24
3/23/2021 4:30:00 PM 13.88 56.984 0.41 8.91 6.22 13.17
3/23/2021 4:45:00 PM 13.91 57.038 0.409 8.92 4.09 13.06
3/23/2021 5:00:00 PM 13.96 57.128 0.409 8.92 4.14 12.96
3/23/2021 5:15:00 PM 13.99 57.182 0.408 8.92 3.7 12.86
3/23/2021 5:30:00 PM 13.98 57.164 0.408 8.92 7.74 12.69
3/23/2021 5:45:00 PM 13.94 57.092 0.408 8.91 3.88 12.55
3/23/2021 6:00:00 PM 13.88 56.984 0.408 8.9 4.11 12.44
3/23/2021 6:15:00 PM 13.85 56.93 0.408 8.89 3.86 12.27
3/23/2021 6:30:00 PM 13.82 56.876 0.408 8.87 14.79 12.11
3/23/2021 6:45:00 PM 13.77 56.786 0.409 8.85 4.09 11.93
3/23/2021 7:00:00 PM 13.7 56.66 0.41 8.82 4.37 11.73
3/23/2021 7:15:00 PM 13.6 56.48 0.411 8.79 4.21 11.56
3/23/2021 7:30:00 PM 13.48 56.264 0.412 8.75 4.63 11.41
3/23/2021 7:45:00 PM 13.37 56.066 0.413 8.72 3.93 11.23
3/23/2021 8:00:00 PM 13.26 55.868 0.414 8.68 4.14 11.07
3/23/2021 8:15:00 PM 13.12 55.616 0.415 8.63 4.22 10.96
3/23/2021 8:30:00 PM 12.98 55.364 0.417 8.57 4.08 10.84
3/23/2021 8:45:00 PM 12.81 55.058 0.408 8.52 4.07 10.73
3/23/2021 9:00:00 PM 12.65 54.77 0.377 8.47 3.72 10.68
3/23/2021 9:15:00 PM 12.49 54.482 0.386 8.42 3.99 10.6
3/23/2021 9:30:00 PM 12.33 54.194 0.389 8.37 4.02 10.54
3/23/2021 9:45:00 PM 12.18 53.924 0.425 8.32 3.84 10.49
3/23/2021 10:00:00 PM 12.01 53.618 0.427 8.27 3.77 10.48
3/23/2021 10:15:00 PM 11.85 53.33 0.429 8.23 3.96 10.44
3/23/2021 10:30:00 PM 11.69 53.042 0.43 8.19 3.8 10.4
3/23/2021 10:45:00 PM 11.55 52.79 0.431 8.16 4.07 10.37
3/23/2021 11:00:00 PM 11.41 52.538 0.432 8.13 4.2 10.34
3/23/2021 11:15:00 PM 11.27 52.286 0.434 8.11 4 10.28
3/23/2021 11:30:00 PM 11.14 52.052 0.434 8.09 5.22 10.27
3/23/2021 11:45:00 PM 11.01 51.818 0.435 8.07 3.88 10.32
3/24/2021 12:00:00 AM 10.89 51.602 0.436 8.06 4.1 10.28
3/24/2021 12:15:00 AM 10.77 51.386 0.436 8.05 4.56 10.31
3/24/2021 12:30:00 AM 10.66 51.188 0.436 8.04 4.18 10.36
3/24/2021 12:45:00 AM 10.58 51.044 0.437 8.03 4.17 10.32
3/24/2021 1:00:00 AM 10.51 50.918 0.437 8.02 3.85 10.38
3/24/2021 1:15:00 AM 10.44 50.792 0.437 8.02 3.93 10.4
3/24/2021 1:30:00 AM 10.39 50.702 0.437 8.01 4.02 10.43
3/24/2021 1:45:00 AM 10.34 50.612 0.437 8.01 4.05 10.46
3/24/2021 2:00:00 AM 10.29 50.522 0.437 8.01 4.6 10.46
3/24/2021 2:15:00 AM 10.26 50.468 0.437 8.01 3.84 10.49
3/24/2021 2:30:00 AM 10.23 50.414 0.437 8 3.96 10.5
3/24/2021 2:45:00 AM 10.2 50.36 0.425 8 3.94 10.52
3/24/2021 3:00:00 AM 10.18 50.324 0.437 8 4.72 10.53
3/24/2021 3:15:00 AM 10.16 50.288 0.437 8 3.78 10.54
3/24/2021 3:30:00 AM 10.14 50.252 0.437 8 3.9 10.55
3/24/2021 3:45:00 AM 10.13 50.234 0.437 8 3.73 10.55
3/24/2021 4:00:00 AM 10.13 50.234 0.437 8 3.69 10.55
3/24/2021 4:15:00 AM 10.12 50.216 0.437 8 3.93 10.53
3/24/2021 4:30:00 AM 10.13 50.234 0.437 8 3.68 10.54
3/24/2021 4:45:00 AM 10.13 50.234 0.437 8 4.02 10.55
3/24/2021 5:00:00 AM 10.14 50.252 0.437 8 3.92 10.5
3/24/2021 5:15:00 AM 10.15 50.27 0.427 8 4 10.55
3/24/2021 5:30:00 AM 10.16 50.288 0.435 8 3.65 10.55
3/24/2021 5:45:00 AM 10.18 50.324 0.403 8 3.89 10.55
3/24/2021 6:00:00 AM 10.19 50.342 0.437 8 3.8 10.54
3/24/2021 6:15:00 AM 10.19 50.342 0.437 8 4.3 10.51
3/24/2021 6:30:00 AM 10.2 50.36 0.437 8 4.35 10.54
3/24/2021 6:45:00 AM 10.21 50.378 0.436 8 4.61 10.52
3/24/2021 7:00:00 AM 10.21 50.378 0.436 8 3.96 10.5
3/24/2021 7:15:00 AM 10.2 50.36 0.436 8 4.01 10.5
3/24/2021 7:30:00 AM 10.2 50.36 0.436 7.99 3.85 10.53
3/24/2021 7:45:00 AM 10.2 50.36 0.436 8 3.84 10.54
3/24/2021 8:00:00 AM 10.2 50.36 0.436 8 3.84 10.52
3/24/2021 8:15:00 AM 10.2 50.36 0.436 8 3.7 10.52
3/24/2021 8:30:00 AM 10.2 50.36 0.436 8 3.75 10.54
3/24/2021 8:45:00 AM 10.21 50.378 0.435 8.01 3.55 10.57
3/24/2021 9:00:00 AM 10.22 50.396 0.435 8.01 3.63 10.63
3/24/2021 9:15:00 AM 10.24 50.432 0.435 8.02 3.77 10.62
3/24/2021 9:30:00 AM 10.25 50.45 0.434 8.02 3.79 10.72
3/24/2021 9:45:00 AM 10.26 50.468 0.434 8.02 3.89 10.76
3/24/2021 10:00:00 AM 10.27 50.486 0.433 8.03 3.84 10.82
3/24/2021 10:15:00 AM 10.29 50.522 0.432 8.04 3.82 10.87
3/24/2021 10:30:00 AM 10.31 50.558 0.43 8.04 4.02 10.94
3/24/2021 10:45:00 AM 10.32 50.576 0.429 8.05 3.97 10.98
3/24/2021 11:00:00 AM 10.34 50.612 0.428 8.05 4.15 11.03
3/24/2021 11:15:00 AM 10.38 50.684 0.426 8.06 4.03 11.13
3/24/2021 11:30:00 AM 10.41 50.738 0.425 8.07 4.38 11.19
3/24/2021 11:45:00 AM 10.44 50.792 0.388 8.08 4.64 11.23
3/24/2021 12:00:00 PM 10.46 50.828 0.422 8.09 4.75 11.31
3/24/2021 12:15:00 PM 10.5 50.9 0.416 8.1 5.58 11.36
3/24/2021 12:30:00 PM 10.54 50.972 0.401 8.11 20.73 11.34
3/24/2021 12:45:00 PM 10.55 50.99 0.393 8.11 29.1 11.34
3/24/2021 1:00:00 PM 10.55 50.99 0.389 8.1 24.89 11.31
3/24/2021 1:15:00 PM 10.56 51.008 0.379 8.08 42.02 11.24
3/24/2021 1:30:00 PM 10.57 51.026 0.367 8.06 68.93 11.17
3/24/2021 1:45:00 PM 10.56 51.008 0.356 8.02 128.45 11.06
3/24/2021 2:00:00 PM 10.55 50.99 0.343 7.97 156.08 11
3/24/2021 2:15:00 PM 10.56 51.008 0.338 7.94 161.34 10.99
3/24/2021 2:30:00 PM 10.59 51.062 0.338 7.94 199.59 11
3/24/2021 2:45:00 PM 10.62 51.116 0.326 7.93 178.88 10.83
3/24/2021 3:00:00 PM 10.66 51.188 0.303 7.9 182.47 10.56
3/24/2021 3:15:00 PM 10.7 51.26 0.288 7.87 225.33 10.42
3/24/2021 3:30:00 PM 10.71 51.278 0.28 7.82 286.7 10.31
3/24/2021 3:45:00 PM 10.67 51.206 0.28 7.8 206 10.37
3/24/2021 4:00:00 PM 10.65 51.17 0.264 7.8 207.24 10.35
3/24/2021 4:15:00 PM 10.69 51.242 0.239 7.78 229.56 10.29
3/24/2021 4:30:00 PM 10.75 51.35 0.223 7.77 279.58 10.24
3/24/2021 4:45:00 PM 10.75 51.35 0.219 7.75 274.64 10.24
3/24/2021 5:00:00 PM 10.74 51.332 0.215 7.74 227.96 10.22
3/24/2021 5:15:00 PM 10.72 51.296 0.214 7.72 222.18 10.23
3/24/2021 5:30:00 PM 10.7 51.26 0.217 7.71 197.48 10.21
3/24/2021 5:45:00 PM 10.69 51.242 0.221 7.69 184.3 10.18
3/24/2021 6:00:00 PM 10.69 51.242 0.225 7.69 169.81 10.18
3/24/2021 6:15:00 PM 10.67 51.206 0.229 7.67 176.21 10.18
3/24/2021 6:30:00 PM 10.66 51.188 0.234 7.67 141.2 10.16
3/24/2021 6:45:00 PM 10.66 51.188 0.238 7.67 147.86 10.15
3/24/2021 7:00:00 PM 10.64 51.152 0.242 7.66 118.6 10.15
3/24/2021 7:15:00 PM 10.64 51.152 0.246 7.67 108.2 10.17
3/24/2021 7:30:00 PM 10.63 51.134 0.251 7.67 107.33 10.18
3/24/2021 7:45:00 PM 10.63 51.134 0.255 7.66 96.96 10.2
3/24/2021 8:00:00 PM 10.62 51.116 0.26 7.66 88.3 10.2
3/24/2021 8:15:00 PM 10.61 51.098 0.264 7.66 86.81 10.21
3/24/2021 8:30:00 PM 10.59 51.062 0.268 7.66 71.16 10.23
3/24/2021 8:45:00 PM 10.58 51.044 0.273 7.66 66.25 10.23
3/24/2021 9:00:00 PM 10.56 51.008 0.277 7.67 61.13 10.24
3/24/2021 9:15:00 PM 10.55 50.99 0.281 7.67 56.03 10.25
3/24/2021 9:30:00 PM 10.54 50.972 0.285 7.67 52.91 10.26
3/24/2021 9:45:00 PM 10.52 50.936 0.289 7.68 50.44 10.25
3/24/2021 10:00:00 PM 10.51 50.918 0.293 7.68 46.56 10.27
3/24/2021 10:15:00 PM 10.5 50.9 0.298 7.68 44.83 10.26
3/24/2021 10:30:00 PM 10.49 50.882 0.302 7.69 40.54 10.27
3/24/2021 10:45:00 PM 10.48 50.864 0.306 7.69 44.23 10.28
3/24/2021 11:00:00 PM 10.48 50.864 0.31 7.69 37.43 10.29
3/24/2021 11:15:00 PM 10.47 50.846 0.314 7.7 30.05 10.3
3/24/2021 11:30:00 PM 10.46 50.828 0.317 7.71 34.11 10.31
3/24/2021 11:45:00 PM 10.45 50.81 0.321 7.71 33.03 10.32
3/25/2021 12:00:00 AM 10.44 50.792 0.324 7.71 31.82 10.33
3/25/2021 12:15:00 AM 10.43 50.774 0.328 7.72 30.16 10.34
3/25/2021 12:30:00 AM 10.42 50.756 0.331 7.72 27.41 10.35
3/25/2021 12:45:00 AM 10.41 50.738 0.334 7.72 26.6 10.36
3/25/2021 1:00:00 AM 10.4 50.72 0.337 7.73 25.73 10.37
3/25/2021 1:15:00 AM 10.39 50.702 0.34 7.73 23.97 10.38
3/25/2021 1:30:00 AM 10.39 50.702 0.343 7.74 22.32 10.39
3/25/2021 1:45:00 AM 10.38 50.684 0.345 7.74 20.87 10.4
3/25/2021 2:00:00 AM 10.38 50.684 0.347 7.74 24.55 10.4
3/25/2021 2:15:00 AM 10.37 50.666 0.35 7.74 25.24 10.41
3/25/2021 2:30:00 AM 10.36 50.648 0.352 7.74 22.73 10.41
3/25/2021 2:45:00 AM 10.35 50.63 0.354 7.75 20.89 10.41
3/25/2021 3:00:00 AM 10.35 50.63 0.355 7.75 22.16 10.43
3/25/2021 3:15:00 AM 10.34 50.612 0.357 7.75 18.77 10.44
3/25/2021 3:30:00 AM 10.33 50.594 0.359 7.75 20.12 10.45
3/25/2021 3:45:00 AM 10.32 50.576 0.361 7.76 18.79 10.45
3/25/2021 4:00:00 AM 10.32 50.576 0.362 7.76 19.74 10.46
3/25/2021 4:15:00 AM 10.31 50.558 0.363 7.76 18.38 10.47
3/25/2021 4:30:00 AM 10.3 50.54 0.364 7.76 18.51 10.46
3/25/2021 4:45:00 AM 10.3 50.54 0.366 7.77 18.53 10.47
3/25/2021 5:00:00 AM 10.29 50.522 0.367 7.77 17.77 10.48
3/25/2021 5:15:00 AM 10.29 50.522 0.368 7.77 17.08 10.49
3/25/2021 5:30:00 AM 10.28 50.504 0.369 7.77 16.71 10.5
3/25/2021 5:45:00 AM 10.27 50.486 0.37 7.77 16.85 10.51
3/25/2021 6:00:00 AM 10.27 50.486 0.371 7.77 16.64 10.52
3/25/2021 6:15:00 AM 10.27 50.486 0.372 7.77 16.45 10.52
3/25/2021 6:30:00 AM 10.26 50.468 0.372 7.78 16.92 10.53
3/25/2021 6:45:00 AM 10.25 50.45 0.373 7.77 16.24 10.53
3/25/2021 7:00:00 AM 10.25 50.45 0.374 7.78 19.02 10.54
3/25/2021 7:15:00 AM 10.25 50.45 0.374 7.78 16.5 10.55
3/25/2021 7:30:00 AM 10.24 50.432 0.375 7.78 15.57 10.55
3/25/2021 7:45:00 AM 10.24 50.432 0.375 7.78 13.86 10.57
3/25/2021 8:00:00 AM 10.25 50.45 0.376 7.79 14.14 10.59
3/25/2021 8:15:00 AM 10.26 50.468 0.376 7.79 14.24 10.61
3/25/2021 8:30:00 AM 10.28 50.504 0.377 7.79 14.08 10.65
3/25/2021 8:45:00 AM 10.3 50.54 0.377 7.8 13.5 10.69
3/25/2021 9:00:00 AM 10.33 50.594 0.378 7.81 12.47 10.74
3/25/2021 9:15:00 AM 10.37 50.666 0.378 7.82 12.13 10.8
3/25/2021 9:30:00 AM 10.41 50.738 0.378 7.83 12 10.87
3/25/2021 9:45:00 AM 10.47 50.846 0.378 7.84 12.03 10.95
3/25/2021 10:00:00 AM 10.51 50.918 0.379 7.85 11.73 11
3/25/2021 10:15:00 AM 10.55 50.99 0.379 7.86 11.14 11.06
3/25/2021 10:30:00 AM 10.58 51.044 0.379 7.87 10.57 11.11
3/25/2021 10:45:00 AM 10.63 51.134 0.38 7.88 10.83 11.17
3/25/2021 11:00:00 AM 10.71 51.278 0.38 7.9 11.16 11.25
3/25/2021 11:15:00 AM 10.76 51.368 0.38 7.91 11.07 11.29
3/25/2021 11:30:00 AM 10.82 51.476 0.38 7.92 10.76 11.34
3/25/2021 11:45:00 AM 10.9 51.62 0.38 7.94 11.58 11.42
3/25/2021 12:00:00 PM 10.99 51.782 0.38 7.95 10.12 11.49
3/25/2021 12:15:00 PM 11.11 51.998 0.379 7.97 10.17 11.57
3/25/2021 12:30:00 PM 11.21 52.178 0.379 7.99 10.29 11.63
3/25/2021 12:45:00 PM 11.34 52.412 0.379 8 10.28 11.7
3/25/2021 1:00:00 PM 11.46 52.628 0.379 8.02 10.04 11.77
3/25/2021 1:15:00 PM 11.55 52.79 0.379 8.04 9.73 11.81
3/25/2021 1:30:00 PM 11.65 52.97 0.379 8.05 9.65 11.84
3/25/2021 1:45:00 PM 11.73 53.114 0.379 8.07 10.21 11.84
3/25/2021 2:00:00 PM 11.82 53.276 0.379 8.08 10.23 11.87
3/25/2021 2:15:00 PM 11.9 53.42 0.379 8.09 9.82 11.9
3/25/2021 2:30:00 PM 11.97 53.546 0.379 8.1 10.65 11.9
3/25/2021 2:45:00 PM 12.05 53.69 0.379 8.11 9.75 11.91
3/25/2021 3:00:00 PM 12.14 53.852 0.379 8.12 9.83 11.92
3/25/2021 3:15:00 PM 12.25 54.05 0.378 8.13 9.78 11.93
3/25/2021 3:30:00 PM 12.36 54.248 0.378 8.14 10.04 11.96
3/25/2021 3:45:00 PM 12.49 54.482 0.378 8.16 10.27 11.98
3/25/2021 4:00:00 PM 12.62 54.716 0.378 8.17 12.39 12
3/25/2021 4:15:00 PM 12.72 54.896 0.378 8.18 10.78 11.98
3/25/2021 4:30:00 PM 12.81 55.058 0.378 8.19 10.18 11.95
3/25/2021 4:45:00 PM 12.88 55.184 0.378 8.19 9.96 11.91
3/25/2021 5:00:00 PM 12.93 55.274 0.378 8.19 10.71 11.83
3/25/2021 5:15:00 PM 12.97 55.346 0.378 8.19 10.17 11.77
3/25/2021 5:30:00 PM 12.99 55.382 0.378 8.18 9.97 11.67
3/25/2021 5:45:00 PM 13 55.4 0.378 8.17 11.51 11.56
3/25/2021 6:00:00 PM 13.02 55.436 0.378 8.16 10.09 11.43
3/25/2021 6:15:00 PM 13.04 55.472 0.378 8.14 9.84 11.29
3/25/2021 6:30:00 PM 13.06 55.508 0.378 8.13 10.35 11.17
3/25/2021 6:45:00 PM 13.07 55.526 0.378 8.11 10.17 11.06
3/25/2021 7:00:00 PM 13.06 55.508 0.378 8.09 10.29 10.92
3/25/2021 7:15:00 PM 13.04 55.472 0.379 8.08 10.12 10.81
3/25/2021 7:30:00 PM 13 55.4 0.378 8.06 10.97 10.64
3/25/2021 7:45:00 PM 12.94 55.292 0.378 8.04 10.49 10.6
3/25/2021 8:00:00 PM 12.87 55.166 0.379 8.02 10.8 10.51
3/25/2021 8:15:00 PM 12.8 55.04 0.379 8 11.5 10.44
3/25/2021 8:30:00 PM 12.73 54.914 0.379 7.98 11.76 10.38
3/25/2021 8:45:00 PM 12.66 54.788 0.38 7.97 11.35 10.33
3/25/2021 9:00:00 PM 12.59 54.662 0.379 7.95 11.71 10.27
3/25/2021 9:15:00 PM 12.52 54.536 0.38 7.94 12.15 10.23
3/25/2021 9:30:00 PM 12.46 54.428 0.38 7.93 12.88 10.18
3/25/2021 9:45:00 PM 12.4 54.32 0.381 7.91 11.88 10.16
3/25/2021 10:00:00 PM 12.34 54.212 0.381 7.9 12.35 10.13
3/25/2021 10:15:00 PM 12.28 54.104 0.381 7.89 12.05 10.1
3/25/2021 10:30:00 PM 12.22 53.996 0.381 7.88 12.09 10.09
3/25/2021 10:45:00 PM 12.17 53.906 0.381 7.88 12.43 10.07
3/25/2021 11:00:00 PM 12.12 53.816 0.38 7.87 13.06 10.06
3/25/2021 11:15:00 PM 12.08 53.744 0.381 7.87 13.36 10.07
3/25/2021 11:30:00 PM 12.04 53.672 0.381 7.86 12.24 10.07
3/25/2021 11:45:00 PM 12 53.6 0.381 7.86 12.48 10.06
3/26/2021 12:00:00 AM 11.97 53.546 0.381 7.85 12.93 10.07
3/26/2021 12:15:00 AM 11.93 53.474 0.381 7.85 12.37 10.07
3/26/2021 12:30:00 AM 11.9 53.42 0.38 7.85 12.12 10.07
3/26/2021 12:45:00 AM 11.87 53.366 0.381 7.85 12.11 10.07
3/26/2021 1:00:00 AM 11.85 53.33 0.381 7.85 12.57 10.08
3/26/2021 1:15:00 AM 11.83 53.294 0.381 7.85 12.2 10.08
3/26/2021 1:30:00 AM 11.8 53.24 0.381 7.85 12.45 10.08
3/26/2021 1:45:00 AM 11.78 53.204 0.381 7.84 11.89 10.06
3/26/2021 2:00:00 AM 11.76 53.168 0.381 7.84 12.34 10.08
3/26/2021 2:15:00 AM 11.74 53.132 0.381 7.84 12.48 10.08
3/26/2021 2:30:00 AM 11.73 53.114 0.38 7.84 13.08 10.1
3/26/2021 2:45:00 AM 11.72 53.096 0.38 7.85 12.63 10.08
3/26/2021 3:00:00 AM 11.71 53.078 0.38 7.84 12.38 10.09
3/26/2021 3:15:00 AM 11.71 53.078 0.38 7.84 18.37 10.09
3/26/2021 3:30:00 AM 11.7 53.06 0.38 7.85 12.68 10.09
3/26/2021 3:45:00 AM 11.69 53.042 0.38 7.85 12.47 10.08
3/26/2021 4:00:00 AM 11.68 53.024 0.38 7.84 12.32 10.08
3/26/2021 4:15:00 AM 11.67 53.006 0.379 7.84 12.56 10.07
3/26/2021 4:30:00 AM 11.66 52.988 0.379 7.84 12.58 10.08
3/26/2021 4:45:00 AM 11.65 52.97 0.379 7.84 12.54 10.08
3/26/2021 5:00:00 AM 11.64 52.952 0.379 7.84 12.78 10.07
3/26/2021 5:15:00 AM 11.62 52.916 0.379 7.84 13.26 10.05
3/26/2021 5:30:00 AM 11.61 52.898 0.379 7.84 12.7 10.09
3/26/2021 5:45:00 AM 11.58 52.844 0.379 7.84 12.32 10.09
3/26/2021 6:00:00 AM 11.55 52.79 0.379 7.83 12.09 10.09
3/26/2021 6:15:00 AM 11.52 52.736 0.379 7.83 12.3 10.1
3/26/2021 6:30:00 AM 11.5 52.7 0.379 7.83 14.89 10.09
3/26/2021 6:45:00 AM 11.47 52.646 0.379 7.83 12.32 10.08
3/26/2021 7:00:00 AM 11.46 52.628 0.379 7.84 12.71 10.1
3/26/2021 7:15:00 AM 11.47 52.646 0.379 7.84 11.91 10.11
3/26/2021 7:30:00 AM 11.48 52.664 0.379 7.84 12.34 10.11
3/26/2021 7:45:00 AM 11.5 52.7 0.379 7.84 12.53 10.14
3/26/2021 8:00:00 AM 11.52 52.736 0.379 7.84 12.33 10.16
3/26/2021 8:15:00 AM 11.54 52.772 0.379 7.85 15.28 10.19
3/26/2021 8:30:00 AM 11.57 52.826 0.379 7.85 12.28 10.2
3/26/2021 8:45:00 AM 11.6 52.88 0.378 7.85 10.85 10.22
3/26/2021 9:00:00 AM 11.67 53.006 0.378 7.87 11.64 10.33
3/26/2021 9:15:00 AM 11.74 53.132 0.378 7.88 11.08 10.41
3/26/2021 9:30:00 AM 11.81 53.258 0.378 7.89 11.68 10.5
3/26/2021 9:45:00 AM 11.91 53.438 0.378 7.9 10.29 10.62
3/26/2021 10:00:00 AM 12.03 53.654 0.378 7.92 10.01 10.72
3/26/2021 10:15:00 AM 12.15 53.87 0.378 7.93 9.74 10.8
3/26/2021 10:30:00 AM 12.32 54.176 0.377 7.95 9.91 10.9
3/26/2021 10:45:00 AM 12.51 54.518 0.377 7.97 9.92 10.99
3/26/2021 11:00:00 AM 12.71 54.878 0.377 7.99 10.12 11.08
3/26/2021 11:15:00 AM 12.94 55.292 0.377 8.01 10.2 11.14
3/26/2021 11:30:00 AM 13.2 55.76 0.376 8.03 9.71 11.18
3/26/2021 11:45:00 AM 13.45 56.21 0.376 8.05 9.57 11.21
3/26/2021 12:00:00 PM 13.72 56.696 0.375 8.07 9.88 11.31
3/26/2021 12:15:00 PM 14 57.2 0.375 8.1 10.09 11.36
3/26/2021 12:30:00 PM 14.28 57.704 0.374 8.12 9.89 11.31
3/26/2021 12:45:00 PM 14.64 58.352 0.374 8.15 9.69 11.4
3/26/2021 1:00:00 PM 14.96 58.928 0.373 8.17 9.82 11.43
3/26/2021 1:15:00 PM 15.25 59.45 0.373 8.19 13.06 11.37
3/26/2021 1:30:00 PM 15.55 59.99 0.373 8.21 9.98 11.4
3/26/2021 1:45:00 PM 15.89 60.602 0.373 8.24 10.28 11.53
3/26/2021 2:00:00 PM 16.2 61.16 0.373 8.26 9.9 11.41
3/26/2021 2:15:00 PM 16.47 61.646 0.373 8.29 10 11.42
3/26/2021 2:30:00 PM 16.71 62.078 0.373 8.3 10.87 11.29
3/26/2021 2:45:00 PM 16.91 62.438 0.373 8.33 11.32 11.5
3/26/2021 3:00:00 PM 17.03 62.654 0.372 8.34 11.71 11.42
3/26/2021 3:15:00 PM 17.1 62.78 0.372 8.35 11.9 11.41
3/26/2021 3:30:00 PM 17.16 62.888 0.372 8.36 11.84 11.37
3/26/2021 3:45:00 PM 17.19 62.942 0.372 8.36 11.61 11.22
3/26/2021 4:00:00 PM 17.19 62.942 0.372 8.36 12.14 11.17
3/26/2021 4:15:00 PM 17.19 62.942 0.372 8.37 11.01 11.06
3/26/2021 4:30:00 PM 17.1 62.78 0.372 8.37 32.65 11.03
3/26/2021 4:45:00 PM 17.02 62.636 0.372 8.36 14.11 10.98
3/26/2021 5:00:00 PM 16.89 62.402 0.372 8.34 11.42 10.85
3/26/2021 5:15:00 PM 16.74 62.132 0.373 8.33 11.44 10.76
3/26/2021 5:30:00 PM 16.58 61.844 0.373 8.31 12.23 10.71
3/26/2021 5:45:00 PM 16.42 61.556 0.373 8.29 12.26 10.53
3/26/2021 6:00:00 PM 16.24 61.232 0.374 8.26 11.27 10.42
3/26/2021 6:15:00 PM 16.05 60.89 0.374 8.24 10.27 10.2
3/26/2021 6:30:00 PM 15.87 60.566 0.374 8.21 10.31 10.1
3/26/2021 6:45:00 PM 15.69 60.242 0.375 8.18 10.38 9.86
3/26/2021 7:00:00 PM 15.52 59.936 0.375 8.15 10.06 9.83
3/26/2021 7:15:00 PM 15.37 59.666 0.376 8.13 9.62 9.8
3/26/2021 7:30:00 PM 15.21 59.378 0.376 8.11 11.46 9.58
3/26/2021 7:45:00 PM 15.03 59.054 0.377 8.08 10.59 9.83
3/26/2021 8:00:00 PM 14.81 58.658 0.377 8.07 11.97 9.8
3/26/2021 8:15:00 PM 14.61 58.298 0.378 8.04 11.37 9.79
3/26/2021 8:30:00 PM 14.39 57.902 0.379 8.02 13.92 9.81
3/26/2021 8:45:00 PM 14.18 57.524 0.379 8.01 11.35 9.65
3/26/2021 9:00:00 PM 13.94 57.092 0.38 7.99 11.83 9.82
3/26/2021 9:15:00 PM 13.71 56.678 0.381 7.98 10.88 9.83
3/26/2021 9:30:00 PM 13.49 56.282 0.382 7.96 11.01 9.86
3/26/2021 9:45:00 PM 13.29 55.922 0.382 7.95 11 9.87
3/26/2021 10:00:00 PM 13.08 55.544 0.383 7.94 11.41 9.88
3/26/2021 10:15:00 PM 12.89 55.202 0.384 7.93 10.99 9.9
3/26/2021 10:30:00 PM 12.71 54.878 0.384 7.93 10.93 9.93
3/26/2021 10:45:00 PM 12.54 54.572 0.385 7.92 10.61 9.93
3/26/2021 11:00:00 PM 12.38 54.284 0.383 7.91 10.7 9.95
3/26/2021 11:15:00 PM 12.23 54.014 0.386 7.9 11.32 9.97
3/26/2021 11:30:00 PM 12.09 53.762 0.386 7.89 10.89 10
3/26/2021 11:45:00 PM 11.95 53.51 0.386 7.89 10.29 10.04
3/27/2021 12:00:00 AM 11.81 53.258 0.386 7.89 10.34 10
3/27/2021 12:15:00 AM 11.69 53.042 0.386 7.88 10.95 10.04
3/27/2021 12:30:00 AM 11.57 52.826 0.386 7.88 10.5 10.12
3/27/2021 12:45:00 AM 11.45 52.61 0.387 7.88 10.99 10.16
3/27/2021 1:00:00 AM 11.35 52.43 0.387 7.88 10.16 10.18
3/27/2021 1:15:00 AM 11.25 52.25 0.388 7.88 10.77 10.22
3/27/2021 1:30:00 AM 11.14 52.052 0.389 7.88 10.58 10.24
3/27/2021 1:45:00 AM 11.04 51.872 0.389 7.88 11.24 10.28
3/27/2021 2:00:00 AM 10.95 51.71 0.389 7.88 9.88 10.3
3/27/2021 2:15:00 AM 10.85 51.53 0.389 7.88 10.09 10.32
3/27/2021 2:30:00 AM 10.76 51.368 0.389 7.87 11 10.35
3/27/2021 2:45:00 AM 10.67 51.206 0.388 7.87 9.28 10.39
3/27/2021 3:00:00 AM 10.59 51.062 0.388 7.87 9.38 10.41
3/27/2021 3:15:00 AM 10.5 50.9 0.388 7.87 9.96 10.44
3/27/2021 3:30:00 AM 10.42 50.756 0.388 7.87 9.27 10.45
3/27/2021 3:45:00 AM 10.34 50.612 0.388 7.87 9.87 10.47
3/27/2021 4:00:00 AM 10.26 50.468 0.388 7.87 9.23 10.49
3/27/2021 4:15:00 AM 10.18 50.324 0.388 7.87 9.8 10.52
3/27/2021 4:30:00 AM 10.1 50.18 0.388 7.87 9.71 10.55
3/27/2021 4:45:00 AM 10.02 50.036 0.388 7.87 10.28 10.57
3/27/2021 5:00:00 AM 9.95 49.91 0.389 7.87 9.76 10.6
3/27/2021 5:15:00 AM 9.87 49.766 0.388 7.87 9.55 10.6
3/27/2021 5:30:00 AM 9.8 49.64 0.389 7.87 9.97 10.63
3/27/2021 5:45:00 AM 9.73 49.514 0.389 7.87 10.14 10.65
3/27/2021 6:00:00 AM 9.66 49.388 0.389 7.87 9.59 10.68
3/27/2021 6:15:00 AM 9.59 49.262 0.389 7.87 9.93 10.69
3/27/2021 6:30:00 AM 9.52 49.136 0.389 7.87 10.38 10.72
3/27/2021 6:45:00 AM 9.45 49.01 0.389 7.87 9.86 10.75
3/27/2021 7:00:00 AM 9.39 48.902 0.389 7.87 11.93 10.78
3/27/2021 7:15:00 AM 9.33 48.794 0.389 7.87 10.22 10.8
3/27/2021 7:30:00 AM 9.28 48.704 0.389 7.87 9.2 10.84
3/27/2021 7:45:00 AM 9.23 48.614 0.389 7.87 8.58 10.88
3/27/2021 8:00:00 AM 9.19 48.542 0.389 7.88 8.85 10.92
3/27/2021 8:15:00 AM 9.16 48.488 0.389 7.88 8.87 10.98
3/27/2021 8:30:00 AM 9.14 48.452 0.389 7.88 8.26 11.02
3/27/2021 8:45:00 AM 9.13 48.434 0.389 7.89 8.32 11.08
3/27/2021 9:00:00 AM 9.15 48.47 0.389 7.9 8.67 11.16
3/27/2021 9:15:00 AM 9.2 48.56 0.389 7.91 8.36 11.25
3/27/2021 9:30:00 AM 9.28 48.704 0.39 7.91 8.63 11.34
3/27/2021 9:45:00 AM 9.38 48.884 0.389 7.93 7.89 11.43
3/27/2021 10:00:00 AM 9.48 49.064 0.389 7.94 7.73 11.53
3/27/2021 10:15:00 AM 9.62 49.316 0.389 7.96 8.21 11.64
3/27/2021 10:30:00 AM 9.78 49.604 0.389 7.98 8.5 11.74
3/27/2021 10:45:00 AM 9.95 49.91 0.388 8 8.23 11.87
3/27/2021 11:00:00 AM 10.16 50.288 0.388 8.02 7.73 11.97
3/27/2021 11:15:00 AM 10.41 50.738 0.388 8.04 7.99 12.08
3/27/2021 11:30:00 AM 10.68 51.224 0.388 8.07 8.05 12.18
3/27/2021 11:45:00 AM 10.99 51.782 0.388 8.1 7.6 12.24
3/27/2021 12:00:00 PM 11.31 52.358 0.387 8.12 7.64 12.31
3/27/2021 12:15:00 PM 11.66 52.988 0.387 8.15 7.4 12.33
3/27/2021 12:30:00 PM 12.04 53.672 0.386 8.18 7.5 12.37
3/27/2021 12:45:00 PM 12.42 54.356 0.386 8.21 7.37 12.39
3/27/2021 1:00:00 PM 12.79 55.022 0.386 8.24 7.82 12.4
3/27/2021 1:15:00 PM 13.14 55.652 0.385 8.26 7.29 12.4
3/27/2021 1:30:00 PM 13.48 56.264 0.385 8.29 9.45 12.38
3/27/2021 1:45:00 PM 13.8 56.84 0.384 8.31 7.85 12.36
3/27/2021 2:00:00 PM 14.04 57.272 0.384 8.34 10.97 12.32
3/27/2021 2:15:00 PM 14.25 57.65 0.384 8.36 8.35 12.29
3/27/2021 2:30:00 PM 14.44 57.992 0.383 8.38 8.31 12.25
3/27/2021 2:45:00 PM 14.62 58.316 0.383 8.4 8.12 12.23
3/27/2021 3:00:00 PM 14.78 58.604 0.383 8.41 7.89 12.19
3/27/2021 3:15:00 PM 14.96 58.928 0.382 8.43 7.83 12.14
3/27/2021 3:30:00 PM 15.1 59.18 0.381 8.44 7.99 12.09
3/27/2021 3:45:00 PM 15.19 59.342 0.381 8.45 7.92 12.04
3/27/2021 4:00:00 PM 15.26 59.468 0.381 8.46 7.9 11.97
3/27/2021 4:15:00 PM 15.3 59.54 0.381 8.46 8.02 11.89
3/27/2021 4:30:00 PM 15.32 59.576 0.381 8.46 8.08 11.79
3/27/2021 4:45:00 PM 15.32 59.576 0.381 8.46 7.96 11.68
3/27/2021 5:00:00 PM 15.31 59.558 0.382 8.45 8.11 11.58
3/27/2021 5:15:00 PM 15.28 59.504 0.382 8.43 8.31 11.48
3/27/2021 5:30:00 PM 15.24 59.432 0.382 8.42 8.29 11.36
3/27/2021 5:45:00 PM 15.18 59.324 0.382 8.4 8.15 11.25
3/27/2021 6:00:00 PM 15.12 59.216 0.382 8.38 8.06 11.14
3/27/2021 6:15:00 PM 15.04 59.072 0.383 8.35 8.13 10.99
3/27/2021 6:30:00 PM 14.95 58.91 0.383 8.33 8.48 10.89
3/27/2021 6:45:00 PM 14.85 58.73 0.383 8.3 8.56 10.78
3/27/2021 7:00:00 PM 14.74 58.532 0.384 8.27 8.48 10.67
3/27/2021 7:15:00 PM 14.6 58.28 0.384 8.24 8.22 10.55
3/27/2021 7:30:00 PM 14.46 58.028 0.385 8.21 8.54 10.44
3/27/2021 7:45:00 PM 14.3 57.74 0.386 8.18 8.44 10.36
3/27/2021 8:00:00 PM 14.14 57.452 0.386 8.15 8.79 10.28
3/27/2021 8:15:00 PM 13.98 57.164 0.387 8.12 8.79 10.22
3/27/2021 8:30:00 PM 13.82 56.876 0.388 8.09 8.48 10.16
3/27/2021 8:45:00 PM 13.66 56.588 0.389 8.07 8.39 10.11
3/27/2021 9:00:00 PM 13.51 56.318 0.39 8.05 8.76 10.08
3/27/2021 9:15:00 PM 13.35 56.03 0.39 8.03 8.55 10.05
3/27/2021 9:30:00 PM 13.21 55.778 0.391 8.02 8.6 10.02
3/27/2021 9:45:00 PM 13.06 55.508 0.392 8 8.86 10.01
3/27/2021 10:00:00 PM 12.93 55.274 0.393 7.98 8.65 10
3/27/2021 10:15:00 PM 12.79 55.022 0.393 7.97 8.56 10
3/27/2021 10:30:00 PM 12.66 54.788 0.394 7.96 8.79 9.99
3/27/2021 10:45:00 PM 12.53 54.554 0.394 7.95 8.88 9.98
3/27/2021 11:00:00 PM 12.41 54.338 0.394 7.94 8.81 9.97
3/27/2021 11:15:00 PM 12.3 54.14 0.394 7.93 8.57 9.97
3/27/2021 11:30:00 PM 12.18 53.924 0.394 7.93 8.9 9.99
3/27/2021 11:45:00 PM 12.07 53.726 0.395 7.92 8.74 10.02
3/28/2021 12:00:00 AM 11.97 53.546 0.395 7.92 8.69 10.04
3/28/2021 12:15:00 AM 11.86 53.348 0.395 7.92 8.94 10.05
3/28/2021 12:30:00 AM 11.76 53.168 0.395 7.91 9.97 10.06
3/28/2021 12:45:00 AM 11.67 53.006 0.395 7.91 8.85 10.08
3/28/2021 1:00:00 AM 11.58 52.844 0.395 7.91 8.97 10.11
3/28/2021 1:15:00 AM 11.5 52.7 0.396 7.9 9.2 10.13
3/28/2021 1:30:00 AM 11.42 52.556 0.396 7.91 8.78 10.16
3/28/2021 1:45:00 AM 11.34 52.412 0.396 7.9 8.8 10.18
3/28/2021 2:00:00 AM 11.27 52.286 0.396 7.9 8.8 10.19
3/28/2021 2:15:00 AM 11.21 52.178 0.396 7.9 8.53 10.21
3/28/2021 2:30:00 AM 11.14 52.052 0.396 7.9 8.7 10.21
3/28/2021 2:45:00 AM 11.09 51.962 0.396 7.9 8.72 10.22
3/28/2021 3:00:00 AM 11.05 51.89 0.396 7.9 13.14 10.23
3/28/2021 3:15:00 AM 11 51.8 0.396 7.9 8.82 10.27
3/28/2021 3:30:00 AM 10.97 51.746 0.396 7.9 8.8 10.28
3/28/2021 3:45:00 AM 10.94 51.692 0.396 7.9 8.88 10.3
3/28/2021 4:00:00 AM 10.92 51.656 0.396 7.9 8.94 10.29
3/28/2021 4:15:00 AM 10.9 51.62 0.396 7.9 8.47 10.3
3/28/2021 4:30:00 AM 10.88 51.584 0.396 7.9 8.67 10.31
3/28/2021 4:45:00 AM 10.87 51.566 0.396 7.9 8.94 10.32
3/28/2021 5:00:00 AM 10.85 51.53 0.396 7.9 8.75 10.33
3/28/2021 5:15:00 AM 10.84 51.512 0.396 7.9 8.87 10.33
3/28/2021 5:30:00 AM 10.82 51.476 0.396 7.9 8.9 10.34
3/28/2021 5:45:00 AM 10.8 51.44 0.396 7.9 11.62 10.34
3/28/2021 6:00:00 AM 10.78 51.404 0.396 7.9 8.75 10.35
3/28/2021 6:15:00 AM 10.77 51.386 0.396 7.9 8.97 10.35
3/28/2021 6:30:00 AM 10.76 51.368 0.396 7.9 9.63 10.35
3/28/2021 6:45:00 AM 10.75 51.35 0.396 7.9 9.5 10.36
3/28/2021 7:00:00 AM 10.74 51.332 0.396 7.9 9.12 10.35
3/28/2021 7:15:00 AM 10.73 51.314 0.396 7.9 8.84 10.35
3/28/2021 7:30:00 AM 10.73 51.314 0.396 7.9 9.59 10.37
3/28/2021 7:45:00 AM 10.74 51.332 0.395 7.91 8.64 10.37
3/28/2021 8:00:00 AM 10.74 51.332 0.393 7.9 8.7 10.38
3/28/2021 8:15:00 AM 10.74 51.332 0.389 7.9 9.7 10.38
3/28/2021 8:30:00 AM 10.74 51.332 0.387 7.9 10.6 10.38
3/28/2021 8:45:00 AM 10.74 51.332 0.385 7.9 11.26 10.38
3/28/2021 9:00:00 AM 10.74 51.332 0.383 7.9 15.24 10.38
3/28/2021 9:15:00 AM 10.75 51.35 0.381 7.89 11.17 10.43
3/28/2021 9:30:00 AM 10.75 51.35 0.38 7.89 11.31 10.43
3/28/2021 9:45:00 AM 10.76 51.368 0.38 7.88 11.75 10.45
3/28/2021 10:00:00 AM 10.77 51.386 0.38 7.89 13.01 10.46
3/28/2021 10:15:00 AM 10.79 51.422 0.379 7.89 12.83 10.49
3/28/2021 10:30:00 AM 10.8 51.44 0.378 7.89 12.51 10.52
3/28/2021 10:45:00 AM 10.82 51.476 0.376 7.89 12.92 10.53
3/28/2021 11:00:00 AM 10.83 51.494 0.374 7.89 12.82 10.51
3/28/2021 11:15:00 AM 10.85 51.53 0.371 7.89 13.53 10.5
3/28/2021 11:30:00 AM 10.87 51.566 0.369 7.9 13.98 10.45
3/28/2021 11:45:00 AM 10.89 51.602 0.366 7.89 16.69 10.43
3/28/2021 12:00:00 PM 10.92 51.656 0.363 7.89 17.38 10.39
3/28/2021 12:15:00 PM 10.95 51.71 0.362 7.87 23.93 10.26
3/28/2021 12:30:00 PM 10.99 51.782 0.364 7.87 19.08 10.37
3/28/2021 12:45:00 PM 11.02 51.836 0.367 7.87 21.7 10.35
3/28/2021 1:00:00 PM 11.05 51.89 0.369 7.87 21.61 10.36
3/28/2021 1:15:00 PM 11.09 51.962 0.369 7.87 19.57 10.33
3/28/2021 1:30:00 PM 11.13 52.034 0.366 7.88 21.81 10.38
3/28/2021 1:45:00 PM 11.17 52.106 0.363 7.87 21.88 10.33
3/28/2021 2:00:00 PM 11.23 52.214 0.359 7.87 23.57 10.36
3/28/2021 2:15:00 PM 11.3 52.34 0.355 7.87 23.69 10.44
3/28/2021 2:30:00 PM 11.37 52.466 0.351 7.87 24.54 10.44
3/28/2021 2:45:00 PM 11.43 52.574 0.348 7.86 23.9 10.41
3/28/2021 3:00:00 PM 11.5 52.7 0.345 7.86 22.56 10.41
3/28/2021 3:15:00 PM 11.56 52.808 0.342 7.86 22.96 10.48
3/28/2021 3:30:00 PM 11.62 52.916 0.339 7.85 22.84 10.5
3/28/2021 3:45:00 PM 11.7 53.06 0.335 7.85 19.72 10.52
3/28/2021 4:00:00 PM 11.78 53.204 0.331 7.85 19.14 10.29
3/28/2021 4:15:00 PM 11.87 53.366 0.328 7.86 21.37 10.58
3/28/2021 4:30:00 PM 11.98 53.564 0.326 7.86 19.09 10.6
3/28/2021 4:45:00 PM 12.07 53.726 0.324 7.87 19.27 10.6
3/28/2021 5:00:00 PM 12.13 53.834 0.322 7.87 18.72 10.61
3/28/2021 5:15:00 PM 12.19 53.942 0.319 7.87 18.31 10.65
3/28/2021 5:30:00 PM 12.25 54.05 0.317 7.87 18.8 10.58
3/28/2021 5:45:00 PM 12.29 54.122 0.314 7.87 19.43 10.48
3/28/2021 6:00:00 PM 12.31 54.158 0.313 7.86 20.5 10.48
3/28/2021 6:15:00 PM 12.34 54.212 0.313 7.86 22.03 10.42
3/28/2021 6:30:00 PM 12.37 54.266 0.312 7.86 23.94 10.24
3/28/2021 6:45:00 PM 12.4 54.32 0.313 7.86 23.12 10.33
3/28/2021 7:00:00 PM 12.43 54.374 0.314 7.86 23.48 10.3
3/28/2021 7:15:00 PM 12.45 54.41 0.315 7.85 31.47 10.25
3/28/2021 7:30:00 PM 12.44 54.392 0.317 7.85 30.28 10.29
3/28/2021 7:45:00 PM 12.41 54.338 0.321 7.84 36.07 10.29
3/28/2021 8:00:00 PM 12.37 54.266 0.324 7.85 28.28 10.17
3/28/2021 8:15:00 PM 12.3 54.14 0.324 7.84 36.87 10
3/28/2021 8:30:00 PM 12.2 53.96 0.321 7.82 38.17 9.85
3/28/2021 8:45:00 PM 12.12 53.816 0.316 7.81 45.97 9.77
3/28/2021 9:00:00 PM 12.04 53.672 0.315 7.79 47.23 9.65
3/28/2021 9:15:00 PM 11.96 53.528 0.317 7.78 47.72 9.64
3/28/2021 9:30:00 PM 11.84 53.312 0.321 7.77 49.97 9.65
3/28/2021 9:45:00 PM 11.72 53.096 0.327 7.76 45.59 9.65
3/28/2021 10:00:00 PM 11.59 52.862 0.331 7.75 40.55 9.69
3/28/2021 10:15:00 PM 11.48 52.664 0.331 7.75 39.09 9.72
3/28/2021 10:30:00 PM 11.37 52.466 0.329 7.74 49.15 9.75
3/28/2021 10:45:00 PM 11.24 52.232 0.325 7.75 40.05 9.85
3/28/2021 11:00:00 PM 11.12 52.016 0.32 7.74 49 9.88
3/28/2021 11:15:00 PM 10.99 51.782 0.312 7.73 41.81 9.88
3/28/2021 11:30:00 PM 10.86 51.548 0.304 7.72 39.6 9.94
3/28/2021 11:45:00 PM 10.73 51.314 0.3 7.71 39.26 9.99
3/29/2021 12:00:00 AM 10.59 51.062 0.298 7.71 38.94 10.03
3/29/2021 12:15:00 AM 10.47 50.846 0.298 7.71 38.58 10
3/29/2021 12:30:00 AM 10.36 50.648 0.3 7.72 36.75 10.03
3/29/2021 12:45:00 AM 10.24 50.432 0.302 7.72 34.95 10.09
3/29/2021 1:00:00 AM 10.12 50.216 0.304 7.72 34.41 10.14
3/29/2021 1:15:00 AM 10 50 0.306 7.71 33.54 10.18
3/29/2021 1:30:00 AM 9.88 49.784 0.31 7.72 33.86 10.22
3/29/2021 1:45:00 AM 9.76 49.568 0.313 7.72 29.95 10.26
3/29/2021 2:00:00 AM 9.65 49.37 0.316 7.72 28.83 10.31
3/29/2021 2:15:00 AM 9.53 49.154 0.319 7.73 28.12 10.36
3/29/2021 2:30:00 AM 9.43 48.974 0.322 7.73 26.82 10.43
3/29/2021 2:45:00 AM 9.35 48.83 0.326 7.73 25.28 10.46
3/29/2021 3:00:00 AM 9.26 48.668 0.329 7.74 24.75 10.48
3/29/2021 3:15:00 AM 9.17 48.506 0.332 7.74 24.13 10.54
3/29/2021 3:30:00 AM 9.08 48.344 0.335 7.75 22.69 10.58
3/29/2021 3:45:00 AM 9 48.2 0.338 7.75 22.72 10.62
3/29/2021 4:00:00 AM 8.94 48.092 0.341 7.76 21.81 10.67
3/29/2021 4:15:00 AM 8.87 47.966 0.343 7.76 21.29 10.71
3/29/2021 4:30:00 AM 8.8 47.84 0.346 7.77 20.4 10.75
3/29/2021 4:45:00 AM 8.72 47.696 0.348 7.77 19.28 10.79
3/29/2021 5:00:00 AM 8.65 47.57 0.35 7.78 19.4 10.82
3/29/2021 5:15:00 AM 8.57 47.426 0.352 7.78 19.59 10.84
3/29/2021 5:30:00 AM 8.5 47.3 0.354 7.79 19.49 10.88
3/29/2021 5:45:00 AM 8.43 47.174 0.356 7.8 18.41 10.9
3/29/2021 6:00:00 AM 8.37 47.066 0.358 7.8 18.05 10.93
3/29/2021 6:15:00 AM 8.3 46.94 0.36 7.8 17.2 10.96
3/29/2021 6:30:00 AM 8.23 46.814 0.361 7.8 16.43 10.99
3/29/2021 6:45:00 AM 8.19 46.742 0.363 7.81 17.2 11.02
3/29/2021 7:00:00 AM 8.15 46.67 0.364 7.81 15.98 11.04
3/29/2021 7:15:00 AM 8.13 46.634 0.365 7.82 15.85 11.06
3/29/2021 7:30:00 AM 8.09 46.562 0.366 7.82 15.67 11.1
3/29/2021 7:45:00 AM 8.05 46.49 0.367 7.82 15.53 11.13
3/29/2021 8:00:00 AM 8 46.4 0.368 7.83 15.13 11.19
3/29/2021 8:15:00 AM 7.97 46.346 0.369 7.84 14.53 11.27
3/29/2021 8:30:00 AM 7.95 46.31 0.37 7.84 14.37 11.34
3/29/2021 8:45:00 AM 7.94 46.292 0.37 7.85 13.75 11.42
3/29/2021 9:00:00 AM 7.94 46.292 0.371 7.86 13.91 11.51
3/29/2021 9:15:00 AM 7.96 46.328 0.372 7.87 13.6 11.61
3/29/2021 9:30:00 AM 7.99 46.382 0.372 7.89 13.03 11.71
3/29/2021 9:45:00 AM 8.04 46.472 0.373 7.9 12.81 11.81
3/29/2021 10:00:00 AM 8.11 46.598 0.373 7.91 13.1 11.9
3/29/2021 10:15:00 AM 8.16 46.688 0.373 7.92 12.29 11.98
3/29/2021 10:30:00 AM 8.29 46.922 0.374 7.94 12.62 12.08
3/29/2021 10:45:00 AM 8.41 47.138 0.374 7.96 12.22 12.16
3/29/2021 11:00:00 AM 8.55 47.39 0.374 7.97 12.08 12.26
3/29/2021 11:15:00 AM 8.67 47.606 0.374 7.99 12.24 12.35
3/29/2021 11:30:00 AM 8.84 47.912 0.375 8.01 12.33 12.42
3/29/2021 11:45:00 AM 9.03 48.254 0.375 8.03 11.65 12.51
3/29/2021 12:00:00 PM 9.27 48.686 0.375 8.05 11.98 12.59
3/29/2021 12:15:00 PM 9.52 49.136 0.375 8.07 12.21 12.64
3/29/2021 12:30:00 PM 9.81 49.658 0.375 8.1 12.3 12.69
3/29/2021 12:45:00 PM 10.08 50.144 0.375 8.12 11.54 12.74
3/29/2021 1:00:00 PM 10.36 50.648 0.375 8.14 12.21 12.72
3/29/2021 1:15:00 PM 10.71 51.278 0.375 8.16 11.62 12.74
3/29/2021 1:30:00 PM 11.05 51.89 0.374 8.19 11.92 12.74
3/29/2021 1:45:00 PM 11.38 52.484 0.375 8.21 12.5 12.75
3/29/2021 2:00:00 PM 11.65 52.97 0.375 8.23 12.14 12.7
3/29/2021 2:15:00 PM 11.9 53.42 0.375 8.25 12.01 12.65
3/29/2021 2:30:00 PM 12.11 53.798 0.375 8.26 12.76 12.61
3/29/2021 2:45:00 PM 12.32 54.176 0.375 8.28 12.83 12.58
3/29/2021 3:00:00 PM 12.54 54.572 0.375 8.3 13.2 12.51
3/29/2021 3:15:00 PM 12.72 54.896 0.375 8.32 12.3 12.47
3/29/2021 3:30:00 PM 12.88 55.184 0.375 8.33 13.78 12.45
3/29/2021 3:45:00 PM 13.02 55.436 0.375 8.35 13.37 12.38
3/29/2021 4:00:00 PM 13.11 55.598 0.373 8.35 16.23 12.3
3/29/2021 4:15:00 PM 13.16 55.688 0.375 8.37 11.75 12.24
3/29/2021 4:30:00 PM 13.2 55.76 0.375 8.37 12.94 12.14
3/29/2021 4:45:00 PM 13.18 55.724 0.375 8.37 13.1 12.1
3/29/2021 5:00:00 PM 13.13 55.634 0.375 8.37 13.55 11.89
3/29/2021 5:15:00 PM 13.09 55.562 0.375 8.37 13.23 11.95
3/29/2021 5:30:00 PM 13.02 55.436 0.376 8.36 13.34 11.87
3/29/2021 5:45:00 PM 12.91 55.238 0.376 8.34 13.06 11.75
3/29/2021 6:00:00 PM 12.81 55.058 0.376 8.32 13.81 11.63
3/29/2021 6:15:00 PM 12.7 54.86 0.377 8.3 12.5 11.49
3/29/2021 6:30:00 PM 12.6 54.68 0.377 8.27 11.86 11.39
3/29/2021 6:45:00 PM 12.51 54.518 0.378 8.25 11.82 10.68
3/29/2021 7:00:00 PM 12.4 54.32 0.378 8.23 11.76 11.04
3/29/2021 7:15:00 PM 12.3 54.14 0.378 8.2 12.29 11.01
3/29/2021 7:30:00 PM 12.19 53.942 0.377 8.18 12.03 10.87
3/29/2021 7:45:00 PM 12.06 53.708 0.379 8.16 11.46 10.7
3/29/2021 8:00:00 PM 11.9 53.42 0.38 8.13 12.01 10.95
3/29/2021 8:15:00 PM 11.75 53.15 0.38 8.11 11.92 10.87
3/29/2021 8:30:00 PM 11.58 52.844 0.381 8.09 11.65 10.86
3/29/2021 8:45:00 PM 11.4 52.52 0.381 8.07 12.48 10.78
3/29/2021 9:00:00 PM 11.22 52.196 0.382 8.06 11.5 10.85
3/29/2021 9:15:00 PM 11.05 51.89 0.382 8.03 11.78 10.83
3/29/2021 9:30:00 PM 10.87 51.566 0.383 8.01 11.97 10.8
3/29/2021 9:45:00 PM 10.69 51.242 0.384 8 12.13 10.79
3/29/2021 10:00:00 PM 10.51 50.918 0.384 7.98 11.82 10.78
3/29/2021 10:15:00 PM 10.33 50.594 0.385 7.96 12.22 10.75
3/29/2021 10:30:00 PM 10.16 50.288 0.386 7.95 12.55 10.75
3/29/2021 10:45:00 PM 10.01 50.018 0.386 7.93 12.27 10.74
3/29/2021 11:00:00 PM 9.87 49.766 0.387 7.92 13.6 10.74
3/29/2021 11:15:00 PM 9.73 49.514 0.387 7.91 12.57 10.74
3/29/2021 11:30:00 PM 9.6 49.28 0.387 7.9 12.75 10.73
3/29/2021 11:45:00 PM 9.47 49.046 0.387 7.9 11.87 10.76
3/30/2021 12:00:00 AM 9.35 48.83 0.387 7.89 12.7 10.8
3/30/2021 12:15:00 AM 9.24 48.632 0.388 7.89 12.47 10.83
3/30/2021 12:30:00 AM 9.12 48.416 0.388 7.89 12.58 10.86
3/30/2021 12:45:00 AM 9.02 48.236 0.388 7.88 14.34 10.87
3/30/2021 1:00:00 AM 8.91 48.038 0.388 7.88 12.55 10.86
3/30/2021 1:15:00 AM 8.81 47.858 0.388 7.88 12.93 10.91
3/30/2021 1:30:00 AM 8.71 47.678 0.388 7.88 14.07 10.99
3/30/2021 1:45:00 AM 8.62 47.516 0.388 7.88 14.44 11.02
3/30/2021 2:00:00 AM 8.53 47.354 0.388 7.88 13.3 10.97
3/30/2021 2:15:00 AM 8.45 47.21 0.388 7.88 12.71 11.07
3/30/2021 2:30:00 AM 8.37 47.066 0.388 7.88 11.23 11.1
3/30/2021 2:45:00 AM 8.29 46.922 0.389 7.88 11.41 11.12
3/30/2021 3:00:00 AM 8.22 46.796 0.389 7.88 11.67 11.15
3/30/2021 3:15:00 AM 8.15 46.67 0.389 7.88 11.57 11.17
3/30/2021 3:30:00 AM 8.08 46.544 0.389 7.88 11.16 11.2
3/30/2021 3:45:00 AM 8.01 46.418 0.389 7.87 12.17 11.22
3/30/2021 4:00:00 AM 7.94 46.292 0.389 7.88 11.4 11.24
3/30/2021 4:15:00 AM 7.88 46.184 0.389 7.88 12.09 11.26
3/30/2021 4:30:00 AM 7.82 46.076 0.389 7.88 11.64 11.27
3/30/2021 4:45:00 AM 7.76 45.968 0.389 7.88 11.66 11.3
3/30/2021 5:00:00 AM 7.7 45.86 0.388 7.88 11.43 11.32
3/30/2021 5:15:00 AM 7.64 45.752 0.388 7.88 11.52 11.34
3/30/2021 5:30:00 AM 7.59 45.662 0.388 7.88 11.82 11.37
3/30/2021 5:45:00 AM 7.54 45.572 0.388 7.88 11.49 11.38
3/30/2021 6:00:00 AM 7.49 45.482 0.388 7.88 11.42 11.39
3/30/2021 6:15:00 AM 7.45 45.41 0.389 7.88 11.37 11.4
3/30/2021 6:30:00 AM 7.4 45.32 0.389 7.88 11.9 11.42
3/30/2021 6:45:00 AM 7.36 45.248 0.389 7.88 11.44 11.44
3/30/2021 7:00:00 AM 7.32 45.176 0.389 7.88 11.53 11.45
3/30/2021 7:15:00 AM 7.29 45.122 0.389 7.88 11.7 11.48
3/30/2021 7:30:00 AM 7.26 45.068 0.389 7.88 11.27 11.52
3/30/2021 7:45:00 AM 7.23 45.014 0.389 7.88 11.23 11.55
3/30/2021 8:00:00 AM 7.21 44.978 0.389 7.89 11.16 11.59
3/30/2021 8:15:00 AM 7.2 44.96 0.389 7.89 11.02 11.63
3/30/2021 8:30:00 AM 7.2 44.96 0.389 7.89 10.73 11.67
3/30/2021 8:45:00 AM 7.22 44.996 0.389 7.9 10.73 11.73
3/30/2021 9:00:00 AM 7.27 45.086 0.389 7.91 10.57 11.78
3/30/2021 9:15:00 AM 7.35 45.23 0.389 7.91 10.55 11.85
3/30/2021 9:30:00 AM 7.44 45.392 0.389 7.92 10.77 11.91
3/30/2021 9:45:00 AM 7.56 45.608 0.389 7.93 10.52 11.98
3/30/2021 10:00:00 AM 7.69 45.842 0.389 7.94 10.52 12.04
3/30/2021 10:15:00 AM 7.86 46.148 0.388 7.96 10.36 12.14
3/30/2021 10:30:00 AM 8.05 46.49 0.388 7.97 10.34 12.21
3/30/2021 10:45:00 AM 8.27 46.886 0.388 7.99 10.31 12.31
3/30/2021 11:00:00 AM 8.54 47.372 0.388 8.01 10.25 12.4
3/30/2021 11:15:00 AM 8.84 47.912 0.388 8.03 10.21 12.49
3/30/2021 11:30:00 AM 9.18 48.524 0.388 8.05 10.13 12.55
3/30/2021 11:45:00 AM 9.53 49.154 0.387 8.08 10.3 12.6
3/30/2021 12:00:00 PM 9.91 49.838 0.387 8.1 10.05 12.67
3/30/2021 12:15:00 PM 10.3 50.54 0.386 8.13 10.21 12.68
3/30/2021 12:30:00 PM 10.7 51.26 0.385 8.16 10.35 12.73
3/30/2021 12:45:00 PM 11.11 51.998 0.385 8.18 10.6 12.72
3/30/2021 1:00:00 PM 11.51 52.718 0.384 8.21 10.54 12.72
3/30/2021 1:15:00 PM 11.89 53.402 0.384 8.23 11.02 12.69
3/30/2021 1:30:00 PM 12.27 54.086 0.383 8.26 11.4 12.65
3/30/2021 1:45:00 PM 12.64 54.752 0.383 8.3 11.65 12.61
3/30/2021 2:00:00 PM 12.98 55.364 0.382 8.33 11.39 12.57
3/30/2021 2:15:00 PM 13.29 55.922 0.382 8.35 11.83 12.53
3/30/2021 2:30:00 PM 13.58 56.444 0.382 8.37 14.22 12.47
3/30/2021 2:45:00 PM 13.83 56.894 0.381 8.38 13.47 12.4
3/30/2021 3:00:00 PM 14.06 57.308 0.381 8.4 14.85 12.35
3/30/2021 3:15:00 PM 14.24 57.632 0.381 8.41 16.25 12.29
3/30/2021 3:30:00 PM 14.4 57.92 0.38 8.42 22.29 12.2
3/30/2021 3:45:00 PM 14.53 58.154 0.38 8.44 21.44 12.08
3/30/2021 4:00:00 PM 14.63 58.334 0.38 8.45 17.09 12.01
3/30/2021 4:15:00 PM 14.69 58.442 0.38 8.46 15.43 12.02
3/30/2021 4:30:00 PM 14.71 58.478 0.38 8.45 14.79 11.94
3/30/2021 4:45:00 PM 14.7 58.46 0.38 8.45 14.26 11.84
3/30/2021 5:00:00 PM 14.68 58.424 0.379 8.44 15.08 11.73
3/30/2021 5:15:00 PM 14.64 58.352 0.379 8.43 19.1 11.65
3/30/2021 5:30:00 PM 14.58 58.244 0.379 8.42 19.89 11.57
3/30/2021 5:45:00 PM 14.49 58.082 0.379 8.41 20.14 11.45
3/30/2021 6:00:00 PM 14.43 57.974 0.38 8.39 17.82 11.34
3/30/2021 6:15:00 PM 14.35 57.83 0.38 8.37 15.58 11.24
3/30/2021 6:30:00 PM 14.24 57.632 0.38 8.34 13.83 11.12
3/30/2021 6:45:00 PM 14.14 57.452 0.38 8.32 13.43 11.02
3/30/2021 7:00:00 PM 14.03 57.254 0.381 8.3 13.24 10.94
3/30/2021 7:15:00 PM 13.92 57.056 0.381 8.27 14.02 10.83
3/30/2021 7:30:00 PM 13.79 56.822 0.381 8.25 13.91 10.73
3/30/2021 7:45:00 PM 13.65 56.57 0.382 8.22 13.28 10.65
3/30/2021 8:00:00 PM 13.5 56.3 0.382 8.2 12.72 10.6
3/30/2021 8:15:00 PM 13.35 56.03 0.383 8.16 13.66 10.55
3/30/2021 8:30:00 PM 13.18 55.724 0.383 8.14 13.84 10.46
3/30/2021 8:45:00 PM 13.01 55.418 0.384 8.1 13.5 10.4
3/30/2021 9:00:00 PM 12.83 55.094 0.384 8.08 13.08 10.41
3/30/2021 9:15:00 PM 12.66 54.788 0.385 8.06 13.83 10.39
3/30/2021 9:30:00 PM 12.49 54.482 0.386 8.04 13.5 10.38
3/30/2021 9:45:00 PM 12.32 54.176 0.387 8.03 14.71 10.35
3/30/2021 10:00:00 PM 12.14 53.852 0.387 8.01 13.52 10.35
3/30/2021 10:15:00 PM 11.96 53.528 0.388 7.99 14.23 10.33
3/30/2021 10:30:00 PM 11.79 53.222 0.388 7.98 14.63 10.31
3/30/2021 10:45:00 PM 11.62 52.916 0.389 7.96 14.25 10.29
3/30/2021 11:00:00 PM 11.47 52.646 0.389 7.95 14.36 10.29
3/30/2021 11:15:00 PM 11.33 52.394 0.389 7.93 14.01 10.3
3/30/2021 11:30:00 PM 11.2 52.16 0.39 7.93 13.71 10.31
3/30/2021 11:45:00 PM 11.08 51.944 0.39 7.92 13.93 10.33
3/31/2021 12:00:00 AM 10.97 51.746 0.389 7.91 13.94 10.35
3/31/2021 12:15:00 AM 10.86 51.548 0.389 7.91 14.09 10.37
3/31/2021 12:30:00 AM 10.76 51.368 0.389 7.9 13.87 10.4
3/31/2021 12:45:00 AM 10.67 51.206 0.389 7.9 11.7 10.4
3/31/2021 1:00:00 AM 10.58 51.044 0.388 7.9 10.91 10.44
3/31/2021 1:15:00 AM 10.5 50.9 0.388 7.9 11.24 10.45
3/31/2021 1:30:00 AM 10.43 50.774 0.388 7.9 11.34 10.47
3/31/2021 1:45:00 AM 10.36 50.648 0.388 7.89 11.12 10.49
3/31/2021 2:00:00 AM 10.29 50.522 0.389 7.89 11.01 10.51
3/31/2021 2:15:00 AM 10.22 50.396 0.389 7.89 11.15 10.53
3/31/2021 2:30:00 AM 10.15 50.27 0.389 7.89 10.96 10.55
3/31/2021 2:45:00 AM 10.08 50.144 0.389 7.89 11.02 10.57
3/31/2021 3:00:00 AM 10.02 50.036 0.389 7.89 11.1 10.58
3/31/2021 3:15:00 AM 9.96 49.928 0.389 7.89 11.26 10.6
3/31/2021 3:30:00 AM 9.91 49.838 0.39 7.89 11.18 10.61
3/31/2021 3:45:00 AM 9.85 49.73 0.39 7.89 11.22 10.62
3/31/2021 4:00:00 AM 9.8 49.64 0.39 7.88 11.15 10.63
3/31/2021 4:15:00 AM 9.75 49.55 0.39 7.88 11.83 10.64
3/31/2021 4:30:00 AM 9.7 49.46 0.39 7.88 10.99 10.67
3/31/2021 4:45:00 AM 9.66 49.388 0.39 7.88 10.75 10.66
3/31/2021 5:00:00 AM 9.61 49.298 0.39 7.88 11.39 10.68
3/31/2021 5:15:00 AM 9.57 49.226 0.39 7.88 11.26 10.71
3/31/2021 5:30:00 AM 9.52 49.136 0.389 7.88 11.33 10.71
3/31/2021 5:45:00 AM 9.48 49.064 0.389 7.88 11.23 10.73
3/31/2021 6:00:00 AM 9.44 48.992 0.389 7.88 13.17 10.74
3/31/2021 6:15:00 AM 9.4 48.92 0.389 7.89 11.32 10.75
3/31/2021 6:30:00 AM 9.37 48.866 0.389 7.88 11.64 10.76
3/31/2021 6:45:00 AM 9.33 48.794 0.389 7.88 18.13 10.77
3/31/2021 7:00:00 AM 9.3 48.74 0.389 7.88 11.45 10.78
3/31/2021 7:15:00 AM 9.29 48.722 0.389 7.88 11.47 10.79
3/31/2021 7:30:00 AM 9.29 48.722 0.389 7.88 12.36 10.82
3/31/2021 7:45:00 AM 9.3 48.74 0.389 7.88 11.43 10.86
3/31/2021 8:00:00 AM 9.33 48.794 0.389 7.89 11.45 10.9
3/31/2021 8:15:00 AM 9.36 48.848 0.389 7.89 11.16 10.93
3/31/2021 8:30:00 AM 9.4 48.92 0.389 7.89 11.29 10.96
3/31/2021 8:45:00 AM 9.45 49.01 0.389 7.9 11.29 11
3/31/2021 9:00:00 AM 9.52 49.136 0.389 7.9 11.41 11.04
3/31/2021 9:15:00 AM 9.59 49.262 0.388 7.91 10.8 11.09
3/31/2021 9:30:00 AM 9.68 49.424 0.389 7.92 11.23 11.13
3/31/2021 9:45:00 AM 9.76 49.568 0.388 7.92 10.54 11.16
3/31/2021 10:00:00 AM 9.85 49.73 0.388 7.93 10.79 11.22
3/31/2021 10:15:00 AM 9.94 49.892 0.388 7.94 11 11.28
3/31/2021 10:30:00 AM 10.05 50.09 0.387 7.96 11.06 11.37
3/31/2021 10:45:00 AM 10.16 50.288 0.387 7.97 10.81 11.45
3/31/2021 11:00:00 AM 10.27 50.486 0.387 7.99 11.1 11.52
3/31/2021 11:15:00 AM 10.41 50.738 0.387 8 10.91 11.62
3/31/2021 11:30:00 AM 10.57 51.026 0.386 8.02 10.88 11.73
3/31/2021 11:45:00 AM 10.7 51.26 0.386 8.04 13.93 11.77
3/31/2021 12:00:00 PM 10.81 51.458 0.385 8.05 17.88 11.78
3/31/2021 12:15:00 PM 10.97 51.746 0.385 8.07 21.34 11.86
3/31/2021 12:30:00 PM 11.11 51.998 0.384 8.09 15.82 11.94
3/31/2021 12:45:00 PM 11.21 52.178 0.384 8.11 14.97 11.96
3/31/2021 1:00:00 PM 11.32 52.376 0.384 8.12 17.24 11.98
3/31/2021 1:15:00 PM 11.4 52.52 0.383 8.14 14.33 11.99
3/31/2021 1:30:00 PM 11.51 52.718 0.383 8.15 13.28 12
3/31/2021 1:45:00 PM 11.62 52.916 0.383 8.17 12.94 12.05
3/31/2021 2:00:00 PM 11.72 53.096 0.382 8.18 14.07 12.06
3/31/2021 2:15:00 PM 11.83 53.294 0.382 8.19 17.61 12.05
3/31/2021 2:30:00 PM 11.92 53.456 0.381 8.21 14.21 12.05
3/31/2021 2:45:00 PM 12.01 53.618 0.38 8.22 15.5 12.04
3/31/2021 3:00:00 PM 12.1 53.78 0.38 8.23 15.72 12.03
3/31/2021 3:15:00 PM 12.18 53.924 0.379 8.25 14.05 11.98
3/31/2021 3:30:00 PM 12.26 54.068 0.379 8.26 14.56 11.92
3/31/2021 3:45:00 PM 12.33 54.194 0.378 8.27 12.66 11.9
3/31/2021 4:00:00 PM 12.38 54.284 0.378 8.29 12.62 11.82
3/31/2021 4:15:00 PM 12.41 54.338 0.378 8.28 13.3 11.72
3/31/2021 4:30:00 PM 12.45 54.41 0.378 8.27 12.67 11.67
3/31/2021 4:45:00 PM 12.48 54.464 0.378 8.27 13.38 11.61
3/31/2021 5:00:00 PM 12.51 54.518 0.378 8.26 13.27 11.54
3/31/2021 5:15:00 PM 12.53 54.554 0.378 8.26 13.05 11.46
3/31/2021 5:30:00 PM 12.55 54.59 0.378 8.25 12.49 11.38
3/31/2021 5:45:00 PM 12.56 54.608 0.378 8.24 11.87 11.31
3/31/2021 6:00:00 PM 12.56 54.608 0.378 8.22 12.44 11.21
3/31/2021 6:15:00 PM 12.55 54.59 0.378 8.2 13 11.1
3/31/2021 6:30:00 PM 12.54 54.572 0.378 8.18 12.03 11.02
3/31/2021 6:45:00 PM 12.53 54.554 0.378 8.16 12.38 10.91
3/31/2021 7:00:00 PM 12.52 54.536 0.378 8.14 12.13 10.84
3/31/2021 7:15:00 PM 12.5 54.5 0.379 8.12 12.17 10.75
3/31/2021 7:30:00 PM 12.47 54.446 0.379 8.1 12.2 10.67
3/31/2021 7:45:00 PM 12.44 54.392 0.38 8.08 12.61 10.58
3/31/2021 8:00:00 PM 12.41 54.338 0.38 8.06 11.26 10.48
3/31/2021 8:15:00 PM 12.38 54.284 0.381 8.03 11.57 10.4
3/31/2021 8:30:00 PM 12.35 54.23 0.38 8.01 11.97 10.33
3/31/2021 8:45:00 PM 12.31 54.158 0.381 8 12.48 10.27
3/31/2021 9:00:00 PM 12.27 54.086 0.38 7.98 12.94 10.23
3/31/2021 9:15:00 PM 12.23 54.014 0.363 7.96 12.87 10.18
3/31/2021 9:30:00 PM 12.19 53.942 0.38 7.95 12.48 10.13
3/31/2021 9:45:00 PM 12.14 53.852 0.38 7.94 12.55 10.12
3/31/2021 10:00:00 PM 12.1 53.78 0.381 7.94 12.59 10.09
3/31/2021 10:15:00 PM 12.05 53.69 0.381 7.93 13.83 10.06
3/31/2021 10:30:00 PM 12 53.6 0.381 7.92 21.92 10.06
3/31/2021 10:45:00 PM 11.95 53.51 0.381 7.91 12.86 10.06
3/31/2021 11:00:00 PM 11.92 53.456 0.38 7.9 12.88 10.02
3/31/2021 11:15:00 PM 11.89 53.402 0.38 7.89 12.73 10.04
3/31/2021 11:30:00 PM 11.85 53.33 0.38 7.89 13.02 10.04
3/31/2021 11:45:00 PM 11.82 53.276 0.379 7.88 12.64 10.04
4/1/2021 12:00:00 AM 11.78 53.204 0.38 7.88 13.1 10.04
4/1/2021 12:15:00 AM 11.73 53.114 0.38 7.88 13.12 10.02
4/1/2021 12:30:00 AM 11.67 53.006 0.381 7.88 13.69 10.03
4/1/2021 12:45:00 AM 11.6 52.88 0.381 7.88 13.6 10.05
4/1/2021 1:00:00 AM 11.52 52.736 0.381 7.88 13.92 10.08
4/1/2021 1:15:00 AM 11.44 52.592 0.382 7.88 13.26 10.11
4/1/2021 1:30:00 AM 11.36 52.448 0.382 7.88 13.19 10.14
4/1/2021 1:45:00 AM 11.28 52.304 0.383 7.88 13.32 10.16
4/1/2021 2:00:00 AM 11.19 52.142 0.383 7.88 13.14 10.18
4/1/2021 2:15:00 AM 11.11 51.998 0.383 7.88 13.57 10.19
4/1/2021 2:30:00 AM 11.03 51.854 0.383 7.88 13.64 10.2
4/1/2021 2:45:00 AM 10.95 51.71 0.383 7.88 13.43 10.21
4/1/2021 3:00:00 AM 10.87 51.566 0.383 7.88 13.68 10.25
4/1/2021 3:15:00 AM 10.79 51.422 0.382 7.88 13.29 10.28
4/1/2021 3:30:00 AM 10.7 51.26 0.381 7.89 13.55 10.3
4/1/2021 3:45:00 AM 10.61 51.098 0.38 7.88 13.44 10.33
4/1/2021 4:00:00 AM 10.53 50.954 0.38 7.88 14.85 10.36
4/1/2021 4:15:00 AM 10.43 50.774 0.379 7.88 14.21 10.37
4/1/2021 4:30:00 AM 10.33 50.594 0.379 7.88 13.69 10.42
4/1/2021 4:45:00 AM 10.22 50.396 0.378 7.88 13.46 10.46
4/1/2021 5:00:00 AM 10.13 50.234 0.378 7.88 13.48 10.49
4/1/2021 5:15:00 AM 10.03 50.054 0.377 7.88 14.12 10.52
4/1/2021 5:30:00 AM 9.93 49.874 0.377 7.88 14.17 10.55
4/1/2021 5:45:00 AM 9.86 49.748 0.376 7.88 14.14 10.57
4/1/2021 6:00:00 AM 9.77 49.586 0.376 7.88 13.89 10.6
4/1/2021 6:15:00 AM 9.69 49.442 0.376 7.88 14.9 10.62
4/1/2021 6:30:00 AM 9.62 49.316 0.375 7.87 15.31 10.62
4/1/2021 6:45:00 AM 9.55 49.19 0.374 7.87 15.97 10.65
4/1/2021 7:00:00 AM 9.49 49.082 0.375 7.87 16.2 10.65
4/1/2021 7:15:00 AM 9.43 48.974 0.375 7.87 15.25 10.68
4/1/2021 7:30:00 AM 9.36 48.848 0.376 7.87 16.09 10.7
4/1/2021 7:45:00 AM 9.32 48.776 0.376 7.87 14.62 10.73
4/1/2021 8:00:00 AM 9.27 48.686 0.375 7.87 14.45 10.77
4/1/2021 8:15:00 AM 9.23 48.614 0.376 7.87 15.58 10.8
4/1/2021 8:30:00 AM 9.21 48.578 0.376 7.88 14.5 10.86
4/1/2021 8:45:00 AM 9.18 48.524 0.377 7.88 13.95 10.94
4/1/2021 9:00:00 AM 9.15 48.47 0.377 7.89 13.81 10.98
4/1/2021 9:15:00 AM 9.13 48.434 0.378 7.89 13.78 11.03
4/1/2021 9:30:00 AM 9.11 48.398 0.379 7.9 13.69 11.08
4/1/2021 9:45:00 AM 9.08 48.344 0.379 7.91 14.36 11.14
4/1/2021 10:00:00 AM 9.07 48.326 0.379 7.91 29.43 11.19
4/1/2021 10:15:00 AM 9.02 48.236 0.368 7.89 6.73 11.24
4/1/2021 10:30:00 AM 9.07 48.326 0.368 7.89 6.8 11.37
4/1/2021 10:45:00 AM 9.12 48.416 0.368 7.92 6.73 11.51
4/1/2021 11:00:00 AM 9.26 48.668 0.367 7.94 5.64 11.67
4/1/2021 11:15:00 AM 9.41 48.938 0.367 7.97 6.8 11.83
4/1/2021 11:30:00 AM 9.47 49.046 0.365 7.99 7.25 11.97
4/1/2021 11:45:00 AM 9.61 49.298 0.363 8.02 8.01 12.1
4/1/2021 12:00:00 PM 9.7 49.46 0.362 8.04 8.88 12.22
4/1/2021 12:15:00 PM 9.79 49.622 0.36 8.07 7.27 12.33
4/1/2021 12:30:00 PM 9.93 49.874 0.359 8.1 6.24 12.42
4/1/2021 12:45:00 PM 10.13 50.234 0.357 8.12 5.54 12.5
4/1/2021 1:00:00 PM 10.32 50.576 0.355 8.16 5.96 12.56
4/1/2021 1:15:00 PM 10.38 50.684 0.354 8.18 5.56 12.6
4/1/2021 1:30:00 PM 10.55 50.99 0.353 8.21 5.58 12.67
4/1/2021 1:45:00 PM 10.68 51.224 0.352 8.24 5.38 12.7
4/1/2021 2:00:00 PM 10.7 51.26 0.351 8.26 5.22 12.68
4/1/2021 2:15:00 PM 10.77 51.386 0.351 8.28 5.48 12.67
4/1/2021 2:30:00 PM 10.83 51.494 0.351 8.3 5.27 12.66
4/1/2021 2:45:00 PM 10.91 51.638 0.352 8.33 5.34 12.66
4/1/2021 3:00:00 PM 10.9 51.62 0.352 8.33 5.5 12.63
4/1/2021 3:15:00 PM 10.91 51.638 0.353 8.36 5.14 12.64
4/1/2021 3:30:00 PM 10.9 51.62 0.354 8.37 5.45 12.64
4/1/2021 3:45:00 PM 10.92 51.656 0.354 8.38 5.1 12.61
4/1/2021 4:00:00 PM 10.94 51.692 0.355 8.39 5.3 12.59
4/1/2021 4:15:00 PM 10.88 51.584 0.356 8.41 5.31 12.52
4/1/2021 4:30:00 PM 10.87 51.566 0.357 8.41 5.39 12.43
4/1/2021 4:45:00 PM 10.86 51.548 0.357 8.4 5.18 12.38
4/1/2021 5:00:00 PM 10.8 51.44 0.358 8.4 5.09 12.31
4/1/2021 5:15:00 PM 10.8 51.44 0.359 8.39 5.23 12.25
4/1/2021 5:30:00 PM 10.7 51.26 0.359 8.38 5.33 12.2
4/1/2021 5:45:00 PM 10.62 51.116 0.36 8.37 5.07 12.14
4/1/2021 6:00:00 PM 10.53 50.954 0.361 8.36 5.17 12.1
4/1/2021 6:15:00 PM 10.4 50.72 0.362 8.34 5.23 12.01
4/1/2021 6:30:00 PM 10.29 50.522 0.363 8.31 5.08 11.94
4/1/2021 6:45:00 PM 10.16 50.288 0.364 8.3 4.89 11.87
4/1/2021 7:00:00 PM 10.01 50.018 0.365 8.26 5.19 11.77
4/1/2021 7:15:00 PM 9.87 49.766 0.366 8.23 4.87 11.68
4/1/2021 7:30:00 PM 9.73 49.514 0.367 8.2 5.19 11.59
4/1/2021 7:45:00 PM 9.58 49.244 0.368 8.17 4.82 11.51
4/1/2021 8:00:00 PM 9.46 49.028 0.369 8.14 5.02 11.44
4/1/2021 8:15:00 PM 9.3 48.74 0.37 8.12 5.42 11.39
4/1/2021 8:30:00 PM 9.16 48.488 0.37 8.09 5.05 11.34
4/1/2021 8:45:00 PM 9.02 48.236 0.371 8.07 6.38 11.29
4/1/2021 9:00:00 PM 8.9 48.02 0.372 8.05 5.17 11.25
4/1/2021 9:15:00 PM 8.79 47.822 0.372 8.04 5.12 11.21
4/1/2021 9:30:00 PM 8.66 47.588 0.373 8.02 5.5 11.17
4/1/2021 9:45:00 PM 8.54 47.372 0.374 8.01 5.35 11.14
4/1/2021 10:00:00 PM 8.41 47.138 0.375 7.99 5.61 11.13
4/1/2021 10:15:00 PM 8.29 46.922 0.375 7.98 6.57 11.11
4/1/2021 10:30:00 PM 8.17 46.706 0.376 7.97 6.78 11.09
4/1/2021 10:45:00 PM 8.06 46.508 0.376 7.96 6.27 11.09
4/1/2021 11:00:00 PM 7.94 46.292 0.377 7.95 5.58 11.08
4/1/2021 11:15:00 PM 7.81 46.058 0.377 7.95 5.87 11.08
4/1/2021 11:30:00 PM 7.7 45.86 0.377 7.94 6.11 11.08
4/1/2021 11:45:00 PM 7.6 45.68 0.378 7.94 5.91 11.1
4/2/2021 12:00:00 AM 7.5 45.5 0.378 7.93 5.77 11.11
4/2/2021 12:15:00 AM 7.42 45.356 0.378 7.93 6.01 11.13
4/2/2021 12:30:00 AM 7.36 45.248 0.379 7.93 6.16 11.15
4/2/2021 12:45:00 AM 7.29 45.122 0.379 7.93 5.55 11.17
4/2/2021 1:00:00 AM 7.22 44.996 0.379 7.93 5.97 11.18
4/2/2021 1:15:00 AM 7.14 44.852 0.379 7.93 5.72 11.2
4/2/2021 1:30:00 AM 7.08 44.744 0.38 7.93 6.1 11.22
4/2/2021 1:45:00 AM 7.01 44.618 0.38 7.93 5.67 11.24
4/2/2021 2:00:00 AM 6.96 44.528 0.381 7.93 5.5 11.26
4/2/2021 2:15:00 AM 6.91 44.438 0.38 7.93 5.57 11.27
4/2/2021 2:30:00 AM 6.87 44.366 0.381 7.93 5.32 11.29
4/2/2021 2:45:00 AM 6.82 44.276 0.381 7.93 5.6 11.31
4/2/2021 3:00:00 AM 6.77 44.186 0.381 7.93 5.34 11.33
4/2/2021 3:15:00 AM 6.71 44.078 0.381 7.92 5.45 11.34
4/2/2021 3:30:00 AM 6.66 43.988 0.381 7.93 5.63 11.36
4/2/2021 3:45:00 AM 6.61 43.898 0.382 7.93 5.76 11.38
4/2/2021 4:00:00 AM 6.55 43.79 0.382 7.93 5.67 11.39
4/2/2021 4:15:00 AM 6.49 43.682 0.382 7.93 5.96 11.41
4/2/2021 4:30:00 AM 6.45 43.61 0.382 7.93 5.05 11.42
4/2/2021 4:45:00 AM 6.39 43.502 0.383 7.94 5.38 11.44
4/2/2021 5:00:00 AM 6.32 43.376 0.383 7.94 5.55 11.47
4/2/2021 5:15:00 AM 6.25 43.25 0.383 7.93 5.2 11.48
4/2/2021 5:30:00 AM 6.19 43.142 0.383 7.94 5.3 11.5
4/2/2021 5:45:00 AM 6.14 43.052 0.383 7.94 4.94 11.52
4/2/2021 6:00:00 AM 6.09 42.962 0.383 7.94 4.89 11.54
4/2/2021 6:15:00 AM 6.03 42.854 0.383 7.93 5.77 11.55
4/2/2021 6:30:00 AM 5.98 42.764 0.384 7.94 5.98 11.57
4/2/2021 6:45:00 AM 5.92 42.656 0.384 7.94 5.23 11.6
4/2/2021 7:00:00 AM 5.88 42.584 0.384 7.94 5.41 11.63
4/2/2021 7:15:00 AM 5.82 42.476 0.384 7.95 6.45 11.67
4/2/2021 7:30:00 AM 5.78 42.404 0.384 7.95 5.85 11.72
4/2/2021 7:45:00 AM 5.74 42.332 0.384 7.97 4.78 11.77
4/2/2021 8:00:00 AM 5.72 42.296 0.384 7.97 5.23 11.84
4/2/2021 8:15:00 AM 5.69 42.242 0.384 7.98 4.95 11.9
4/2/2021 8:30:00 AM 5.67 42.206 0.384 7.99 5.11 11.98
4/2/2021 8:45:00 AM 5.64 42.152 0.384 7.99 5.55 12.06
4/2/2021 9:00:00 AM 5.66 42.188 0.384 8 5.33 12.15
4/2/2021 9:15:00 AM 5.67 42.206 0.385 8.01 4.1 12.24
4/2/2021 9:30:00 AM 5.71 42.278 0.384 8.02 4.08 12.32
4/2/2021 9:45:00 AM 5.79 42.422 0.385 8.03 4.42 12.4
4/2/2021 10:00:00 AM 5.84 42.512 0.385 8.04 4.52 12.47
4/2/2021 10:15:00 AM 5.93 42.674 0.384 8.06 4.19 12.55
4/2/2021 10:30:00 AM 6.05 42.89 0.384 8.07 3.59 12.64
4/2/2021 10:45:00 AM 6.2 43.16 0.384 8.09 3.47 12.72
4/2/2021 11:00:00 AM 6.41 43.538 0.384 8.1 3.51 12.79
4/2/2021 11:15:00 AM 6.63 43.934 0.384 8.12 3.47 12.87
4/2/2021 11:30:00 AM 6.87 44.366 0.383 8.14 3.79 12.94
4/2/2021 11:45:00 AM 7.11 44.798 0.383 8.16 3.73 12.97
4/2/2021 12:00:00 PM 7.37 45.266 0.382 8.19 3.75 13.03
4/2/2021 12:15:00 PM 7.64 45.752 0.382 8.2 3.51 13.05
4/2/2021 12:30:00 PM 7.95 46.31 0.382 8.22 3.5 13.08
4/2/2021 12:45:00 PM 8.25 46.85 0.381 8.24 3.77 13.08
4/2/2021 1:00:00 PM 8.59 47.462 0.381 8.27 3.77 13.08
4/2/2021 1:15:00 PM 8.91 48.038 0.381 8.28 3.97 13.06
4/2/2021 1:30:00 PM 9.23 48.614 0.38 8.3 3.77 13.04
4/2/2021 1:45:00 PM 9.51 49.118 0.38 8.32 3.76 13.01
4/2/2021 2:00:00 PM 9.82 49.676 0.379 8.34 4.01 12.98
4/2/2021 2:15:00 PM 10.12 50.216 0.379 8.36 3.74 12.93
4/2/2021 2:30:00 PM 10.36 50.648 0.379 8.39 4.24 12.89
4/2/2021 2:45:00 PM 10.59 51.062 0.379 8.39 4.31 12.84
4/2/2021 3:00:00 PM 10.78 51.404 0.378 8.41 4.44 12.79
4/2/2021 3:15:00 PM 10.96 51.728 0.378 8.42 4.17 12.74
4/2/2021 3:30:00 PM 11.11 51.998 0.377 8.44 4.17 12.69
4/2/2021 3:45:00 PM 11.2 52.16 0.377 8.45 4.09 12.63
4/2/2021 4:00:00 PM 11.26 52.268 0.377 8.46 4.14 12.58
4/2/2021 4:15:00 PM 11.31 52.358 0.377 8.47 4.51 12.53
4/2/2021 4:30:00 PM 11.3 52.34 0.377 8.47 4.45 12.46
4/2/2021 4:45:00 PM 11.26 52.268 0.377 8.47 4.39 12.4
4/2/2021 5:00:00 PM 11.23 52.214 0.377 8.47 5.28 12.33
4/2/2021 5:15:00 PM 11.15 52.07 0.376 8.47 4.88 12.26
4/2/2021 5:30:00 PM 11.06 51.908 0.377 8.47 4.66 12.18
4/2/2021 5:45:00 PM 10.96 51.728 0.377 8.46 5.35 12.09
4/2/2021 6:00:00 PM 10.82 51.476 0.377 8.45 5.31 12
4/2/2021 6:15:00 PM 10.69 51.242 0.377 8.43 4.81 11.92
4/2/2021 6:30:00 PM 10.57 51.026 0.377 8.41 5.3 11.83
4/2/2021 6:45:00 PM 10.44 50.792 0.378 8.4 5.04 11.74
4/2/2021 7:00:00 PM 10.31 50.558 0.378 8.37 4.89 11.66
4/2/2021 7:15:00 PM 10.19 50.342 0.379 8.35 4.96 11.58
4/2/2021 7:30:00 PM 10.08 50.144 0.38 8.32 4.71 11.52
4/2/2021 7:45:00 PM 9.95 49.91 0.38 8.3 5.37 11.46
4/2/2021 8:00:00 PM 9.83 49.694 0.381 8.28 5.31 11.4
4/2/2021 8:15:00 PM 9.69 49.442 0.381 8.24 5.75 11.35
4/2/2021 8:30:00 PM 9.54 49.172 0.382 8.22 5.07 11.31
4/2/2021 8:45:00 PM 9.38 48.884 0.382 8.19 4.63 11.28
4/2/2021 9:00:00 PM 9.2 48.56 0.383 8.17 4.76 11.25
4/2/2021 9:15:00 PM 9.02 48.236 0.384 8.14 5.26 11.23
4/2/2021 9:30:00 PM 8.84 47.912 0.385 8.12 4.96 11.23
4/2/2021 9:45:00 PM 8.66 47.588 0.385 8.11 5.24 11.22
4/2/2021 10:00:00 PM 8.47 47.246 0.387 8.08 5.08 11.21
4/2/2021 10:15:00 PM 8.28 46.904 0.387 8.06 5.05 11.2
4/2/2021 10:30:00 PM 8.11 46.598 0.388 8.04 5.34 11.19
4/2/2021 10:45:00 PM 7.95 46.31 0.389 8.03 4.97 11.17
4/2/2021 11:00:00 PM 7.81 46.058 0.389 8.01 4.88 11.15
4/2/2021 11:15:00 PM 7.69 45.842 0.39 8 5.29 11.14
4/2/2021 11:30:00 PM 7.58 45.644 0.39 7.99 5.24 11.15
4/2/2021 11:45:00 PM 7.48 45.464 0.39 7.98 4.97 11.15
4/3/2021 12:00:00 AM 7.38 45.284 0.391 7.97 5.21 11.17
4/3/2021 12:15:00 AM 7.28 45.104 0.391 7.97 6.14 11.19
4/3/2021 12:30:00 AM 7.18 44.924 0.392 7.97 5.59 11.2
4/3/2021 12:45:00 AM 7.09 44.762 0.391 7.97 6.77 11.23
4/3/2021 1:00:00 AM 7 44.6 0.392 7.96 6.38 11.25
4/3/2021 1:15:00 AM 6.9 44.42 0.392 7.96 5.67 11.28
4/3/2021 1:30:00 AM 6.82 44.276 0.392 7.96 5.32 11.31
4/3/2021 1:45:00 AM 6.73 44.114 0.392 7.96 8.63 11.34
4/3/2021 2:00:00 AM 6.65 43.97 0.392 7.96 6.58 11.36
4/3/2021 2:15:00 AM 6.58 43.844 0.392 7.96 5.88 11.39
4/3/2021 2:30:00 AM 6.51 43.718 0.393 7.96 5.2 11.4
4/3/2021 2:45:00 AM 6.44 43.592 0.392 7.96 6.26 11.43
4/3/2021 3:00:00 AM 6.38 43.484 0.393 7.96 5.82 11.45
4/3/2021 3:15:00 AM 6.31 43.358 0.393 7.96 5.46 11.47
4/3/2021 3:30:00 AM 6.25 43.25 0.393 7.96 5.42 11.49
4/3/2021 3:45:00 AM 6.19 43.142 0.393 7.97 4.95 11.51
4/3/2021 4:00:00 AM 6.13 43.034 0.393 7.97 5.78 11.54
4/3/2021 4:15:00 AM 6.07 42.926 0.393 7.96 5.3 11.55
4/3/2021 4:30:00 AM 6.01 42.818 0.393 7.97 5.98 11.57
4/3/2021 4:45:00 AM 5.96 42.728 0.394 7.96 4.98 11.59
4/3/2021 5:00:00 AM 5.9 42.62 0.394 7.96 4.44 11.61
4/3/2021 5:15:00 AM 5.85 42.53 0.394 7.96 5.92 11.64
4/3/2021 5:30:00 AM 5.8 42.44 0.394 7.96 4.64 11.65
4/3/2021 5:45:00 AM 5.75 42.35 0.394 7.97 4.5 11.67
4/3/2021 6:00:00 AM 5.7 42.26 0.394 7.97 4.76 11.69
4/3/2021 6:15:00 AM 5.66 42.188 0.394 7.97 4.77 11.71
4/3/2021 6:30:00 AM 5.62 42.116 0.394 7.97 5.59 11.72
4/3/2021 6:45:00 AM 5.59 42.062 0.395 7.97 7.97 11.73
4/3/2021 7:00:00 AM 5.56 42.008 0.395 7.97 7.26 11.75
4/3/2021 7:15:00 AM 5.54 41.972 0.395 7.98 7.84 11.78
4/3/2021 7:30:00 AM 5.53 41.954 0.395 7.97 4.82 11.82
4/3/2021 7:45:00 AM 5.53 41.954 0.395 7.98 4.76 11.86
4/3/2021 8:00:00 AM 5.53 41.954 0.395 7.98 4.4 11.9
4/3/2021 8:15:00 AM 5.53 41.954 0.395 7.99 4.15 11.95
4/3/2021 8:30:00 AM 5.56 42.008 0.395 7.99 4.09 12.01
4/3/2021 8:45:00 AM 5.58 42.044 0.395 8 3.68 12.07
4/3/2021 9:00:00 AM 5.63 42.134 0.395 8.01 4.13 12.14
4/3/2021 9:15:00 AM 5.69 42.242 0.395 8.02 4.67 12.2
4/3/2021 9:30:00 AM 5.76 42.368 0.395 8.03 3.68 12.26
4/3/2021 9:45:00 AM 5.87 42.566 0.395 8.04 4.84 12.33
4/3/2021 10:00:00 AM 6 42.8 0.395 8.05 3.65 12.41
4/3/2021 10:15:00 AM 6.14 43.052 0.394 8.06 3.35 12.48
4/3/2021 10:30:00 AM 6.29 43.322 0.394 8.07 4.35 12.56
4/3/2021 10:45:00 AM 6.48 43.664 0.394 8.09 3.7 12.64
4/3/2021 11:00:00 AM 6.72 44.096 0.394 8.11 3.34 12.74
4/3/2021 11:15:00 AM 6.98 44.564 0.393 8.13 3.59 12.82
4/3/2021 11:30:00 AM 7.28 45.104 0.392 8.15 3.52 12.89
4/3/2021 11:45:00 AM 7.59 45.662 0.392 8.18 4.04 12.96
4/3/2021 12:00:00 PM 7.95 46.31 0.391 8.21 4.2 13
4/3/2021 12:15:00 PM 8.32 46.976 0.39 8.23 4.56 13.02
4/3/2021 12:30:00 PM 8.69 47.642 0.39 8.26 6.16 13.04
4/3/2021 12:45:00 PM 9.1 48.38 0.389 8.28 3.92 13.03
4/3/2021 1:00:00 PM 9.51 49.118 0.388 8.31 3.99 13.03
4/3/2021 1:15:00 PM 9.91 49.838 0.388 8.33 4.09 13
4/3/2021 1:30:00 PM 10.29 50.522 0.387 8.35 4.41 12.98
4/3/2021 1:45:00 PM 10.66 51.188 0.387 8.38 3.97 12.94
4/3/2021 2:00:00 PM 11.01 51.818 0.386 8.39 4.1 12.89
4/3/2021 2:15:00 PM 11.29 52.322 0.386 8.42 4.49 12.85
4/3/2021 2:30:00 PM 11.55 52.79 0.385 8.44 4.65 12.81
4/3/2021 2:45:00 PM 11.84 53.312 0.384 8.45 3.61 12.77
4/3/2021 3:00:00 PM 12.08 53.744 0.384 8.47 5.23 12.72
4/3/2021 3:15:00 PM 12.29 54.122 0.383 8.49 5.22 12.67
4/3/2021 3:30:00 PM 12.46 54.428 0.383 8.5 4.27 12.62
4/3/2021 3:45:00 PM 12.58 54.644 0.382 8.52 4.84 12.57
4/3/2021 4:00:00 PM 12.58 54.644 0.382 8.52 4.56 12.49
4/3/2021 4:15:00 PM 12.56 54.608 0.382 8.53 4.73 12.42
4/3/2021 4:30:00 PM 12.58 54.644 0.382 8.54 5.08 12.35
4/3/2021 4:45:00 PM 12.54 54.572 0.382 8.53 9.91 12.26
4/3/2021 5:00:00 PM 12.5 54.5 0.381 8.54 5.94 12.21
4/3/2021 5:15:00 PM 12.5 54.5 0.381 8.54 5.43 12.15
4/3/2021 5:30:00 PM 12.48 54.464 0.381 8.53 5.31 12.06
4/3/2021 5:45:00 PM 12.45 54.41 0.381 8.53 6.47 11.97
4/3/2021 6:00:00 PM 12.4 54.32 0.381 8.52 5.51 11.9
4/3/2021 6:15:00 PM 12.32 54.176 0.381 8.51 5.26 11.78
4/3/2021 6:30:00 PM 12.24 54.032 0.382 8.49 4.78 11.69
4/3/2021 6:45:00 PM 12.15 53.87 0.382 8.48 5.73 11.6
4/3/2021 7:00:00 PM 12.04 53.672 0.383 8.45 5.72 11.48
4/3/2021 7:15:00 PM 11.93 53.474 0.383 8.42 5.28 11.38
4/3/2021 7:30:00 PM 11.79 53.222 0.384 8.4 5.98 11.28
4/3/2021 7:45:00 PM 11.63 52.934 0.384 8.37 5.7 11.19
4/3/2021 8:00:00 PM 11.47 52.646 0.385 8.33 5.89 11.11
4/3/2021 8:15:00 PM 11.31 52.358 0.385 8.3 5.76 11.05
4/3/2021 8:30:00 PM 11.16 52.088 0.386 8.26 8.55 10.99
4/3/2021 8:45:00 PM 10.99 51.782 0.387 8.23 6.53 10.93
4/3/2021 9:00:00 PM 10.83 51.494 0.388 8.2 6.43 10.88
4/3/2021 9:15:00 PM 10.7 51.26 0.389 8.17 6.08 10.85
4/3/2021 9:30:00 PM 10.57 51.026 0.39 8.14 6.07 10.8
4/3/2021 9:45:00 PM 10.42 50.756 0.39 8.12 5.69 10.78
4/3/2021 10:00:00 PM 10.28 50.504 0.391 8.09 6.11 10.73
4/3/2021 10:15:00 PM 10.15 50.27 0.392 8.07 6.3 10.7
4/3/2021 10:30:00 PM 10.02 50.036 0.393 8.04 5.27 10.68
4/3/2021 10:45:00 PM 9.89 49.802 0.394 8.02 5.76 10.65
4/3/2021 11:00:00 PM 9.75 49.55 0.395 8 5.66 10.61
4/3/2021 11:15:00 PM 9.62 49.316 0.396 7.99 5.26 10.58
4/3/2021 11:30:00 PM 9.51 49.118 0.396 7.98 5.32 10.58
4/3/2021 11:45:00 PM 9.41 48.938 0.397 7.97 5.36 10.57
4/4/2021 12:00:00 AM 9.32 48.776 0.397 7.96 5.61 10.58
4/4/2021 12:15:00 AM 9.24 48.632 0.397 7.95 6.21 10.58
4/4/2021 12:30:00 AM 9.17 48.506 0.397 7.94 5.99 10.58
4/4/2021 12:45:00 AM 9.11 48.398 0.397 7.94 5.25 10.58
4/4/2021 1:00:00 AM 9.05 48.29 0.398 7.93 5.3 10.59
4/4/2021 1:15:00 AM 9 48.2 0.398 7.93 5.42 10.59
4/4/2021 1:30:00 AM 8.94 48.092 0.399 7.93 4.53 10.62
4/4/2021 1:45:00 AM 8.9 48.02 0.399 7.93 5.62 10.61
4/4/2021 2:00:00 AM 8.85 47.93 0.399 7.93 5.63 10.65
4/4/2021 2:15:00 AM 8.81 47.858 0.399 7.93 5.23 10.65
4/4/2021 2:30:00 AM 8.77 47.786 0.399 7.93 4.74 10.67
4/4/2021 2:45:00 AM 8.73 47.714 0.398 7.93 4.89 10.69
4/4/2021 3:00:00 AM 8.7 47.66 0.398 7.92 5.06 10.69
4/4/2021 3:15:00 AM 8.67 47.606 0.399 7.92 4.41 10.69
4/4/2021 3:30:00 AM 8.63 47.534 0.398 7.92 5.17 10.69
4/4/2021 3:45:00 AM 8.59 47.462 0.398 7.92 4.59 10.71
4/4/2021 4:00:00 AM 8.54 47.372 0.398 7.92 4.78 10.73
4/4/2021 4:15:00 AM 8.5 47.3 0.398 7.92 4.53 10.72
4/4/2021 4:30:00 AM 8.45 47.21 0.399 7.92 4.99 10.74
4/4/2021 4:45:00 AM 8.42 47.156 0.398 7.92 5.14 10.76
4/4/2021 5:00:00 AM 8.38 47.084 0.398 7.92 4.59 10.76
4/4/2021 5:15:00 AM 8.35 47.03 0.398 7.92 4.82 10.77
4/4/2021 5:30:00 AM 8.32 46.976 0.399 7.92 5.06 10.79
4/4/2021 5:45:00 AM 8.29 46.922 0.398 7.92 4.69 10.8
4/4/2021 6:00:00 AM 8.26 46.868 0.398 7.92 4.86 10.79
4/4/2021 6:15:00 AM 8.22 46.796 0.398 7.92 5.76 10.81
4/4/2021 6:30:00 AM 8.16 46.688 0.398 7.92 4.77 10.82
4/4/2021 6:45:00 AM 8.12 46.616 0.398 7.92 143.91 10.84
4/4/2021 7:00:00 AM 8.09 46.562 0.398 7.92 6.25 10.85
4/4/2021 7:15:00 AM 8.06 46.508 0.398 7.93 5.98 10.88
4/4/2021 7:30:00 AM 8.05 46.49 0.398 7.93 4.84 10.91
4/4/2021 7:45:00 AM 8.03 46.454 0.398 7.93 4.87 10.92
4/4/2021 8:00:00 AM 8.04 46.472 0.398 7.94 4.29 10.98
4/4/2021 8:15:00 AM 8.05 46.49 0.398 7.94 5.02 11.03
4/4/2021 8:30:00 AM 8.07 46.526 0.398 7.95 4 11.09
4/4/2021 8:45:00 AM 8.09 46.562 0.398 7.96 3.8 11.17
4/4/2021 9:00:00 AM 8.14 46.652 0.398 7.97 4.24 11.26
4/4/2021 9:15:00 AM 8.23 46.814 0.398 7.98 4.53 11.38
4/4/2021 9:30:00 AM 8.31 46.958 0.398 7.99 4.44 11.46
4/4/2021 9:45:00 AM 8.37 47.066 0.397 8.01 3.9 11.56
4/4/2021 10:00:00 AM 8.48 47.264 0.397 8.02 3.68 11.65
4/4/2021 10:15:00 AM 8.63 47.534 0.397 8.04 3.89 11.78
4/4/2021 10:30:00 AM 8.8 47.84 0.397 8.05 4.05 11.87
4/4/2021 10:45:00 AM 8.97 48.146 0.396 8.07 3.13 11.96
4/4/2021 11:00:00 AM 9.17 48.506 0.396 8.09 3.8 12.05
4/4/2021 11:15:00 AM 9.39 48.902 0.396 8.11 3.97 12.15
4/4/2021 11:30:00 AM 9.65 49.37 0.396 8.13 3.79 12.22
4/4/2021 11:45:00 AM 9.91 49.838 0.395 8.16 3.79 12.31
4/4/2021 12:00:00 PM 10.18 50.324 0.395 8.18 3.93 12.41
4/4/2021 12:15:00 PM 10.51 50.918 0.394 8.21 3.62 12.49
4/4/2021 12:30:00 PM 10.86 51.548 0.393 8.25 3.56 12.55
4/4/2021 12:45:00 PM 11.23 52.214 0.392 8.28 3.44 12.61
4/4/2021 1:00:00 PM 11.62 52.916 0.39 8.31 3.59 12.64
4/4/2021 1:15:00 PM 11.99 53.582 0.389 8.35 4.03 12.66
4/4/2021 1:30:00 PM 12.36 54.248 0.388 8.38 3.69 12.68
4/4/2021 1:45:00 PM 12.71 54.878 0.386 8.41 4.04 12.66
4/4/2021 2:00:00 PM 13.06 55.508 0.383 8.44 3.39 12.65
4/4/2021 2:15:00 PM 13.38 56.084 0.41 8.47 4.3 12.62
4/4/2021 2:30:00 PM 13.69 56.642 0.395 8.5 4.76 12.58
4/4/2021 2:45:00 PM 13.97 57.146 0.394 8.52 4.94 12.55
4/4/2021 3:00:00 PM 14.22 57.596 0.393 8.54 4.98 12.51
4/4/2021 3:15:00 PM 14.45 58.01 0.388 8.56 4.68 12.44
4/4/2021 3:30:00 PM 14.61 58.298 0.387 8.58 4.52 12.38
4/4/2021 3:45:00 PM 14.75 58.55 0.383 8.6 4.07 12.32
4/4/2021 4:00:00 PM 14.87 58.766 0.384 8.61 4.42 12.25
4/4/2021 4:15:00 PM 14.89 58.802 0.382 8.61 4.19 12.14
4/4/2021 4:30:00 PM 14.97 58.946 0.383 8.62 4.17 12.07
4/4/2021 4:45:00 PM 14.98 58.964 0.385 8.62 6.34 11.98
4/4/2021 5:00:00 PM 14.94 58.892 0.382 8.62 5.5 11.87
4/4/2021 5:15:00 PM 14.89 58.802 0.382 8.61 6.9 11.76
4/4/2021 5:30:00 PM 14.81 58.658 0.382 8.61 5.63 11.65
4/4/2021 5:45:00 PM 14.71 58.478 0.383 8.59 5.31 11.53
4/4/2021 6:00:00 PM 14.6 58.28 0.388 8.58 5.27 11.4
4/4/2021 6:15:00 PM 14.49 58.082 0.388 8.56 4.63 11.26
4/4/2021 6:30:00 PM 14.38 57.884 0.389 8.53 5.03 11.13
4/4/2021 6:45:00 PM 14.25 57.65 0.39 8.51 5.29 11
4/4/2021 7:00:00 PM 14.14 57.452 0.39 8.48 4.77 10.87
4/4/2021 7:15:00 PM 14 57.2 0.392 8.44 4.95 10.77
4/4/2021 7:30:00 PM 13.87 56.966 0.393 8.41 5.53 10.66
4/4/2021 7:45:00 PM 13.74 56.732 0.408 8.38 5.29 10.57
4/4/2021 8:00:00 PM 13.6 56.48 0.409 8.34 6.13 10.48
4/4/2021 8:15:00 PM 13.44 56.192 0.41 8.3 6.8 10.41
4/4/2021 8:30:00 PM 13.25 55.85 0.411 8.26 6.36 10.35
4/4/2021 8:45:00 PM 13.07 55.526 0.458 8.22 5.92 10.29
4/4/2021 9:00:00 PM 12.88 55.184 0.46 8.19 5.73 10.25
4/4/2021 9:15:00 PM 12.68 54.824 0.385 8.15 5.63 10.21
4/4/2021 9:30:00 PM 12.49 54.482 0.388 8.12 5.56 10.18
4/4/2021 9:45:00 PM 12.3 54.14 0.389 8.09 5.68 10.16
4/4/2021 10:00:00 PM 12.11 53.798 0.391 8.06 5.3 10.13
4/4/2021 10:15:00 PM 11.91 53.438 0.392 8.04 5.78 10.13
4/4/2021 10:30:00 PM 11.71 53.078 0.394 8.01 5.63 10.1
4/4/2021 10:45:00 PM 11.52 52.736 0.396 7.99 5.49 10.07
4/4/2021 11:00:00 PM 11.34 52.412 0.396 7.97 5.52 10.07
4/4/2021 11:15:00 PM 11.16 52.088 0.397 7.96 5.8 10.04
4/4/2021 11:30:00 PM 11 51.8 0.398 7.94 5.21 10.05
4/4/2021 11:45:00 PM 10.85 51.53 0.398 7.93 5.2 10.06
4/5/2021 12:00:00 AM 10.71 51.278 0.398 7.92 5.46 10.08
4/5/2021 12:15:00 AM 10.58 51.044 0.399 7.92 5.63 10.09
4/5/2021 12:30:00 AM 10.45 50.81 0.399 7.91 5.45 10.12
4/5/2021 12:45:00 AM 10.32 50.576 0.399 7.91 5.7 10.14
4/5/2021 1:00:00 AM 10.2 50.36 0.399 7.91 5.54 10.19
4/5/2021 1:15:00 AM 10.08 50.144 0.399 7.91 5.27 10.21
4/5/2021 1:30:00 AM 9.96 49.928 0.399 7.91 5.63 10.25
4/5/2021 1:45:00 AM 9.84 49.712 0.399 7.91 5.61 10.25
4/5/2021 2:00:00 AM 9.73 49.514 0.399 7.91 5.28 10.31
4/5/2021 2:15:00 AM 9.62 49.316 0.4 7.91 5.33 10.32
4/5/2021 2:30:00 AM 9.52 49.136 0.4 7.91 5.44 10.35
4/5/2021 2:45:00 AM 9.41 48.938 0.4 7.91 5.3 10.41
4/5/2021 3:00:00 AM 9.31 48.758 0.4 7.91 5.26 10.42
4/5/2021 3:15:00 AM 9.21 48.578 0.4 7.91 5.06 10.45
4/5/2021 3:30:00 AM 9.11 48.398 0.4 7.91 5.32 10.48
4/5/2021 3:45:00 AM 9.02 48.236 0.4 7.91 5.49 10.51
4/5/2021 4:00:00 AM 8.93 48.074 0.401 7.91 5.53 10.51
4/5/2021 4:15:00 AM 8.84 47.912 0.401 7.91 5.69 10.57
4/5/2021 4:30:00 AM 8.76 47.768 0.401 7.92 5.19 10.6
4/5/2021 4:45:00 AM 8.68 47.624 0.401 7.92 4.99 10.64
4/5/2021 5:00:00 AM 8.6 47.48 0.401 7.92 4.71 10.66
4/5/2021 5:15:00 AM 8.53 47.354 0.401 7.92 4.96 10.66
4/5/2021 5:30:00 AM 8.45 47.21 0.402 7.92 5.48 10.69
4/5/2021 5:45:00 AM 8.38 47.084 0.401 7.92 4.89 10.74
4/5/2021 6:00:00 AM 8.32 46.976 0.402 7.92 7.01 10.73
4/5/2021 6:15:00 AM 8.26 46.868 0.402 7.92 5.07 10.75
4/5/2021 6:30:00 AM 8.2 46.76 0.402 7.92 5.09 10.79
4/5/2021 6:45:00 AM 8.15 46.67 0.402 7.92 50.35 10.81
4/5/2021 7:00:00 AM 8.12 46.616 0.402 7.92 6.25 10.83
4/5/2021 7:15:00 AM 8.09 46.562 0.402 7.93 4.97 10.87
4/5/2021 7:30:00 AM 8.06 46.508 0.402 7.93 5.31 10.93
4/5/2021 7:45:00 AM 8.04 46.472 0.402 7.93 4.74 10.94
4/5/2021 8:00:00 AM 8.04 46.472 0.403 7.94 4.42 11.03
4/5/2021 8:15:00 AM 8.06 46.508 0.402 7.95 4.14 11.06
4/5/2021 8:30:00 AM 8.08 46.544 0.402 7.96 4.97 11.15
4/5/2021 8:45:00 AM 8.13 46.634 0.402 7.96 4.22 11.2
4/5/2021 9:00:00 AM 8.18 46.724 0.402 7.97 4.83 11.3
4/5/2021 9:15:00 AM 8.25 46.85 0.402 7.98 5.07 11.35
4/5/2021 9:30:00 AM 8.33 46.994 0.402 8 3.99 11.44
4/5/2021 9:45:00 AM 8.43 47.174 0.402 8.01 4.02 11.53
4/5/2021 10:00:00 AM 8.56 47.408 0.401 8.02 3.88 11.63
4/5/2021 10:15:00 AM 8.7 47.66 0.401 8.04 3.5 11.74
4/5/2021 10:30:00 AM 8.87 47.966 0.401 8.05 3.85 11.83
4/5/2021 10:45:00 AM 9.06 48.308 0.4 8.08 4 11.93
4/5/2021 11:00:00 AM 9.29 48.722 0.4 8.1 3.43 12.07
4/5/2021 11:15:00 AM 9.54 49.172 0.399 8.13 3.4 12.14
4/5/2021 11:30:00 AM 9.83 49.694 0.398 8.15 3.43 12.26
4/5/2021 11:45:00 AM 10.14 50.252 0.398 8.18 3.96 12.37
4/5/2021 12:00:00 PM 10.47 50.846 0.397 8.22 3.95 12.43
4/5/2021 12:15:00 PM 10.83 51.494 0.396 8.26 4.04 12.55
4/5/2021 12:30:00 PM 11.23 52.214 0.395 8.29 3.6 12.57
4/5/2021 12:45:00 PM 11.63 52.934 0.394 8.32 3.7 12.59
4/5/2021 1:00:00 PM 12.01 53.618 0.392 8.35 4.59 12.66
4/5/2021 1:15:00 PM 12.39 54.302 0.389 8.38 6.19 12.61
4/5/2021 1:30:00 PM 12.71 54.878 0.463 8.41 6.44 12.63
4/5/2021 1:45:00 PM 13.05 55.49 0.415 8.44 3.7 12.64
4/5/2021 2:00:00 PM 13.38 56.084 0.392 8.47 3.92 12.62
4/5/2021 2:15:00 PM 13.71 56.678 0.394 8.5 6.73 12.57
4/5/2021 2:30:00 PM 14 57.2 0.393 8.52 4.02 12.53
4/5/2021 2:45:00 PM 14.26 57.668 0.39 8.55 3.93 12.5
4/5/2021 3:00:00 PM 14.47 58.046 0.389 8.57 3.72 12.5
4/5/2021 3:15:00 PM 14.7 58.46 0.389 8.58 3.92 12.37
4/5/2021 3:30:00 PM 14.86 58.748 0.387 8.6 4.84 12.36
4/5/2021 3:45:00 PM 15 59 0.386 8.62 3.66 12.32
4/5/2021 4:00:00 PM 15.05 59.09 0.386 8.63 5.05 12.24
4/5/2021 4:15:00 PM 15.08 59.144 0.386 8.64 4.19 12.16
4/5/2021 4:30:00 PM 15.12 59.216 0.385 8.65 4.27 12.1
4/5/2021 4:45:00 PM 15.16 59.288 0.385 8.65 5.75 12.01
4/5/2021 5:00:00 PM 15.12 59.216 0.385 8.66 4.5 11.92
4/5/2021 5:15:00 PM 15.07 59.126 0.384 8.66 6.65 11.82
4/5/2021 5:30:00 PM 15.02 59.036 0.384 8.64 4.43 11.71
4/5/2021 5:45:00 PM 15 59 0.384 8.64 4.75 11.57
4/5/2021 6:00:00 PM 14.93 58.874 0.386 8.63 4.31 11.47
4/5/2021 6:15:00 PM 14.87 58.766 0.385 8.61 4.26 11.33
4/5/2021 6:30:00 PM 14.8 58.64 0.385 8.6 4.62 11.2
4/5/2021 6:45:00 PM 14.74 58.532 0.385 8.58 4.8 11.06
4/5/2021 7:00:00 PM 14.67 58.406 0.386 8.55 4.61 10.94
4/5/2021 7:15:00 PM 14.59 58.262 0.387 8.52 6.06 10.82
4/5/2021 7:30:00 PM 14.49 58.082 0.389 8.49 4.44 10.69
4/5/2021 7:45:00 PM 14.37 57.866 0.39 8.45 5.37 10.58
4/5/2021 8:00:00 PM 14.24 57.632 0.391 8.42 4.9 10.48
4/5/2021 8:15:00 PM 14.1 57.38 0.39 8.38 5.53 10.37
4/5/2021 8:30:00 PM 13.97 57.146 0.393 8.33 6.53 10.26
4/5/2021 8:45:00 PM 13.81 56.858 0.394 8.29 5.73 10.22
4/5/2021 9:00:00 PM 13.65 56.57 0.395 8.25 5.75 10.15
4/5/2021 9:15:00 PM 13.49 56.282 0.396 8.2 5.86 10.1
4/5/2021 9:30:00 PM 13.32 55.976 0.398 8.16 6.63 10.05
4/5/2021 9:45:00 PM 13.15 55.67 0.399 8.12 5.41 10.01
4/5/2021 10:00:00 PM 12.97 55.346 0.401 8.08 5.56 9.95
4/5/2021 10:15:00 PM 12.79 55.022 0.399 8.05 5.35 9.91
4/5/2021 10:30:00 PM 12.62 54.716 0.404 8.02 5.33 9.88
4/5/2021 10:45:00 PM 12.46 54.428 0.41 8 5.57 9.85
4/5/2021 11:00:00 PM 12.31 54.158 0.403 7.97 5.6 9.82
4/5/2021 11:15:00 PM 12.17 53.906 0.412 7.95 5.4 9.8
4/5/2021 11:30:00 PM 12.04 53.672 0.413 7.94 5.79 9.79
4/5/2021 11:45:00 PM 11.92 53.456 0.413 7.92 5.94 9.79
4/6/2021 12:00:00 AM 11.81 53.258 0.414 7.91 5.78 9.79
4/6/2021 12:15:00 AM 11.71 53.078 0.429 7.9 6.14 9.8
4/6/2021 12:30:00 AM 11.62 52.916 0.477 7.9 5.53 9.81
4/6/2021 12:45:00 AM 11.54 52.772 0.478 7.89 5.48 9.82
4/6/2021 1:00:00 AM 11.45 52.61 0.478 7.89 5.59 9.84
4/6/2021 1:15:00 AM 11.37 52.466 0.478 7.88 5.49 9.86
4/6/2021 1:30:00 AM 11.3 52.34 0.399 7.88 5.59 9.86
4/6/2021 1:45:00 AM 11.23 52.214 0.4 7.89 5.46 9.91
4/6/2021 2:00:00 AM 11.17 52.106 0.4 7.89 5.15 9.92
4/6/2021 2:15:00 AM 11.11 51.998 0.401 7.88 5.36 9.94
4/6/2021 2:30:00 AM 11.06 51.908 0.402 7.88 6.06 9.95
4/6/2021 2:45:00 AM 11.01 51.818 0.403 7.88 5.11 9.97
4/6/2021 3:00:00 AM 10.95 51.71 0.403 7.88 6.13 9.96
4/6/2021 3:15:00 AM 10.88 51.584 0.403 7.89 5.85 9.98
4/6/2021 3:30:00 AM 10.8 51.44 0.404 7.88 5.52 10.01
4/6/2021 3:45:00 AM 10.72 51.296 0.405 7.89 5.15 10.03
4/6/2021 4:00:00 AM 10.63 51.134 0.405 7.89 5.07 10.04
4/6/2021 4:15:00 AM 10.54 50.972 0.405 7.89 5.51 10.06
4/6/2021 4:30:00 AM 10.44 50.792 0.405 7.9 5.3 10.09
4/6/2021 4:45:00 AM 10.35 50.63 0.405 7.9 5.27 10.11
4/6/2021 5:00:00 AM 10.27 50.486 0.405 7.9 5.66 10.14
4/6/2021 5:15:00 AM 10.19 50.342 0.405 7.89 5.11 10.16
4/6/2021 5:30:00 AM 10.1 50.18 0.405 7.9 5.83 10.17
4/6/2021 5:45:00 AM 10.02 50.036 0.405 7.9 5.4 10.21
4/6/2021 6:00:00 AM 9.94 49.892 0.406 7.9 5.21 10.22
4/6/2021 6:15:00 AM 9.86 49.748 0.405 7.9 5.77 10.25
4/6/2021 6:30:00 AM 9.77 49.586 0.406 7.91 5.59 10.27
4/6/2021 6:45:00 AM 9.68 49.424 0.406 7.9 5.32 10.3
4/6/2021 7:00:00 AM 9.59 49.262 0.406 7.91 5.04 10.33
4/6/2021 7:15:00 AM 9.51 49.118 0.406 7.9 5.62 10.4
4/6/2021 7:30:00 AM 9.43 48.974 0.406 7.91 5.22 10.45
4/6/2021 7:45:00 AM 9.36 48.848 0.406 7.92 4.9 10.52
4/6/2021 8:00:00 AM 9.3 48.74 0.406 7.93 5.1 10.6
4/6/2021 8:15:00 AM 9.26 48.668 0.406 7.94 5 10.69
4/6/2021 8:30:00 AM 9.23 48.614 0.406 7.94 4.98 10.77
4/6/2021 8:45:00 AM 9.23 48.614 0.406 7.95 4.75 10.87
4/6/2021 9:00:00 AM 9.27 48.686 0.406 7.96 4.37 10.97
4/6/2021 9:15:00 AM 9.33 48.794 0.406 7.97 5.04 11.05
4/6/2021 9:30:00 AM 9.39 48.902 0.406 7.99 4.55 11.18
4/6/2021 9:45:00 AM 9.48 49.064 0.406 8 4.14 11.3
4/6/2021 10:00:00 AM 9.58 49.244 0.405 8.02 4.19 11.37
4/6/2021 10:15:00 AM 9.7 49.46 0.405 8.03 4.36 11.5
4/6/2021 10:30:00 AM 9.85 49.73 0.405 8.05 4.03 11.6
4/6/2021 10:45:00 AM 10.03 50.054 0.405 8.07 4.36 11.76
4/6/2021 11:00:00 AM 10.23 50.414 0.404 8.09 4.3 11.89
4/6/2021 11:15:00 AM 10.48 50.864 0.403 8.11 4.96 12.01
4/6/2021 11:30:00 AM 10.75 51.35 0.402 8.14 4.9 12.12
4/6/2021 11:45:00 AM 11.05 51.89 0.402 8.18 4.92 12.24
4/6/2021 12:00:00 PM 11.38 52.484 0.399 8.21 4.34 12.33
4/6/2021 12:15:00 PM 11.73 53.114 0.395 8.25 4.72 12.39
4/6/2021 12:30:00 PM 12.12 53.816 0.425 8.28 5.25 12.47
4/6/2021 12:45:00 PM 12.51 54.518 0.409 8.31 7.35 12.5
4/6/2021 1:00:00 PM 12.91 55.238 0.399 8.35 6.73 12.54
4/6/2021 1:15:00 PM 13.31 55.958 0.401 8.38 5.6 12.56
4/6/2021 1:30:00 PM 13.67 56.606 0.4 8.42 4.63 12.55
4/6/2021 1:45:00 PM 14.01 57.218 0.397 8.45 4.89 12.54
4/6/2021 2:00:00 PM 14.34 57.812 0.395 8.48 5.81 12.53
4/6/2021 2:15:00 PM 14.65 58.37 0.395 8.5 6.82 12.51
4/6/2021 2:30:00 PM 14.92 58.856 0.393 8.53 5.17 12.49
4/6/2021 2:45:00 PM 15.17 59.306 0.392 8.56 6.57 12.46
4/6/2021 3:00:00 PM 15.38 59.684 0.391 8.58 8.19 12.42
4/6/2021 3:15:00 PM 15.58 60.044 0.39 8.6 6.1 12.37
4/6/2021 3:30:00 PM 15.76 60.368 0.389 8.62 5.68 12.31
4/6/2021 3:45:00 PM 15.89 60.602 0.388 8.63 6.33 12.24
4/6/2021 4:00:00 PM 15.97 60.746 0.387 8.64 7.5 12.16
4/6/2021 4:15:00 PM 16.05 60.89 0.387 8.65 5.85 12.07
4/6/2021 4:30:00 PM 16.09 60.962 0.386 8.66 6.34 11.97
4/6/2021 4:45:00 PM 16.1 60.98 0.386 8.66 6.55 11.86
4/6/2021 5:00:00 PM 16.07 60.926 0.385 8.66 7.46 11.74
4/6/2021 5:15:00 PM 16.03 60.854 0.385 8.65 8.1 11.62
4/6/2021 5:30:00 PM 15.97 60.746 0.385 8.65 8.4 11.49
4/6/2021 5:45:00 PM 15.89 60.602 0.385 8.64 6.25 11.37
4/6/2021 6:00:00 PM 15.8 60.44 0.385 8.63 5.92 11.23
4/6/2021 6:15:00 PM 15.7 60.26 0.386 8.61 6.05 11.04
4/6/2021 6:30:00 PM 15.61 60.098 0.386 8.59 6.83 10.92
4/6/2021 6:45:00 PM 15.52 59.936 0.387 8.57 7.07 10.77
4/6/2021 7:00:00 PM 15.42 59.756 0.387 8.54 6.57 10.63
4/6/2021 7:15:00 PM 15.31 59.558 0.388 8.51 6.92 10.51
4/6/2021 7:30:00 PM 15.19 59.342 0.389 8.48 5.9 10.36
4/6/2021 7:45:00 PM 15.06 59.108 0.39 8.45 8.89 10.24
4/6/2021 8:00:00 PM 14.92 58.856 0.391 8.41 6.57 10.17
4/6/2021 8:15:00 PM 14.76 58.568 0.392 8.37 6.79 10.07
4/6/2021 8:30:00 PM 14.59 58.262 0.394 8.33 7.71 10
4/6/2021 8:45:00 PM 14.41 57.938 0.395 8.29 6.58 9.86
4/6/2021 9:00:00 PM 14.23 57.614 0.396 8.25 8.85 9.85
4/6/2021 9:15:00 PM 14.04 57.272 0.398 8.21 6.11 9.81
4/6/2021 9:30:00 PM 13.86 56.948 0.4 8.17 7.04 9.79
4/6/2021 9:45:00 PM 13.67 56.606 0.401 8.13 7.7 9.78
4/6/2021 10:00:00 PM 13.49 56.282 0.402 8.09 6.84 9.72
4/6/2021 10:15:00 PM 13.31 55.958 0.404 8.07 6.53 9.72
4/6/2021 10:30:00 PM 13.13 55.634 0.405 8.03 5.78 9.71
4/6/2021 10:45:00 PM 12.97 55.346 0.408 8.01 5.96 9.65
4/6/2021 11:00:00 PM 12.81 55.058 0.409 7.98 5.73 9.64
4/6/2021 11:15:00 PM 12.65 54.77 0.41 7.96 5.55 9.62
4/6/2021 11:30:00 PM 12.5 54.5 0.411 7.95 5.67 9.63
4/6/2021 11:45:00 PM 12.36 54.248 0.411 7.93 5.86 9.61
4/7/2021 12:00:00 AM 12.23 54.014 0.412 7.92 5.69 9.62
4/7/2021 12:15:00 AM 12.1 53.78 0.414 7.91 5.98 9.65
4/7/2021 12:30:00 AM 11.97 53.546 0.414 7.91 6.46 9.66
4/7/2021 12:45:00 AM 11.86 53.348 0.419 7.9 6.46 9.68
4/7/2021 1:00:00 AM 11.75 53.15 0.42 7.9 5.56 9.72
4/7/2021 1:15:00 AM 11.66 52.988 0.42 7.89 6.64 9.73
4/7/2021 1:30:00 AM 11.58 52.844 0.42 7.89 5.8 9.72
4/7/2021 1:45:00 AM 11.5 52.7 0.42 7.88 6.05 9.77
4/7/2021 2:00:00 AM 11.43 52.574 0.42 7.88 5.52 9.79
4/7/2021 2:15:00 AM 11.37 52.466 0.435 7.88 5.81 9.81
4/7/2021 2:30:00 AM 11.3 52.34 0.435 7.88 6.15 9.84
4/7/2021 2:45:00 AM 11.24 52.232 0.436 7.88 5.86 9.85
4/7/2021 3:00:00 AM 11.18 52.124 0.436 7.88 5.53 9.88
4/7/2021 3:15:00 AM 11.13 52.034 0.436 7.88 5.85 9.87
4/7/2021 3:30:00 AM 11.08 51.944 0.436 7.88 6.18 9.87
4/7/2021 3:45:00 AM 11.04 51.872 0.436 7.88 5.7 9.89
4/7/2021 4:00:00 AM 11 51.8 0.413 7.88 5.36 9.93
4/7/2021 4:15:00 AM 10.95 51.71 0.485 7.88 5.4 9.93
4/7/2021 4:30:00 AM 10.92 51.656 0.485 7.88 5.42 9.94
4/7/2021 4:45:00 AM 10.88 51.584 0.486 7.88 6.2 9.93
4/7/2021 5:00:00 AM 10.83 51.494 0.486 7.88 5.61 9.96
4/7/2021 5:15:00 AM 10.79 51.422 0.405 7.89 6.06 9.97
4/7/2021 5:30:00 AM 10.74 51.332 0.486 7.88 6.13 9.94
4/7/2021 5:45:00 AM 10.68 51.224 0.406 7.89 6.71 9.98
4/7/2021 6:00:00 AM 10.62 51.116 0.414 7.89 5.69 10.03
4/7/2021 6:15:00 AM 10.56 51.008 0.407 7.89 5.62 10.04
4/7/2021 6:30:00 AM 10.5 50.9 0.408 7.88 5.46 10.08
4/7/2021 6:45:00 AM 10.44 50.792 0.409 7.89 6.12 10.05
4/7/2021 7:00:00 AM 10.39 50.702 0.41 7.89 5.47 10.1
4/7/2021 7:15:00 AM 10.36 50.648 0.41 7.89 6.03 10.15
4/7/2021 7:30:00 AM 10.33 50.594 0.41 7.9 5.34 10.18
4/7/2021 7:45:00 AM 10.31 50.558 0.41 7.91 5.83 10.26
4/7/2021 8:00:00 AM 10.3 50.54 0.41 7.92 6.47 10.38
4/7/2021 8:15:00 AM 10.29 50.522 0.41 7.93 5.22 10.46
4/7/2021 8:30:00 AM 10.32 50.576 0.41 7.94 4.58 10.59
4/7/2021 8:45:00 AM 10.4 50.72 0.418 7.95 4.85 10.74
4/7/2021 9:00:00 AM 10.48 50.864 0.408 7.97 9 10.79
4/7/2021 9:15:00 AM 10.54 50.972 0.414 7.98 4.87 10.94
4/7/2021 9:30:00 AM 10.63 51.134 0.407 8 4.71 11.03
4/7/2021 9:45:00 AM 10.67 51.206 0.406 8.02 4.44 11.17
4/7/2021 10:00:00 AM 10.75 51.35 0.406 8.04 4.32 11.27
4/7/2021 10:15:00 AM 10.85 51.53 0.404 8.05 8.51 11.39
4/7/2021 10:30:00 AM 11 51.8 0.412 8.08 5.58 11.48
4/7/2021 10:45:00 AM 11.05 51.89 0.484 8.1 4.74 11.54
4/7/2021 11:00:00 AM 11.05 51.89 0.483 8.11 5.43 11.62
4/7/2021 11:15:00 AM 11.08 51.944 0.482 8.13 6.37 11.68
4/7/2021 11:30:00 AM 11.16 52.088 0.481 8.15 10.05 11.69
4/7/2021 11:45:00 AM 11.24 52.232 0.48 8.16 15.26 11.7
4/7/2021 12:00:00 PM 11.33 52.394 0.48 8.18 8.25 11.71
4/7/2021 12:15:00 PM 11.6 52.88 0.431 8.21 6.74 11.86
4/7/2021 12:30:00 PM 12 53.6 0.415 8.24 8.86 11.98
4/7/2021 12:45:00 PM 12.38 54.284 0.409 8.27 9.68 12.04
4/7/2021 1:00:00 PM 12.75 54.95 0.408 8.3 7.3 12.04
4/7/2021 1:15:00 PM 13.11 55.598 0.405 8.33 9.46 12.14
4/7/2021 1:30:00 PM 13.47 56.246 0.404 8.36 12.86 12.13
4/7/2021 1:45:00 PM 13.77 56.786 0.403 8.39 12.25 12.23
4/7/2021 2:00:00 PM 14.07 57.326 0.401 8.41 15.16 12.17
4/7/2021 2:15:00 PM 14.33 57.794 0.401 8.44 13.52 12.18
4/7/2021 2:30:00 PM 14.59 58.262 0.4 8.46 10.69 12.26
4/7/2021 2:45:00 PM 14.79 58.622 0.399 8.47 10.52 12.2
4/7/2021 3:00:00 PM 14.97 58.946 0.399 8.48 11.87 12.22
4/7/2021 3:15:00 PM 15.11 59.198 0.398 8.49 10.91 12.18
4/7/2021 3:30:00 PM 15.23 59.414 0.398 8.5 11.35 12.16
4/7/2021 3:45:00 PM 15.35 59.63 0.397 8.5 10.47 12.15
4/7/2021 4:00:00 PM 15.47 59.846 0.397 8.51 12.18 12.07
4/7/2021 4:15:00 PM 15.61 60.098 0.396 8.52 9.7 12.01
4/7/2021 4:30:00 PM 15.73 60.314 0.395 8.53 7.29 11.93
4/7/2021 4:45:00 PM 15.82 60.476 0.394 8.54 7.24 11.79
4/7/2021 5:00:00 PM 15.9 60.62 0.393 8.55 6.78 11.66
4/7/2021 5:15:00 PM 15.94 60.692 0.392 8.57 6.75 11.52
4/7/2021 5:30:00 PM 15.96 60.728 0.391 8.57 6.49 11.37
4/7/2021 5:45:00 PM 15.97 60.746 0.391 8.57 7.35 11.24
4/7/2021 6:00:00 PM 15.95 60.71 0.391 8.57 7.14 11.12
4/7/2021 6:15:00 PM 15.91 60.638 0.391 8.56 8.13 10.99
4/7/2021 6:30:00 PM 15.85 60.53 0.391 8.54 8.26 10.82
4/7/2021 6:45:00 PM 15.81 60.458 0.391 8.53 6.91 10.67
4/7/2021 7:00:00 PM 15.76 60.368 0.391 8.51 7.31 10.5
4/7/2021 7:15:00 PM 15.69 60.242 0.392 8.48 6.73 10.36
4/7/2021 7:30:00 PM 15.61 60.098 0.393 8.45 6.29 10.21
4/7/2021 7:45:00 PM 15.51 59.918 0.394 8.42 6.54 10.1
4/7/2021 8:00:00 PM 15.42 59.756 0.394 8.39 7.04 9.96
4/7/2021 8:15:00 PM 15.31 59.558 0.395 8.35 7.94 9.85
4/7/2021 8:30:00 PM 15.18 59.324 0.397 8.31 7.05 9.77
4/7/2021 8:45:00 PM 15.03 59.054 0.398 8.28 6.89 9.71
4/7/2021 9:00:00 PM 14.86 58.748 0.399 8.23 6.77 9.61
4/7/2021 9:15:00 PM 14.69 58.442 0.4 8.19 7.19 9.58
4/7/2021 9:30:00 PM 14.51 58.118 0.402 8.16 7.21 9.59
4/7/2021 9:45:00 PM 14.34 57.812 0.403 8.12 8.91 9.56
4/7/2021 10:00:00 PM 14.15 57.47 0.405 8.09 7.07 9.53
4/7/2021 10:15:00 PM 13.97 57.146 0.406 8.06 7.13 9.5
4/7/2021 10:30:00 PM 13.79 56.822 0.408 8.03 9.31 9.48
4/7/2021 10:45:00 PM 13.63 56.534 0.409 8.01 7.02 9.45
4/7/2021 11:00:00 PM 13.47 56.246 0.411 7.99 7.64 9.45
4/7/2021 11:15:00 PM 13.32 55.976 0.412 7.97 9.29 9.44
4/7/2021 11:30:00 PM 13.18 55.724 0.413 7.95 7.06 9.44
4/7/2021 11:45:00 PM 13.04 55.472 0.414 7.94 7.34 9.42
4/8/2021 12:00:00 AM 12.9 55.22 0.414 7.93 6.72 9.43
4/8/2021 12:15:00 AM 12.76 54.968 0.414 7.92 6.29 9.44
4/8/2021 12:30:00 AM 12.62 54.716 0.414 7.91 7.29 9.45
4/8/2021 12:45:00 AM 12.5 54.5 0.416 7.91 6.85 9.46
4/8/2021 1:00:00 AM 12.36 54.248 0.416 7.9 7.55 9.47
4/8/2021 1:15:00 AM 12.23 54.014 0.417 7.9 6.92 9.51
4/8/2021 1:30:00 AM 12.1 53.78 0.415 7.9 6.52 9.52
4/8/2021 1:45:00 AM 11.98 53.564 0.417 7.9 6.44 9.55
4/8/2021 2:00:00 AM 11.86 53.348 0.419 7.9 7.02 9.6
4/8/2021 2:15:00 AM 11.76 53.168 0.419 7.9 6.9 9.66
4/8/2021 2:30:00 AM 11.65 52.97 0.419 7.9 6.8 9.66
4/8/2021 2:45:00 AM 11.54 52.772 0.42 7.9 6.52 9.71
4/8/2021 3:00:00 AM 11.44 52.592 0.42 7.9 6.55 9.74
4/8/2021 3:15:00 AM 11.33 52.394 0.42 7.9 6.25 9.77
4/8/2021 3:30:00 AM 11.23 52.214 0.421 7.9 6.31 9.79
4/8/2021 3:45:00 AM 11.12 52.016 0.426 7.91 7.19 9.84
4/8/2021 4:00:00 AM 11.01 51.818 0.426 7.91 6.15 9.85
4/8/2021 4:15:00 AM 10.91 51.638 0.426 7.91 6.63 9.88
4/8/2021 4:30:00 AM 10.81 51.458 0.442 7.91 5.95 9.91
4/8/2021 4:45:00 AM 10.72 51.296 0.442 7.92 6.03 9.94
4/8/2021 5:00:00 AM 10.64 51.152 0.442 7.92 6.26 9.98
4/8/2021 5:15:00 AM 10.56 51.008 0.442 7.92 7.04 9.99
4/8/2021 5:30:00 AM 10.48 50.864 0.442 7.92 6.48 10.03
4/8/2021 5:45:00 AM 10.41 50.738 0.492 7.92 6.68 10.07
4/8/2021 6:00:00 AM 10.33 50.594 0.492 7.92 6.52 10.06
4/8/2021 6:15:00 AM 10.26 50.468 0.411 7.92 6.66 10.1
4/8/2021 6:30:00 AM 10.18 50.324 0.411 7.92 7.16 10.12
4/8/2021 6:45:00 AM 10.12 50.216 0.412 7.92 6.65 10.16
4/8/2021 7:00:00 AM 10.07 50.126 0.413 7.92 6.31 10.2
4/8/2021 7:15:00 AM 10.03 50.054 0.413 7.93 6.5 10.28
4/8/2021 7:30:00 AM 9.99 49.982 0.414 7.94 6.05 10.31
4/8/2021 7:45:00 AM 9.97 49.946 0.413 7.94 6.8 10.39
4/8/2021 8:00:00 AM 9.94 49.892 0.414 7.95 5.76 10.44
4/8/2021 8:15:00 AM 9.92 49.856 0.415 7.95 5.35 10.55
4/8/2021 8:30:00 AM 9.93 49.874 0.414 7.96 5.19 10.64
4/8/2021 8:45:00 AM 9.96 49.928 0.414 7.98 5.15 10.73
4/8/2021 9:00:00 AM 10 50 0.414 7.99 5.36 10.84
4/8/2021 9:15:00 AM 10.06 50.108 0.413 8 4.9 10.94
4/8/2021 9:30:00 AM 10.13 50.234 0.412 8.01 5.16 11.03
4/8/2021 9:45:00 AM 10.23 50.414 0.41 8.02 5.63 11.12
4/8/2021 10:00:00 AM 10.36 50.648 0.492 8.04 4.93 11.22
4/8/2021 10:15:00 AM 10.46 50.828 0.492 8.05 5.76 11.34
4/8/2021 10:30:00 AM 10.62 51.116 0.442 8.07 4.73 11.45
4/8/2021 10:45:00 AM 10.84 51.512 0.418 8.09 4.86 11.56
4/8/2021 11:00:00 AM 11.08 51.944 0.426 8.11 5.07 11.69
4/8/2021 11:15:00 AM 11.35 52.43 0.425 8.14 4.86 11.8
4/8/2021 11:30:00 AM 11.62 52.916 0.419 8.17 4.87 11.89
4/8/2021 11:45:00 AM 11.91 53.438 0.417 8.19 5.42 11.95
4/8/2021 12:00:00 PM 12.24 54.032 0.416 8.22 5.09 12.03
4/8/2021 12:15:00 PM 12.6 54.68 0.415 8.24 5.54 12.11
4/8/2021 12:30:00 PM 12.98 55.364 0.413 8.27 7.15 12.19
4/8/2021 12:45:00 PM 13.36 56.048 0.412 8.31 9.01 12.23
4/8/2021 1:00:00 PM 13.75 56.75 0.411 8.34 7.5 12.25
4/8/2021 1:15:00 PM 14.14 57.452 0.409 8.36 9.01 12.28
4/8/2021 1:30:00 PM 14.52 58.136 0.408 8.39 13.41 12.28
4/8/2021 1:45:00 PM 14.9 58.82 0.407 8.42 12.86 12.27
4/8/2021 2:00:00 PM 15.25 59.45 0.405 8.44 12.83 12.27
4/8/2021 2:15:00 PM 15.57 60.026 0.404 8.47 12.41 12.22
4/8/2021 2:30:00 PM 15.86 60.548 0.402 8.49 12.69 12.18
4/8/2021 2:45:00 PM 16.12 61.016 0.402 8.51 12.17 12.14
4/8/2021 3:00:00 PM 16.36 61.448 0.401 8.54 9.51 12.06
4/8/2021 3:15:00 PM 16.56 61.808 0.399 8.55 8.74 12.05
4/8/2021 3:30:00 PM 16.73 62.114 0.399 8.57 8.6 11.95
4/8/2021 3:45:00 PM 16.86 62.348 0.398 8.58 8.92 11.9
4/8/2021 4:00:00 PM 16.95 62.51 0.397 8.59 12.21 11.79
4/8/2021 4:15:00 PM 17.01 62.618 0.396 8.6 9.66 11.74
4/8/2021 4:30:00 PM 17.04 62.672 0.396 8.6 8.44 11.62
4/8/2021 4:45:00 PM 17.03 62.654 0.395 8.61 7.51 11.5
4/8/2021 5:00:00 PM 17.01 62.618 0.395 8.61 8.45 11.39
4/8/2021 5:15:00 PM 16.96 62.528 0.395 8.6 8.06 11.27
4/8/2021 5:30:00 PM 16.88 62.384 0.395 8.6 10 11.13
4/8/2021 5:45:00 PM 16.8 62.24 0.395 8.59 9.52 11.01
4/8/2021 6:00:00 PM 16.73 62.114 0.395 8.57 9.27 10.85
4/8/2021 6:15:00 PM 16.63 61.934 0.395 8.56 8.86 10.68
4/8/2021 6:30:00 PM 16.51 61.718 0.396 8.53 8.3 10.53
4/8/2021 6:45:00 PM 16.39 61.502 0.396 8.5 7.62 10.35
4/8/2021 7:00:00 PM 16.27 61.286 0.397 8.47 6.99 10.21
4/8/2021 7:15:00 PM 16.15 61.07 0.397 8.45 8.14 10.09
4/8/2021 7:30:00 PM 16.03 60.854 0.398 8.43 8.8 9.96
4/8/2021 7:45:00 PM 15.9 60.62 0.399 8.4 7.55 9.86
4/8/2021 8:00:00 PM 15.77 60.386 0.4 8.37 9.4 9.73
4/8/2021 8:15:00 PM 15.64 60.152 0.401 8.34 10.93 9.68
4/8/2021 8:30:00 PM 15.49 59.882 0.402 8.3 9.66 9.61
4/8/2021 8:45:00 PM 15.32 59.576 0.404 8.28 8.34 9.52
4/8/2021 9:00:00 PM 15.15 59.27 0.404 8.24 8.28 9.48
4/8/2021 9:15:00 PM 14.96 58.928 0.405 8.21 8.88 9.48
4/8/2021 9:30:00 PM 14.78 58.604 0.408 8.18 8.18 9.43
4/8/2021 9:45:00 PM 14.59 58.262 0.409 8.15 8.45 9.43
4/8/2021 10:00:00 PM 14.39 57.902 0.411 8.12 8.05 9.4
4/8/2021 10:15:00 PM 14.19 57.542 0.412 8.09 9.58 9.43
4/8/2021 10:30:00 PM 13.99 57.182 0.414 8.06 8.43 9.38
4/8/2021 10:45:00 PM 13.79 56.822 0.415 8.04 9.39 9.38
4/8/2021 11:00:00 PM 13.59 56.462 0.417 8.02 8.68 9.35
4/8/2021 11:15:00 PM 13.39 56.102 0.418 8 7.98 9.38
4/8/2021 11:30:00 PM 13.21 55.778 0.419 7.99 6.76 9.4
4/8/2021 11:45:00 PM 13.04 55.472 0.419 7.97 7.5 9.38
4/9/2021 12:00:00 AM 12.88 55.184 0.42 7.96 6.85 9.41
4/9/2021 12:15:00 AM 12.72 54.896 0.421 7.95 6.81 9.43
4/9/2021 12:30:00 AM 12.57 54.626 0.421 7.94 6.35 9.48
4/9/2021 12:45:00 AM 12.44 54.392 0.422 7.94 7.31 9.49
4/9/2021 1:00:00 AM 12.31 54.158 0.422 7.94 9.43 9.51
4/9/2021 1:15:00 AM 12.19 53.942 0.422 7.93 7.05 9.52
4/9/2021 1:30:00 AM 12.08 53.744 0.423 7.93 11.19 9.56
4/9/2021 1:45:00 AM 11.96 53.528 0.424 7.93 6.71 9.62
4/9/2021 2:00:00 AM 11.85 53.33 0.424 7.92 11.03 9.64
4/9/2021 2:15:00 AM 11.76 53.168 0.424 7.93 8.98 9.67
4/9/2021 2:30:00 AM 11.66 52.988 0.422 7.93 9.09 9.71
4/9/2021 2:45:00 AM 11.57 52.826 0.424 7.92 7.04 9.73
4/9/2021 3:00:00 AM 11.48 52.664 0.424 7.92 7.68 9.74
4/9/2021 3:15:00 AM 11.4 52.52 0.425 7.93 7.43 9.79
4/9/2021 3:30:00 AM 11.33 52.394 0.425 7.93 6.78 9.8
4/9/2021 3:45:00 AM 11.27 52.286 0.427 7.92 26.49 9.81
4/9/2021 4:00:00 AM 11.22 52.196 0.425 7.93 7.28 9.85
4/9/2021 4:15:00 AM 11.18 52.124 0.427 7.92 6.33 9.88
4/9/2021 4:30:00 AM 11.14 52.052 0.427 7.92 7.11 9.9
4/9/2021 4:45:00 AM 11.11 51.998 0.427 7.92 6.32 9.91
4/9/2021 5:00:00 AM 11.08 51.944 0.427 7.91 5.92 9.92
4/9/2021 5:15:00 AM 11.05 51.89 0.428 7.92 7.97 9.94
4/9/2021 5:30:00 AM 11.03 51.854 0.428 7.92 6.64 9.94
4/9/2021 5:45:00 AM 11 51.8 0.428 7.92 5.25 9.94
4/9/2021 6:00:00 AM 10.98 51.764 0.428 7.91 6 9.93
4/9/2021 6:15:00 AM 10.96 51.728 0.428 7.92 6.69 9.91
4/9/2021 6:30:00 AM 10.93 51.674 0.426 7.92 6.17 9.91
4/9/2021 6:45:00 AM 10.91 51.638 0.424 7.92 5.59 9.97
4/9/2021 7:00:00 AM 10.89 51.602 0.424 7.93 5.99 10
4/9/2021 7:15:00 AM 10.88 51.584 0.428 7.93 6.33 10.03
4/9/2021 7:30:00 AM 10.87 51.566 0.428 7.93 6.01 10.06
4/9/2021 7:45:00 AM 10.87 51.566 0.428 7.94 5.8 10.09
4/9/2021 8:00:00 AM 10.88 51.584 0.427 7.95 5.24 10.2
4/9/2021 8:15:00 AM 10.91 51.638 0.428 7.96 4.9 10.27
4/9/2021 8:30:00 AM 10.93 51.674 0.428 7.97 4.89 10.33
4/9/2021 8:45:00 AM 10.96 51.728 0.428 7.98 4.95 10.4
4/9/2021 9:00:00 AM 11 51.8 0.428 7.98 4.99 10.48
4/9/2021 9:15:00 AM 11.04 51.872 0.428 8 5.04 10.54
4/9/2021 9:30:00 AM 11.09 51.962 0.428 8.01 4.47 10.67
4/9/2021 9:45:00 AM 11.13 52.034 0.427 8.02 4.88 10.75
4/9/2021 10:00:00 AM 11.14 52.052 0.426 8.03 4.46 10.76
4/9/2021 10:15:00 AM 11.18 52.124 0.425 8.04 5.1 10.85
4/9/2021 10:30:00 AM 11.22 52.196 0.427 8.06 5.08 10.9
4/9/2021 10:45:00 AM 11.24 52.232 0.427 8.07 4.84 10.99
4/9/2021 11:00:00 AM 11.26 52.268 0.426 8.07 5.13 11
4/9/2021 11:15:00 AM 11.29 52.322 0.426 8.09 4.73 11.02
4/9/2021 11:30:00 AM 11.34 52.412 0.424 8.1 4.5 11.13
4/9/2021 11:45:00 AM 11.4 52.52 0.422 8.12 4.91 11.22
4/9/2021 12:00:00 PM 11.47 52.646 0.424 8.13 6.1 11.3
4/9/2021 12:15:00 PM 11.55 52.79 0.424 8.16 7.22 11.38
4/9/2021 12:30:00 PM 11.62 52.916 0.424 8.17 5.75 11.46
4/9/2021 12:45:00 PM 11.69 53.042 0.423 8.19 5.33 11.53
4/9/2021 1:00:00 PM 11.78 53.204 0.423 8.21 5.61 11.59
4/9/2021 1:15:00 PM 11.86 53.348 0.422 8.22 5.51 11.66
4/9/2021 1:30:00 PM 11.91 53.438 0.422 8.24 5.5 11.67
4/9/2021 1:45:00 PM 12.02 53.636 0.421 8.26 5.9 11.72
4/9/2021 2:00:00 PM 12.08 53.744 0.421 8.27 5.95 11.74
4/9/2021 2:15:00 PM 12.12 53.816 0.42 8.28 7.84 11.74
4/9/2021 2:30:00 PM 12.16 53.888 0.42 8.29 7.62 11.73
4/9/2021 2:45:00 PM 12.2 53.96 0.419 8.29 8.73 11.67
4/9/2021 3:00:00 PM 12.23 54.014 0.419 8.3 7.3 11.63
4/9/2021 3:15:00 PM 12.28 54.104 0.418 8.31 7.45 11.59
4/9/2021 3:30:00 PM 12.34 54.212 0.418 8.31 10.23 11.62
4/9/2021 3:45:00 PM 12.37 54.266 0.418 8.32 12.94 11.56
4/9/2021 4:00:00 PM 12.41 54.338 0.417 8.33 9.28 11.46
4/9/2021 4:15:00 PM 12.44 54.392 0.417 8.33 8.06 11.56
4/9/2021 4:30:00 PM 12.48 54.464 0.416 8.33 6.21 11.5
4/9/2021 4:45:00 PM 12.5 54.5 0.416 8.34 5.93 11.43
4/9/2021 5:00:00 PM 12.52 54.536 0.416 8.34 6.02 11.33
4/9/2021 5:15:00 PM 12.53 54.554 0.415 8.33 6.36 11.26
4/9/2021 5:30:00 PM 12.55 54.59 0.416 8.32 5.33 11.21
4/9/2021 5:45:00 PM 12.55 54.59 0.416 8.31 5.63 11.03
4/9/2021 6:00:00 PM 12.54 54.572 0.416 8.3 6.27 10.92
4/9/2021 6:15:00 PM 12.53 54.554 0.417 8.28 5.58 10.79
4/9/2021 6:30:00 PM 12.52 54.536 0.417 8.27 6.46 10.81
4/9/2021 6:45:00 PM 12.5 54.5 0.415 8.26 5.71 10.71
4/9/2021 7:00:00 PM 12.48 54.464 0.417 8.24 6.77 10.63
4/9/2021 7:15:00 PM 12.48 54.464 0.417 8.22 5.54 10.56
4/9/2021 7:30:00 PM 12.47 54.446 0.418 8.2 6.88 10.47
4/9/2021 7:45:00 PM 12.45 54.41 0.418 8.19 5.73 10.39
4/9/2021 8:00:00 PM 12.43 54.374 0.419 8.16 5.34 10.31
4/9/2021 8:15:00 PM 12.4 54.32 0.419 8.14 7.08 10.23
4/9/2021 8:30:00 PM 12.36 54.248 0.421 8.12 7.38 10.17
4/9/2021 8:45:00 PM 12.32 54.176 0.421 8.1 5.81 10.1
4/9/2021 9:00:00 PM 12.28 54.104 0.421 8.08 5.84 10.06
4/9/2021 9:15:00 PM 12.24 54.032 0.422 8.06 5.66 10.03
4/9/2021 9:30:00 PM 12.19 53.942 0.422 8.05 6.83 9.99
4/9/2021 9:45:00 PM 12.15 53.87 0.422 8.03 6.75 9.93
4/9/2021 10:00:00 PM 12.1 53.78 0.424 8.01 6.18 9.91
4/9/2021 10:15:00 PM 12.06 53.708 0.424 8 6.86 9.88
4/9/2021 10:30:00 PM 12.02 53.636 0.425 7.99 6.32 9.83
4/9/2021 10:45:00 PM 11.97 53.546 0.424 7.98 7.15 9.83
4/9/2021 11:00:00 PM 11.94 53.492 0.423 7.97 6.98 9.82
4/9/2021 11:15:00 PM 11.9 53.42 0.425 7.97 6.48 9.82
4/9/2021 11:30:00 PM 11.86 53.348 0.426 7.96 6.26 9.8
4/9/2021 11:45:00 PM 11.82 53.276 0.426 7.95 6.43 9.81
4/10/2021 12:00:00 AM 11.79 53.222 0.425 7.95 6.68 9.79
4/10/2021 12:15:00 AM 11.75 53.15 0.426 7.95 6.4 9.79
4/10/2021 12:30:00 AM 11.72 53.096 0.426 7.95 6.68 9.8
4/10/2021 12:45:00 AM 11.69 53.042 0.423 7.94 7.01 9.8
4/10/2021 1:00:00 AM 11.66 52.988 0.426 7.94 6.8 9.8
4/10/2021 1:15:00 AM 11.63 52.934 0.426 7.94 6.51 9.81
4/10/2021 1:30:00 AM 11.61 52.898 0.427 7.94 7.47 9.82
4/10/2021 1:45:00 AM 11.58 52.844 0.426 7.94 8.03 9.83
4/10/2021 2:00:00 AM 11.56 52.808 0.427 7.94 6.76 9.81
4/10/2021 2:15:00 AM 11.54 52.772 0.427 7.94 6.85 9.83
4/10/2021 2:30:00 AM 11.52 52.736 0.427 7.94 5.68 9.84
4/10/2021 2:45:00 AM 11.49 52.682 0.427 7.93 6.03 9.83
4/10/2021 3:00:00 AM 11.48 52.664 0.428 7.94 7.73 9.86
4/10/2021 3:15:00 AM 11.46 52.628 0.428 7.94 6.23 9.85
4/10/2021 3:30:00 AM 11.44 52.592 0.428 7.94 6.47 9.85
4/10/2021 3:45:00 AM 11.42 52.556 0.426 7.94 6.12 9.8
4/10/2021 4:00:00 AM 11.4 52.52 0.428 7.94 6.26 9.88
4/10/2021 4:15:00 AM 11.39 52.502 0.428 7.94 6.08 9.9
4/10/2021 4:30:00 AM 11.37 52.466 0.428 7.94 5.88 9.9
4/10/2021 4:45:00 AM 11.36 52.448 0.428 7.94 6.96 9.91
4/10/2021 5:00:00 AM 11.35 52.43 0.428 7.94 6.8 9.91
4/10/2021 5:15:00 AM 11.33 52.394 0.428 7.94 6.47 9.89
4/10/2021 5:30:00 AM 11.32 52.376 0.428 7.94 6.37 9.9
4/10/2021 5:45:00 AM 11.3 52.34 0.428 7.94 7.04 9.92
4/10/2021 6:00:00 AM 11.29 52.322 0.428 7.94 7 9.89
4/10/2021 6:15:00 AM 11.27 52.286 0.429 7.94 6.84 9.91
4/10/2021 6:30:00 AM 11.26 52.268 0.429 7.94 6.22 9.9
4/10/2021 6:45:00 AM 11.25 52.25 0.429 7.94 6.14 9.93
4/10/2021 7:00:00 AM 11.24 52.232 0.429 7.94 6.4 9.94
4/10/2021 7:15:00 AM 11.23 52.214 0.429 7.94 6.32 9.96
4/10/2021 7:30:00 AM 11.23 52.214 0.429 7.95 6.33 9.97
4/10/2021 7:45:00 AM 11.23 52.214 0.429 7.95 6.75 10.01
4/10/2021 8:00:00 AM 11.23 52.214 0.429 7.95 6.17 10.05
4/10/2021 8:15:00 AM 11.25 52.25 0.429 7.96 5.56 10.1
4/10/2021 8:30:00 AM 11.26 52.268 0.429 7.97 5.47 10.17
4/10/2021 8:45:00 AM 11.29 52.322 0.429 7.98 5.76 10.27
4/10/2021 9:00:00 AM 11.31 52.358 0.429 7.99 6.12 10.34
4/10/2021 9:15:00 AM 11.34 52.412 0.428 7.99 4.83 10.42
4/10/2021 9:30:00 AM 11.38 52.484 0.428 8.01 5.71 10.52
4/10/2021 9:45:00 AM 11.43 52.574 0.428 8.03 5.39 10.59
4/10/2021 10:00:00 AM 11.47 52.646 0.428 8.04 5.17 10.68
4/10/2021 10:15:00 AM 11.53 52.754 0.428 8.05 5.14 10.78
4/10/2021 10:30:00 AM 11.6 52.88 0.427 8.06 5.4 10.87
4/10/2021 10:45:00 AM 11.67 53.006 0.427 8.08 4.99 10.98
4/10/2021 11:00:00 AM 11.75 53.15 0.427 8.09 5.14 11.06
4/10/2021 11:15:00 AM 11.85 53.33 0.426 8.11 4.85 11.16
4/10/2021 11:30:00 AM 11.94 53.492 0.425 8.13 5.09 11.24
4/10/2021 11:45:00 AM 11.99 53.582 0.425 8.14 5.13 11.29
4/10/2021 12:00:00 PM 12.06 53.708 0.425 8.16 5.26 11.31
4/10/2021 12:15:00 PM 12.15 53.87 0.424 8.18 5.09 11.39
4/10/2021 12:30:00 PM 12.25 54.05 0.423 8.2 4.96 11.45
4/10/2021 12:45:00 PM 12.35 54.23 0.423 8.21 4.78 11.5
4/10/2021 1:00:00 PM 12.41 54.338 0.423 8.23 5.05 11.51
4/10/2021 1:15:00 PM 12.47 54.446 0.422 8.25 4.81 11.51
4/10/2021 1:30:00 PM 12.53 54.554 0.422 8.26 4.99 11.5
4/10/2021 1:45:00 PM 12.59 54.662 0.421 8.27 4.95 11.5
4/10/2021 2:00:00 PM 12.65 54.77 0.421 8.28 5.36 11.46
4/10/2021 2:15:00 PM 12.75 54.95 0.42 8.29 5.17 11.47
4/10/2021 2:30:00 PM 12.85 55.13 0.42 8.3 6.01 11.46
4/10/2021 2:45:00 PM 12.96 55.328 0.419 8.31 4.85 11.5
4/10/2021 3:00:00 PM 13.11 55.598 0.419 8.33 4.82 11.54
4/10/2021 3:15:00 PM 13.23 55.814 0.418 8.35 4.93 11.54
4/10/2021 3:30:00 PM 13.42 56.156 0.417 8.36 5.33 11.58
4/10/2021 3:45:00 PM 13.58 56.444 0.416 8.37 5.09 11.6
4/10/2021 4:00:00 PM 13.68 56.624 0.416 8.38 5.01 11.57
4/10/2021 4:15:00 PM 13.76 56.768 0.415 8.39 5.47 11.58
4/10/2021 4:30:00 PM 13.85 56.93 0.415 8.4 5.31 11.56
4/10/2021 4:45:00 PM 13.91 57.038 0.415 8.4 5.07 11.51
4/10/2021 5:00:00 PM 13.96 57.128 0.414 8.41 5.23 11.47
4/10/2021 5:15:00 PM 13.99 57.182 0.415 8.4 5.77 11.44
4/10/2021 5:30:00 PM 14.01 57.218 0.415 8.39 6.17 11.38
4/10/2021 5:45:00 PM 14.02 57.236 0.414 8.4 5.32 11.29
4/10/2021 6:00:00 PM 14.01 57.218 0.415 8.38 5.49 11.23
4/10/2021 6:15:00 PM 14 57.2 0.415 8.38 5.22 11.11
4/10/2021 6:30:00 PM 13.97 57.146 0.415 8.36 5.63 11
4/10/2021 6:45:00 PM 13.93 57.074 0.415 8.34 5.78 10.87
4/10/2021 7:00:00 PM 13.9 57.02 0.416 8.32 5.86 10.74
4/10/2021 7:15:00 PM 13.87 56.966 0.416 8.3 6.02 10.59
4/10/2021 7:30:00 PM 13.84 56.912 0.416 8.27 6.61 10.46
4/10/2021 7:45:00 PM 13.8 56.84 0.416 8.25 6.53 10.32
4/10/2021 8:00:00 PM 13.75 56.75 0.416 8.23 6.57 10.19
4/10/2021 8:15:00 PM 13.7 56.66 0.416 8.21 6.88 10.07
4/10/2021 8:30:00 PM 13.65 56.57 0.417 8.19 7.49 10.03
4/10/2021 8:45:00 PM 13.6 56.48 0.417 8.17 7.22 9.89
4/10/2021 9:00:00 PM 13.54 56.372 0.417 8.15 6.61 9.75
4/10/2021 9:15:00 PM 13.46 56.228 0.417 8.14 10.48 9.8
4/10/2021 9:30:00 PM 13.38 56.084 0.418 8.12 7.17 9.77
4/10/2021 9:45:00 PM 13.29 55.922 0.419 8.1 7.76 9.7
4/10/2021 10:00:00 PM 13.19 55.742 0.419 8.09 9.2 9.7
4/10/2021 10:15:00 PM 13.08 55.544 0.42 8.07 6.76 9.63
4/10/2021 10:30:00 PM 12.97 55.346 0.421 8.05 9.1 9.58
4/10/2021 10:45:00 PM 12.85 55.13 0.421 8.03 11.84 9.56
4/10/2021 11:00:00 PM 12.75 54.95 0.422 8.02 7.16 9.57
4/10/2021 11:15:00 PM 12.64 54.752 0.423 8 7.09 9.58
4/10/2021 11:30:00 PM 12.54 54.572 0.423 7.99 7.92 9.51
4/10/2021 11:45:00 PM 12.44 54.392 0.424 7.98 8.85 9.54
4/11/2021 12:00:00 AM 12.35 54.23 0.424 7.96 6.89 9.54
4/11/2021 12:15:00 AM 12.26 54.068 0.424 7.94 7.29 9.54
4/11/2021 12:30:00 AM 12.17 53.906 0.425 7.95 6.12 9.54
4/11/2021 12:45:00 AM 12.09 53.762 0.425 7.93 6.15 9.54
4/11/2021 1:00:00 AM 12.03 53.654 0.426 7.94 6.64 9.54
4/11/2021 1:15:00 AM 11.97 53.546 0.425 7.93 6.56 9.58
4/11/2021 1:30:00 AM 11.91 53.438 0.426 7.93 6.02 9.61
4/11/2021 1:45:00 AM 11.86 53.348 0.426 7.92 6.67 9.61
4/11/2021 2:00:00 AM 11.81 53.258 0.426 7.92 5.67 9.6
4/11/2021 2:15:00 AM 11.77 53.186 0.426 7.92 6 9.64
4/11/2021 2:30:00 AM 11.73 53.114 0.426 7.92 6.64 9.63
4/11/2021 2:45:00 AM 11.7 53.06 0.426 7.92 7.82 9.65
4/11/2021 3:00:00 AM 11.68 53.024 0.426 7.92 6.22 9.63
4/11/2021 3:15:00 AM 11.66 52.988 0.426 7.91 6.19 9.65
4/11/2021 3:30:00 AM 11.64 52.952 0.427 7.91 6.72 9.64
4/11/2021 3:45:00 AM 11.63 52.934 0.426 7.92 6.35 9.62
4/11/2021 4:00:00 AM 11.62 52.916 0.425 7.92 7.65 9.64
4/11/2021 4:15:00 AM 11.62 52.916 0.424 7.91 6.81 9.64
4/11/2021 4:30:00 AM 11.62 52.916 0.424 7.9 7.36 9.61
4/11/2021 4:45:00 AM 11.62 52.916 0.423 7.9 8.05 9.62
4/11/2021 5:00:00 AM 11.62 52.916 0.423 7.9 7.56 9.64
4/11/2021 5:15:00 AM 11.63 52.934 0.421 7.9 9.54 9.63
4/11/2021 5:30:00 AM 11.64 52.952 0.423 7.9 8.06 9.6
4/11/2021 5:45:00 AM 11.64 52.952 0.422 7.9 8.13 9.63
4/11/2021 6:00:00 AM 11.65 52.97 0.421 7.9 9.75 9.58
4/11/2021 6:15:00 AM 11.67 53.006 0.419 7.89 9.8 9.58
4/11/2021 6:30:00 AM 11.68 53.024 0.417 7.89 10.26 9.66
4/11/2021 6:45:00 AM 11.7 53.06 0.419 7.89 11.62 9.68
4/11/2021 7:00:00 AM 11.71 53.078 0.431 7.89 12.18 9.67
4/11/2021 7:15:00 AM 11.73 53.114 0.475 7.88 10.91 9.66
4/11/2021 7:30:00 AM 11.76 53.168 0.395 7.87 11.95 9.65
4/11/2021 7:45:00 AM 11.79 53.222 0.389 7.88 15.72 9.63
4/11/2021 8:00:00 AM 11.83 53.294 0.382 7.87 24.56 9.61
4/11/2021 8:15:00 AM 11.85 53.33 0.377 7.86 32.19 9.59
4/11/2021 8:30:00 AM 11.87 53.366 0.372 7.84 31.54 9.56
4/11/2021 8:45:00 AM 11.89 53.402 0.365 7.82 55.4 9.57
4/11/2021 9:00:00 AM 11.91 53.438 0.361 7.8 49.38 9.52
4/11/2021 9:15:00 AM 11.94 53.492 0.356 7.8 73.19 9.47
4/11/2021 9:30:00 AM 11.97 53.546 0.353 7.78 87.5 9.42
4/11/2021 9:45:00 AM 11.99 53.582 0.353 7.77 73.91 9.36
4/11/2021 10:00:00 AM 12.03 53.654 0.353 7.76 77.29 9.31
4/11/2021 10:15:00 AM 12.08 53.744 0.349 7.76 97.31 9.25
4/11/2021 10:30:00 AM 12.17 53.906 0.343 7.73 136.7 9.18
4/11/2021 10:45:00 AM 12.25 54.05 0.338 7.72 82.96 9.14
4/11/2021 11:00:00 AM 12.34 54.212 0.335 7.72 100.92 9.15
4/11/2021 11:15:00 AM 12.43 54.374 0.335 7.72 89.65 9.19
4/11/2021 11:30:00 AM 12.5 54.5 0.334 7.72 73.97 9.23
4/11/2021 11:45:00 AM 12.54 54.572 0.327 7.71 58.98 9.26
4/11/2021 12:00:00 PM 12.62 54.716 0.317 7.71 65.99 9.25
4/11/2021 12:15:00 PM 12.69 54.842 0.304 7.7 64.67 9.3
4/11/2021 12:30:00 PM 12.77 54.986 0.289 7.7 53.26 9.27
4/11/2021 12:45:00 PM 12.84 55.112 0.277 7.69 51.66 9.39
4/11/2021 1:00:00 PM 12.91 55.238 0.269 7.68 47.43 9.38
4/11/2021 1:15:00 PM 12.97 55.346 0.264 7.68 57.57 9.41
4/11/2021 1:30:00 PM 13.07 55.526 0.263 7.69 47.92 9.41
4/11/2021 1:45:00 PM 13.14 55.652 0.264 7.69 49.93 9.36
4/11/2021 2:00:00 PM 13.2 55.76 0.266 7.71 43.71 9.47
4/11/2021 2:15:00 PM 13.26 55.868 0.268 7.71 38.73 9.52
4/11/2021 2:30:00 PM 13.31 55.958 0.271 7.72 46.24 9.55
4/11/2021 2:45:00 PM 13.37 56.066 0.274 7.73 105.17 9.58
4/11/2021 3:00:00 PM 13.48 56.264 0.278 7.75 34.38 9.66
4/11/2021 3:15:00 PM 13.64 56.552 0.282 7.76 26.64 9.78
4/11/2021 3:30:00 PM 13.68 56.624 0.286 7.78 24.93 9.76
4/11/2021 3:45:00 PM 13.77 56.786 0.29 7.79 22.75 9.85
4/11/2021 4:00:00 PM 13.87 56.966 0.295 7.81 32.68 9.94
4/11/2021 4:15:00 PM 13.93 57.074 0.299 7.83 17.67 9.98
4/11/2021 4:30:00 PM 14.07 57.326 0.303 7.85 19.2 10.04
4/11/2021 4:45:00 PM 14.16 57.488 0.307 7.86 18.3 10.12
4/11/2021 5:00:00 PM 14.28 57.704 0.31 7.88 17.44 10.16
4/11/2021 5:15:00 PM 14.43 57.974 0.314 7.9 15.39 10.17
4/11/2021 5:30:00 PM 14.39 57.902 0.317 7.9 18.47 10.13
4/11/2021 5:45:00 PM 14.36 57.848 0.319 7.9 16.12 10.09
4/11/2021 6:00:00 PM 14.4 57.92 0.322 7.91 15.8 10.07
4/11/2021 6:15:00 PM 14.43 57.974 0.324 7.91 12.87 10.03
4/11/2021 6:30:00 PM 14.44 57.992 0.326 7.91 18.39 9.94
4/11/2021 6:45:00 PM 14.43 57.974 0.329 7.91 12.94 9.86
4/11/2021 7:00:00 PM 14.39 57.902 0.331 7.9 14.38 9.78
4/11/2021 7:15:00 PM 14.35 57.83 0.334 7.89 12.66 9.71
4/11/2021 7:30:00 PM 14.31 57.758 0.336 7.89 14.5 9.65
4/11/2021 7:45:00 PM 14.26 57.668 0.339 7.88 11.35 9.57
4/11/2021 8:00:00 PM 14.19 57.542 0.341 7.88 10.93 9.49
4/11/2021 8:15:00 PM 14.16 57.488 0.344 7.87 11.16 9.44
4/11/2021 8:30:00 PM 14.14 57.452 0.346 7.87 11.46 9.43
4/11/2021 8:45:00 PM 14.15 57.47 0.348 7.86 11.52 9.38
4/11/2021 9:00:00 PM 14.14 57.452 0.35 7.86 11.4 9.34
4/11/2021 9:15:00 PM 14.09 57.362 0.353 7.86 13.04 9.31
4/11/2021 9:30:00 PM 14.02 57.236 0.355 7.86 10.79 9.25
4/11/2021 9:45:00 PM 13.94 57.092 0.357 7.86 11.38 9.22
4/11/2021 10:00:00 PM 13.85 56.93 0.359 7.85 10.17 9.2
4/11/2021 10:15:00 PM 13.75 56.75 0.361 7.85 11.32 9.22
4/11/2021 10:30:00 PM 13.65 56.57 0.363 7.85 11.35 9.21
4/11/2021 10:45:00 PM 13.55 56.39 0.365 7.85 11.12 9.21
4/11/2021 11:00:00 PM 13.41 56.138 0.363 7.85 11.21 9.23
4/11/2021 11:15:00 PM 13.24 55.832 0.356 7.85 17.31 9.3
4/11/2021 11:30:00 PM 13.09 55.562 0.346 7.85 30.25 9.37
4/11/2021 11:45:00 PM 12.98 55.364 0.341 7.83 36.97 9.36
4/12/2021 12:00:00 AM 12.85 55.13 0.332 7.8 62.97 9.36
4/12/2021 12:15:00 AM 12.75 54.95 0.325 7.75 143.33 9.36
4/12/2021 12:30:00 AM 12.65 54.77 0.319 7.73 170.1 9.34
4/12/2021 12:45:00 AM 12.56 54.608 0.317 7.72 117.21 9.3
4/12/2021 1:00:00 AM 12.47 54.446 0.318 7.73 107.41 9.31
4/12/2021 1:15:00 AM 12.41 54.338 0.322 7.73 106.5 9.31
4/12/2021 1:30:00 AM 12.3 54.14 0.311 7.72 96.51 9.3
4/12/2021 1:45:00 AM 12.2 53.96 0.287 7.68 120.79 9.23
4/12/2021 2:00:00 AM 12.15 53.87 0.274 7.65 158.13 9.21
4/12/2021 2:15:00 AM 12.11 53.798 0.271 7.64 106.99 9.2
4/12/2021 2:30:00 AM 12.07 53.726 0.276 7.63 102.01 9.12
4/12/2021 2:45:00 AM 12.02 53.636 0.282 7.62 105.42 9.07
4/12/2021 3:00:00 AM 11.98 53.564 0.276 7.63 97.09 9.11
4/12/2021 3:15:00 AM 11.96 53.528 0.298 7.64 136.15 9.15
4/12/2021 3:30:00 AM 11.94 53.492 0.291 7.63 104.81 9.17
4/12/2021 3:45:00 AM 11.91 53.438 0.274 7.61 133.27 9.21
4/12/2021 4:00:00 AM 11.87 53.366 0.26 7.6 109.78 9.24
4/12/2021 4:15:00 AM 11.82 53.276 0.253 7.59 101.18 9.28
4/12/2021 4:30:00 AM 11.77 53.186 0.248 7.58 93.31 9.31
4/12/2021 4:45:00 AM 11.73 53.114 0.243 7.57 89.23 9.35
4/12/2021 5:00:00 AM 11.69 53.042 0.241 7.56 76.46 9.38
4/12/2021 5:15:00 AM 11.66 52.988 0.241 7.57 78.96 9.39
4/12/2021 5:30:00 AM 11.62 52.916 0.243 7.57 71.7 9.4
4/12/2021 5:45:00 AM 11.58 52.844 0.246 7.58 67.48 9.41
4/12/2021 6:00:00 AM 11.54 52.772 0.25 7.58 60.46 9.43
4/12/2021 6:15:00 AM 11.51 52.718 0.254 7.59 52.95 9.44
4/12/2021 6:30:00 AM 11.47 52.646 0.258 7.59 55.23 9.46
4/12/2021 6:45:00 AM 11.43 52.574 0.262 7.59 53.96 9.48
4/12/2021 7:00:00 AM 11.4 52.52 0.267 7.6 47.57 9.5
4/12/2021 7:15:00 AM 11.37 52.466 0.271 7.61 43.31 9.53
4/12/2021 7:30:00 AM 11.35 52.43 0.276 7.61 66.68 9.55
4/12/2021 7:45:00 AM 11.33 52.394 0.28 7.62 34.21 9.55
4/12/2021 8:00:00 AM 11.31 52.358 0.284 7.63 30.93 9.6
4/12/2021 8:15:00 AM 11.3 52.34 0.289 7.63 30.81 9.63
4/12/2021 8:30:00 AM 11.28 52.304 0.293 7.64 28.63 9.67
4/12/2021 8:45:00 AM 11.26 52.268 0.298 7.65 26.49 9.7
4/12/2021 9:00:00 AM 11.25 52.25 0.301 7.67 22.97 9.75
4/12/2021 9:15:00 AM 11.25 52.25 0.304 7.67 22.87 9.82
4/12/2021 9:30:00 AM 11.25 52.25 0.308 7.68 19.67 9.89
4/12/2021 9:45:00 AM 11.27 52.286 0.311 7.7 18.86 9.97
4/12/2021 10:00:00 AM 11.26 52.268 0.315 7.71 18.33 10.01
4/12/2021 10:15:00 AM 11.25 52.25 0.318 7.72 16.04 10.05
4/12/2021 10:30:00 AM 11.25 52.25 0.321 7.73 16.63 10.12
4/12/2021 10:45:00 AM 11.23 52.214 0.323 7.73 15.29 10.15
4/12/2021 11:00:00 AM 11.23 52.214 0.325 7.75 14.48 10.21
4/12/2021 11:15:00 AM 11.24 52.232 0.328 7.76 13.13 10.27
4/12/2021 11:30:00 AM 11.25 52.25 0.33 7.77 13.12 10.33
4/12/2021 11:45:00 AM 11.27 52.286 0.332 7.79 12.01 10.41
4/12/2021 12:00:00 PM 11.29 52.322 0.334 7.8 10.52 10.47
4/12/2021 12:15:00 PM 11.32 52.376 0.336 7.81 10.85 10.53
4/12/2021 12:30:00 PM 11.32 52.376 0.337 7.81 11.34 10.55
4/12/2021 12:45:00 PM 11.33 52.394 0.338 7.83 9.94 10.59
4/12/2021 1:00:00 PM 11.35 52.43 0.34 7.83 11.14 10.65
4/12/2021 1:15:00 PM 11.38 52.484 0.342 7.85 10.74 10.7
4/12/2021 1:30:00 PM 11.43 52.574 0.343 7.86 10.57 10.77
4/12/2021 1:45:00 PM 11.46 52.628 0.344 7.87 10.33 10.81
4/12/2021 2:00:00 PM 11.48 52.664 0.345 7.88 10.1 10.84
4/12/2021 2:15:00 PM 11.48 52.664 0.346 7.89 9.65 10.84
4/12/2021 2:30:00 PM 11.51 52.718 0.347 7.89 9.61 10.88
4/12/2021 2:45:00 PM 11.53 52.754 0.348 7.9 9.77 10.92
4/12/2021 3:00:00 PM 11.56 52.808 0.348 7.91 9.09 10.94
4/12/2021 3:15:00 PM 11.59 52.862 0.349 7.91 9.73 10.94
4/12/2021 3:30:00 PM 11.61 52.898 0.35 7.92 9.17 10.94
4/12/2021 3:45:00 PM 11.63 52.934 0.35 7.92 8.49 10.95
4/12/2021 4:00:00 PM 11.65 52.97 0.35 7.93 9.62 10.96
4/12/2021 4:15:00 PM 11.67 53.006 0.351 7.93 8.53 10.94
4/12/2021 4:30:00 PM 11.69 53.042 0.351 7.93 10.14 10.89
4/12/2021 4:45:00 PM 11.73 53.114 0.352 7.93 8.63 10.89
4/12/2021 5:00:00 PM 11.76 53.168 0.352 7.94 9.57 10.87
4/12/2021 5:15:00 PM 11.77 53.186 0.352 7.94 9.21 10.84
4/12/2021 5:30:00 PM 11.78 53.204 0.353 7.94 9.64 10.79
4/12/2021 5:45:00 PM 11.79 53.222 0.353 7.93 8.2 10.74
4/12/2021 6:00:00 PM 11.78 53.204 0.353 7.92 8.6 10.68
4/12/2021 6:15:00 PM 11.77 53.186 0.354 7.92 9.62 10.65
4/12/2021 6:30:00 PM 11.74 53.132 0.354 7.91 8.49 10.59
4/12/2021 6:45:00 PM 11.71 53.078 0.354 7.9 9.17 10.53
4/12/2021 7:00:00 PM 11.67 53.006 0.355 7.89 9.69 10.47
4/12/2021 7:15:00 PM 11.61 52.898 0.355 7.89 9.37 10.42
4/12/2021 7:30:00 PM 11.55 52.79 0.356 7.87 8.8 10.36
4/12/2021 7:45:00 PM 11.49 52.682 0.356 7.86 9.08 10.3
4/12/2021 8:00:00 PM 11.43 52.574 0.357 7.85 9.57 10.27
4/12/2021 8:15:00 PM 11.37 52.466 0.357 7.84 9.27 10.23
4/12/2021 8:30:00 PM 11.32 52.376 0.357 7.84 9.48 10.19
4/12/2021 8:45:00 PM 11.26 52.268 0.358 7.83 9.49 10.18
4/12/2021 9:00:00 PM 11.19 52.142 0.358 7.82 9.9 10.15
4/12/2021 9:15:00 PM 11.13 52.034 0.358 7.81 9.79 10.13
4/12/2021 9:30:00 PM 11.08 51.944 0.359 7.82 9.91 10.11
4/12/2021 9:45:00 PM 11.03 51.854 0.359 7.8 8.74 10.11
4/12/2021 10:00:00 PM 10.98 51.764 0.359 7.8 8.85 10.1
4/12/2021 10:15:00 PM 10.93 51.674 0.359 7.8 9.32 10.09
4/12/2021 10:30:00 PM 10.89 51.602 0.36 7.8 8.9 10.08
4/12/2021 10:45:00 PM 10.84 51.512 0.36 7.79 9.39 10.07
4/12/2021 11:00:00 PM 10.8 51.44 0.36 7.79 8.98 10.08
4/12/2021 11:15:00 PM 10.76 51.368 0.361 7.79 9.32 10.09
4/12/2021 11:30:00 PM 10.72 51.296 0.361 7.79 10.1 10.08
4/12/2021 11:45:00 PM 10.69 51.242 0.361 7.79 9.36 10.09
4/13/2021 12:00:00 AM 10.66 51.188 0.361 7.78 9.1 10.1
4/13/2021 12:15:00 AM 10.64 51.152 0.362 7.78 8.95 10.11
4/13/2021 12:30:00 AM 10.61 51.098 0.361 7.79 9.97 10.11
4/13/2021 12:45:00 AM 10.59 51.062 0.362 7.79 8.75 10.12
4/13/2021 1:00:00 AM 10.57 51.026 0.362 7.78 9.77 10.12
4/13/2021 1:15:00 AM 10.55 50.99 0.362 7.79 8.88 10.13
4/13/2021 1:30:00 AM 10.53 50.954 0.362 7.78 8.36 10.15
4/13/2021 1:45:00 AM 10.51 50.918 0.362 7.78 8.59 10.14
4/13/2021 2:00:00 AM 10.49 50.882 0.363 7.78 10.1 10.14
4/13/2021 2:15:00 AM 10.47 50.846 0.363 7.78 9.88 10.16
4/13/2021 2:30:00 AM 10.45 50.81 0.363 7.78 9.4 10.17
4/13/2021 2:45:00 AM 10.43 50.774 0.363 7.78 10.25 10.17
4/13/2021 3:00:00 AM 10.41 50.738 0.363 7.78 10.29 10.18
4/13/2021 3:15:00 AM 10.4 50.72 0.363 7.78 9.95 10.19
4/13/2021 3:30:00 AM 10.38 50.684 0.363 7.78 8.54 10.19
4/13/2021 3:45:00 AM 10.36 50.648 0.363 7.79 9.36 10.2
4/13/2021 4:00:00 AM 10.35 50.63 0.363 7.79 9.82 10.21
4/13/2021 4:15:00 AM 10.33 50.594 0.364 7.78 9.86 10.22
4/13/2021 4:30:00 AM 10.32 50.576 0.364 7.78 8.67 10.22
4/13/2021 4:45:00 AM 10.31 50.558 0.363 7.78 9.12 10.22
4/13/2021 5:00:00 AM 10.29 50.522 0.364 7.79 9.84 10.23
4/13/2021 5:15:00 AM 10.28 50.504 0.364 7.79 8.5 10.24
4/13/2021 5:30:00 AM 10.27 50.486 0.364 7.78 9.8 10.23
4/13/2021 5:45:00 AM 10.26 50.468 0.364 7.78 9.8 10.25
4/13/2021 6:00:00 AM 10.25 50.45 0.364 7.79 9.14 10.25
4/13/2021 6:15:00 AM 10.24 50.432 0.364 7.79 9.82 10.25
4/13/2021 6:30:00 AM 10.23 50.414 0.364 7.78 9.11 10.26
4/13/2021 6:45:00 AM 10.23 50.414 0.364 7.78 9.47 10.27
4/13/2021 7:00:00 AM 10.22 50.396 0.364 7.79 11.06 10.28
4/13/2021 7:15:00 AM 10.21 50.378 0.364 7.79 11.86 10.29
4/13/2021 7:30:00 AM 10.22 50.396 0.364 7.8 11.94 10.33
4/13/2021 7:45:00 AM 10.23 50.414 0.364 7.8 10.92 10.38
4/13/2021 8:00:00 AM 10.24 50.432 0.365 7.81 8.43 10.44
4/13/2021 8:15:00 AM 10.27 50.486 0.365 7.82 8.01 10.51
4/13/2021 8:30:00 AM 10.29 50.522 0.364 7.82 8.38 10.57
4/13/2021 8:45:00 AM 10.34 50.612 0.364 7.84 7.7 10.67
4/13/2021 9:00:00 AM 10.38 50.684 0.365 7.85 7.2 10.76
4/13/2021 9:15:00 AM 10.44 50.792 0.364 7.86 7.13 10.83
4/13/2021 9:30:00 AM 10.48 50.864 0.364 7.86 6.57 10.9
4/13/2021 9:45:00 AM 10.51 50.918 0.364 7.88 6.53 10.94
4/13/2021 10:00:00 AM 10.56 51.008 0.364 7.89 6.5 11
4/13/2021 10:15:00 AM 10.64 51.152 0.364 7.89 6.59 11.06
4/13/2021 10:30:00 AM 10.73 51.314 0.364 7.9 6.43 11.14
4/13/2021 10:45:00 AM 10.82 51.476 0.364 7.91 6.31 11.19
4/13/2021 11:00:00 AM 10.98 51.764 0.364 7.92 6.75 11.26
4/13/2021 11:15:00 AM 11.23 52.214 0.364 7.94 6.3 11.33
4/13/2021 11:30:00 AM 11.4 52.52 0.364 7.95 6.09 11.36
4/13/2021 11:45:00 AM 11.63 52.934 0.364 7.96 6.15 11.38
4/13/2021 12:00:00 PM 11.82 53.276 0.364 7.98 6.63 11.42
4/13/2021 12:15:00 PM 12.03 53.654 0.364 7.99 6.36 11.42
4/13/2021 12:30:00 PM 12.16 53.888 0.364 7.99 6.34 11.41
4/13/2021 12:45:00 PM 12.5 54.5 0.364 8.01 6.58 11.44
4/13/2021 1:00:00 PM 12.81 55.058 0.363 8.02 6.04 11.44
4/13/2021 1:15:00 PM 12.91 55.238 0.363 8.03 6.17 11.41
4/13/2021 1:30:00 PM 13.33 55.994 0.363 8.04 6.45 11.42
4/13/2021 1:45:00 PM 13.57 56.426 0.363 8.05 6.64 11.39
4/13/2021 2:00:00 PM 13.83 56.894 0.363 8.06 6.48 11.37
4/13/2021 2:15:00 PM 14.1 57.38 0.363 8.07 6.89 11.34
4/13/2021 2:30:00 PM 14.24 57.632 0.363 8.07 6.73 11.28
4/13/2021 2:45:00 PM 14.35 57.83 0.363 8.08 6.32 11.22
4/13/2021 3:00:00 PM 14.46 58.028 0.362 8.07 7.03 11.12
4/13/2021 3:15:00 PM 14.56 58.208 0.362 8.08 7.22 11.07
4/13/2021 3:30:00 PM 14.57 58.226 0.363 8.08 7.28 11.01
4/13/2021 3:45:00 PM 14.65 58.37 0.362 8.08 7.24 10.99
4/13/2021 4:00:00 PM 14.69 58.442 0.362 8.08 6.87 10.94
4/13/2021 4:15:00 PM 14.76 58.568 0.362 8.08 7.6 10.92
4/13/2021 4:30:00 PM 14.81 58.658 0.362 8.08 7.22 10.89
4/13/2021 4:45:00 PM 14.82 58.676 0.362 8.08 7.53 10.81
4/13/2021 5:00:00 PM 14.89 58.802 0.362 8.07 7.67 10.76
4/13/2021 5:15:00 PM 14.96 58.928 0.362 8.07 7.16 10.69
4/13/2021 5:30:00 PM 14.98 58.964 0.362 8.06 7.2 10.58
4/13/2021 5:45:00 PM 14.97 58.946 0.362 8.04 7.25 10.48
4/13/2021 6:00:00 PM 14.94 58.892 0.362 8.03 8.37 10.39
4/13/2021 6:15:00 PM 14.87 58.766 0.363 8.02 7.38 10.32
4/13/2021 6:30:00 PM 14.76 58.568 0.363 8.01 6.38 10.23
4/13/2021 6:45:00 PM 14.64 58.352 0.363 7.99 8.05 10.14
4/13/2021 7:00:00 PM 14.51 58.118 0.363 7.97 8.15 10.06
4/13/2021 7:15:00 PM 14.4 57.92 0.363 7.95 8.45 9.99
4/13/2021 7:30:00 PM 14.31 57.758 0.363 7.94 7.88 9.91
4/13/2021 7:45:00 PM 14.2 57.56 0.364 7.92 7.91 9.84
4/13/2021 8:00:00 PM 14.07 57.326 0.364 7.91 8.03 9.79
4/13/2021 8:15:00 PM 13.93 57.074 0.364 7.89 7.65 9.75
4/13/2021 8:30:00 PM 13.79 56.822 0.364 7.89 8.64 9.72
4/13/2021 8:45:00 PM 13.65 56.57 0.364 7.87 9.47 9.69
4/13/2021 9:00:00 PM 13.5 56.3 0.365 7.86 8.69 9.68
4/13/2021 9:15:00 PM 13.34 56.012 0.365 7.85 8.82 9.67
4/13/2021 9:30:00 PM 13.17 55.706 0.365 7.84 8.48 9.69
4/13/2021 9:45:00 PM 13.01 55.418 0.365 7.84 9.01 9.69
4/13/2021 10:00:00 PM 12.86 55.148 0.365 7.83 8.72 9.7
4/13/2021 10:15:00 PM 12.7 54.86 0.365 7.83 9.19 9.71
4/13/2021 10:30:00 PM 12.54 54.572 0.366 7.82 7.66 9.73
4/13/2021 10:45:00 PM 12.38 54.284 0.366 7.82 9.62 9.73
4/13/2021 11:00:00 PM 12.23 54.014 0.366 7.81 7.59 9.75
4/13/2021 11:15:00 PM 12.09 53.762 0.367 7.81 8.82 9.78
4/13/2021 11:30:00 PM 11.95 53.51 0.367 7.81 9.05 9.8
4/13/2021 11:45:00 PM 11.82 53.276 0.367 7.8 8.33 9.82
4/14/2021 12:00:00 AM 11.7 53.06 0.367 7.8 8.33 9.84
4/14/2021 12:15:00 AM 11.58 52.844 0.368 7.79 7.92 9.87
4/14/2021 12:30:00 AM 11.46 52.628 0.368 7.79 8.69 9.9
4/14/2021 12:45:00 AM 11.35 52.43 0.368 7.79 8.61 9.92
4/14/2021 1:00:00 AM 11.25 52.25 0.368 7.79 8.11 9.95
4/14/2021 1:15:00 AM 11.15 52.07 0.369 7.79 8.28 9.98
4/14/2021 1:30:00 AM 11.05 51.89 0.368 7.79 8.79 10
4/14/2021 1:45:00 AM 10.95 51.71 0.369 7.79 9.13 10.03
4/14/2021 2:00:00 AM 10.86 51.548 0.369 7.79 7.35 10.05
4/14/2021 2:15:00 AM 10.77 51.386 0.369 7.79 8.34 10.07
4/14/2021 2:30:00 AM 10.69 51.242 0.369 7.79 7.33 10.1
4/14/2021 2:45:00 AM 10.6 51.08 0.369 7.79 7.61 10.13
4/14/2021 3:00:00 AM 10.52 50.936 0.37 7.79 8.31 10.16
4/14/2021 3:15:00 AM 10.44 50.792 0.37 7.79 7.77 10.18
4/14/2021 3:30:00 AM 10.37 50.666 0.37 7.79 8.15 10.2
4/14/2021 3:45:00 AM 10.3 50.54 0.37 7.79 8.14 10.22
4/14/2021 4:00:00 AM 10.23 50.414 0.37 7.8 8.42 10.24
4/14/2021 4:15:00 AM 10.16 50.288 0.37 7.79 8.15 10.26
4/14/2021 4:30:00 AM 10.09 50.162 0.371 7.79 8.21 10.29
4/14/2021 4:45:00 AM 10.03 50.054 0.371 7.79 8 10.31
4/14/2021 5:00:00 AM 9.97 49.946 0.371 7.79 8.59 10.32
4/14/2021 5:15:00 AM 9.91 49.838 0.371 7.79 8.45 10.33
4/14/2021 5:30:00 AM 9.85 49.73 0.371 7.79 8.11 10.35
4/14/2021 5:45:00 AM 9.8 49.64 0.371 7.79 7.72 10.38
4/14/2021 6:00:00 AM 9.76 49.568 0.371 7.79 7.88 10.39
4/14/2021 6:15:00 AM 9.73 49.514 0.371 7.79 8.02 10.4
4/14/2021 6:30:00 AM 9.7 49.46 0.371 7.79 8.2 10.42
4/14/2021 6:45:00 AM 9.68 49.424 0.371 7.8 8.37 10.44
4/14/2021 7:00:00 AM 9.67 49.406 0.371 7.8 8.36 10.45
4/14/2021 7:15:00 AM 9.66 49.388 0.371 7.79 7.82 10.51
4/14/2021 7:30:00 AM 9.66 49.388 0.371 7.81 7.77 10.56
4/14/2021 7:45:00 AM 9.66 49.388 0.371 7.81 7.52 10.61
4/14/2021 8:00:00 AM 9.68 49.424 0.371 7.82 7.73 10.67
4/14/2021 8:15:00 AM 9.72 49.496 0.371 7.82 7.59 10.74
4/14/2021 8:30:00 AM 9.76 49.568 0.371 7.83 6.83 10.81
4/14/2021 8:45:00 AM 9.8 49.64 0.371 7.83 6.86 10.86
4/14/2021 9:00:00 AM 9.89 49.802 0.371 7.85 6.69 10.95
4/14/2021 9:15:00 AM 10 50 0.371 7.86 6.25 11.03
4/14/2021 9:30:00 AM 10.11 50.198 0.371 7.87 6.27 11.08
4/14/2021 9:45:00 AM 10.24 50.432 0.371 7.88 6.19 11.14
4/14/2021 10:00:00 AM 10.36 50.648 0.37 7.89 6.66 11.18
4/14/2021 10:15:00 AM 10.51 50.918 0.37 7.9 6.37 11.24
4/14/2021 10:30:00 AM 10.69 51.242 0.37 7.92 6.34 11.31
4/14/2021 10:45:00 AM 10.82 51.476 0.37 7.93 6.34 11.33
4/14/2021 11:00:00 AM 10.94 51.692 0.37 7.93 5.9 11.34
4/14/2021 11:15:00 AM 11.04 51.872 0.37 7.95 5.84 11.33
4/14/2021 11:30:00 AM 11.12 52.016 0.37 7.96 6.11 11.29
4/14/2021 11:45:00 AM 11.21 52.178 0.37 7.96 5.95 11.26
4/14/2021 12:00:00 PM 11.32 52.376 0.37 7.96 6.52 11.26
4/14/2021 12:15:00 PM 11.43 52.574 0.369 7.97 6.07 11.24
4/14/2021 12:30:00 PM 11.6 52.88 0.369 7.98 5.96 11.26
4/14/2021 12:45:00 PM 11.78 53.204 0.369 7.99 5.64 11.28
4/14/2021 1:00:00 PM 11.94 53.492 0.369 8 5.78 11.27
4/14/2021 1:15:00 PM 12.07 53.726 0.369 8 6.58 11.24
4/14/2021 1:30:00 PM 12.19 53.942 0.368 8.01 6.64 11.21
4/14/2021 1:45:00 PM 12.29 54.122 0.368 8.01 6.31 11.19
4/14/2021 2:00:00 PM 12.38 54.284 0.368 8.02 6.08 11.18
4/14/2021 2:15:00 PM 12.47 54.446 0.368 8.03 5.95 11.17
4/14/2021 2:30:00 PM 12.51 54.518 0.368 8.03 6.82 11.13
4/14/2021 2:45:00 PM 12.54 54.572 0.368 8.02 6.63 11.08
4/14/2021 3:00:00 PM 12.61 54.698 0.368 8.03 6.31 11.09
4/14/2021 3:15:00 PM 12.65 54.77 0.368 8.04 6.77 11.09
4/14/2021 3:30:00 PM 12.7 54.86 0.368 8.03 6.62 11.07
4/14/2021 3:45:00 PM 12.76 54.968 0.368 8.04 6.46 11.04
4/14/2021 4:00:00 PM 12.81 55.058 0.367 8.04 6.46 11
4/14/2021 4:15:00 PM 12.85 55.13 0.367 8.03 6.78 10.95
4/14/2021 4:30:00 PM 12.9 55.22 0.367 8.03 7.58 10.91
4/14/2021 4:45:00 PM 12.92 55.256 0.367 8.02 6.31 10.86
4/14/2021 5:00:00 PM 12.94 55.292 0.367 8.02 6.48 10.81
4/14/2021 5:15:00 PM 12.96 55.328 0.367 8.02 6.71 10.8
4/14/2021 5:30:00 PM 12.97 55.346 0.367 8.01 6.53 10.77
4/14/2021 5:45:00 PM 12.96 55.328 0.367 8.01 6.18 10.73
4/14/2021 6:00:00 PM 12.94 55.292 0.367 8 6.53 10.67
4/14/2021 6:15:00 PM 12.92 55.256 0.367 8 6.85 10.62
4/14/2021 6:30:00 PM 12.9 55.22 0.367 7.99 6.63 10.59
4/14/2021 6:45:00 PM 12.87 55.166 0.367 7.98 6.48 10.51
4/14/2021 7:00:00 PM 12.85 55.13 0.367 7.97 6.84 10.43
4/14/2021 7:15:00 PM 12.82 55.076 0.368 7.96 6.91 10.34
4/14/2021 7:30:00 PM 12.79 55.022 0.368 7.95 6.8 10.26
4/14/2021 7:45:00 PM 12.74 54.932 0.368 7.93 6.94 10.19
4/14/2021 8:00:00 PM 12.68 54.824 0.368 7.92 7.69 10.12
4/14/2021 8:15:00 PM 12.61 54.698 0.368 7.91 7.22 10.06
4/14/2021 8:30:00 PM 12.54 54.572 0.368 7.89 7.75 10.02
4/14/2021 8:45:00 PM 12.47 54.446 0.368 7.88 8.25 9.97
4/14/2021 9:00:00 PM 12.39 54.302 0.368 7.88 7.54 9.95
4/14/2021 9:15:00 PM 12.3 54.14 0.368 7.87 8.4 9.93
4/14/2021 9:30:00 PM 12.21 53.978 0.369 7.86 7.7 9.91
4/14/2021 9:45:00 PM 12.12 53.816 0.369 7.85 8.5 9.9
4/14/2021 10:00:00 PM 12.02 53.636 0.368 7.85 8.21 9.89
4/14/2021 10:15:00 PM 11.92 53.456 0.369 7.84 7.82 9.9
4/14/2021 10:30:00 PM 11.82 53.276 0.369 7.83 8 9.9
4/14/2021 10:45:00 PM 11.72 53.096 0.369 7.84 8.19 9.9
4/14/2021 11:00:00 PM 11.62 52.916 0.37 7.83 8.17 9.9
4/14/2021 11:15:00 PM 11.53 52.754 0.37 7.83 6.7 9.9
4/14/2021 11:30:00 PM 11.44 52.592 0.37 7.82 8.1 9.92
4/14/2021 11:45:00 PM 11.35 52.43 0.37 7.82 7.79 9.93
4/15/2021 12:00:00 AM 11.25 52.25 0.37 7.82 8.03 9.95
4/15/2021 12:15:00 AM 11.16 52.088 0.37 7.82 8.73 9.95
4/15/2021 12:30:00 AM 11.09 51.962 0.371 7.82 8.02 9.98
4/15/2021 12:45:00 AM 11.02 51.836 0.371 7.81 8.04 9.99
4/15/2021 1:00:00 AM 10.95 51.71 0.371 7.81 8.08 10
4/15/2021 1:15:00 AM 10.9 51.62 0.371 7.81 8.1 10.02
4/15/2021 1:30:00 AM 10.86 51.548 0.371 7.81 7.96 10.04
4/15/2021 1:45:00 AM 10.82 51.476 0.371 7.81 7.82 10.05
4/15/2021 2:00:00 AM 10.78 51.404 0.371 7.81 8.3 10.07
4/15/2021 2:15:00 AM 10.75 51.35 0.372 7.8 8.99 10.07
4/15/2021 2:30:00 AM 10.72 51.296 0.371 7.81 6.84 10.08
4/15/2021 2:45:00 AM 10.68 51.224 0.372 7.81 7.97 10.09
4/15/2021 3:00:00 AM 10.65 51.17 0.371 7.81 8.53 10.11
4/15/2021 3:15:00 AM 10.62 51.116 0.372 7.8 8.45 10.11
4/15/2021 3:30:00 AM 10.6 51.08 0.372 7.81 8.55 10.12
4/15/2021 3:45:00 AM 10.58 51.044 0.372 7.81 7.02 10.13
4/15/2021 4:00:00 AM 10.56 51.008 0.372 7.81 8.13 10.13
4/15/2021 4:15:00 AM 10.54 50.972 0.372 7.81 8.28 10.13
4/15/2021 4:30:00 AM 10.53 50.954 0.373 7.81 8.05 10.14
4/15/2021 4:45:00 AM 10.52 50.936 0.373 7.81 8.5 10.15
4/15/2021 5:00:00 AM 10.52 50.936 0.373 7.81 7.09 10.14
4/15/2021 5:15:00 AM 10.52 50.936 0.373 7.81 8.63 10.15
4/15/2021 5:30:00 AM 10.53 50.954 0.373 7.81 8.21 10.15
4/15/2021 5:45:00 AM 10.52 50.936 0.373 7.81 8.12 10.14
4/15/2021 6:00:00 AM 10.52 50.936 0.372 7.8 8.88 10.15
4/15/2021 6:15:00 AM 10.52 50.936 0.373 7.81 8.05 10.14
4/15/2021 6:30:00 AM 10.52 50.936 0.373 7.81 8.93 10.14
4/15/2021 6:45:00 AM 10.52 50.936 0.373 7.8 8.5 10.15
4/15/2021 7:00:00 AM 10.52 50.936 0.373 7.81 8.19 10.17
4/15/2021 7:15:00 AM 10.54 50.972 0.373 7.8 8.17 10.19
4/15/2021 7:30:00 AM 10.56 51.008 0.373 7.81 8.19 10.21
4/15/2021 7:45:00 AM 10.58 51.044 0.373 7.82 8.92 10.24
4/15/2021 8:00:00 AM 10.61 51.098 0.373 7.82 8.66 10.28
4/15/2021 8:15:00 AM 10.66 51.188 0.373 7.83 7.88 10.34
4/15/2021 8:30:00 AM 10.69 51.242 0.373 7.83 7.29 10.39
4/15/2021 8:45:00 AM 10.75 51.35 0.373 7.85 6.84 10.46
4/15/2021 9:00:00 AM 10.81 51.458 0.373 7.86 6.87 10.54
4/15/2021 9:15:00 AM 10.86 51.548 0.373 7.87 7.22 10.58
4/15/2021 9:30:00 AM 10.9 51.62 0.373 7.87 6.89 10.6
4/15/2021 9:45:00 AM 10.95 51.71 0.372 7.88 6.33 10.66
4/15/2021 10:00:00 AM 11 51.8 0.373 7.89 6.62 10.73
4/15/2021 10:15:00 AM 11.05 51.89 0.373 7.9 6.42 10.77
4/15/2021 10:30:00 AM 11.09 51.962 0.372 7.91 6.07 10.8
4/15/2021 10:45:00 AM 11.16 52.088 0.372 7.92 7.19 10.87
4/15/2021 11:00:00 AM 11.27 52.286 0.372 7.94 9.57 10.9
4/15/2021 11:15:00 AM 11.35 52.43 0.372 7.95 8.32 10.97
4/15/2021 11:30:00 AM 11.46 52.628 0.372 7.96 7.39 11.04
4/15/2021 11:45:00 AM 11.61 52.898 0.372 7.97 7.81 11.09
4/15/2021 12:00:00 PM 11.8 53.24 0.372 7.99 7.75 11.13
4/15/2021 12:15:00 PM 11.91 53.438 0.372 8 7.26 11.18
4/15/2021 12:30:00 PM 12.1 53.78 0.372 8.01 6.4 11.24
4/15/2021 12:45:00 PM 12.23 54.014 0.371 8.03 6.54 11.26
4/15/2021 1:00:00 PM 12.34 54.212 0.371 8.04 7.41 11.28
4/15/2021 1:15:00 PM 12.59 54.662 0.371 8.05 6.97 11.29
4/15/2021 1:30:00 PM 12.69 54.842 0.371 8.06 6.6 11.27
4/15/2021 1:45:00 PM 12.72 54.896 0.37 8.06 6.59 11.25
4/15/2021 2:00:00 PM 12.69 54.842 0.37 8.06 6.92 11.12
4/15/2021 2:15:00 PM 12.69 54.842 0.371 8.05 6.44 11.07
4/15/2021 2:30:00 PM 12.91 55.238 0.37 8.07 6.79 11.15
4/15/2021 2:45:00 PM 12.96 55.328 0.37 8.07 6.56 11.13
4/15/2021 3:00:00 PM 13.07 55.526 0.37 8.08 6.59 11.07
4/15/2021 3:15:00 PM 13.31 55.958 0.37 8.08 6.17 11.04
4/15/2021 3:30:00 PM 13.52 56.336 0.369 8.09 7.16 11.07
4/15/2021 3:45:00 PM 13.71 56.678 0.369 8.09 7.63 11.04
4/15/2021 4:00:00 PM 13.76 56.768 0.37 8.1 7.12 11.02
4/15/2021 4:15:00 PM 13.85 56.93 0.37 8.1 7.26 11
4/15/2021 4:30:00 PM 13.89 57.002 0.369 8.1 7 10.95
4/15/2021 4:45:00 PM 13.88 56.984 0.369 8.09 7.24 10.92
4/15/2021 5:00:00 PM 13.82 56.876 0.369 8.09 7.65 10.84
4/15/2021 5:15:00 PM 13.71 56.678 0.37 8.08 7.18 10.74
4/15/2021 5:30:00 PM 13.61 56.498 0.369 8.09 7.54 10.7
4/15/2021 5:45:00 PM 13.48 56.264 0.369 8.08 7.82 10.52
4/15/2021 6:00:00 PM 13.4 56.12 0.37 8.06 7.3 10.53
4/15/2021 6:15:00 PM 13.31 55.958 0.37 8.05 7.27 10.51
4/15/2021 6:30:00 PM 13.23 55.814 0.37 8.04 7.3 10.39
4/15/2021 6:45:00 PM 13.17 55.706 0.37 8.03 7.23 10.34
4/15/2021 7:00:00 PM 13.06 55.508 0.37 8.01 8.12 10.28
4/15/2021 7:15:00 PM 12.98 55.364 0.37 7.99 7.58 10.17
4/15/2021 7:30:00 PM 12.88 55.184 0.37 7.97 7.68 10.08
4/15/2021 7:45:00 PM 12.77 54.986 0.371 7.96 7.68 10.01
4/15/2021 8:00:00 PM 12.64 54.752 0.371 7.95 7.47 9.98
4/15/2021 8:15:00 PM 12.49 54.482 0.37 7.93 7.86 9.95
4/15/2021 8:30:00 PM 12.33 54.194 0.372 7.93 9.12 9.89
4/15/2021 8:45:00 PM 12.17 53.906 0.371 7.92 9.21 9.85
4/15/2021 9:00:00 PM 12.02 53.636 0.371 7.92 8.82 9.91
4/15/2021 9:15:00 PM 11.86 53.348 0.372 7.91 8.41 9.91
4/15/2021 9:30:00 PM 11.72 53.096 0.372 7.9 8.7 9.94
4/15/2021 9:45:00 PM 11.58 52.844 0.372 7.89 8.82 9.94
4/15/2021 10:00:00 PM 11.44 52.592 0.372 7.89 8.51 9.95
4/15/2021 10:15:00 PM 11.31 52.358 0.373 7.89 9.11 9.99
4/15/2021 10:30:00 PM 11.18 52.124 0.373 7.87 8.2 10
4/15/2021 10:45:00 PM 11.03 51.854 0.373 7.88 8.8 9.99
4/15/2021 11:00:00 PM 10.88 51.584 0.374 7.87 8.71 9.93
4/15/2021 11:15:00 PM 10.73 51.314 0.374 7.87 9.37 10.02
4/15/2021 11:30:00 PM 10.58 51.044 0.374 7.87 8.06 10.09
4/15/2021 11:45:00 PM 10.45 50.81 0.374 7.86 8.19 10.13
4/16/2021 12:00:00 AM 10.32 50.576 0.375 7.86 8.52 10.06
4/16/2021 12:15:00 AM 10.2 50.36 0.375 7.86 7.93 10.17
4/16/2021 12:30:00 AM 10.08 50.144 0.375 7.86 8.19 10.21
4/16/2021 12:45:00 AM 9.99 49.982 0.375 7.86 8.36 10.18
4/16/2021 1:00:00 AM 9.89 49.802 0.375 7.86 8.1 10.25
4/16/2021 1:15:00 AM 9.8 49.64 0.376 7.86 8.27 10.27
4/16/2021 1:30:00 AM 9.72 49.496 0.376 7.85 8.33 10.3
4/16/2021 1:45:00 AM 9.65 49.37 0.376 7.85 8.47 10.29
4/16/2021 2:00:00 AM 9.57 49.226 0.376 7.85 8.8 10.28
4/16/2021 2:15:00 AM 9.49 49.082 0.377 7.85 8.52 10.31
4/16/2021 2:30:00 AM 9.4 48.92 0.377 7.86 8.53 10.31
4/16/2021 2:45:00 AM 9.32 48.776 0.377 7.86 8.37 10.31
4/16/2021 3:00:00 AM 9.23 48.614 0.377 7.86 8.31 10.43
4/16/2021 3:15:00 AM 9.14 48.452 0.378 7.86 8.34 10.45
4/16/2021 3:30:00 AM 9.07 48.326 0.378 7.86 7.94 10.38
4/16/2021 3:45:00 AM 9.02 48.236 0.378 7.86 8.89 10.37
4/16/2021 4:00:00 AM 8.98 48.164 0.378 7.86 8.12 10.39
4/16/2021 4:15:00 AM 8.94 48.092 0.378 7.86 8.48 10.35
4/16/2021 4:30:00 AM 8.91 48.038 0.378 7.86 8.27 10.41
4/16/2021 4:45:00 AM 8.9 48.02 0.378 7.86 8.3 10.47
4/16/2021 5:00:00 AM 8.87 47.966 0.379 7.86 9.47 10.45
4/16/2021 5:15:00 AM 8.85 47.93 0.378 7.86 8.78 10.46
4/16/2021 5:30:00 AM 8.83 47.894 0.379 7.86 8.41 10.47
4/16/2021 5:45:00 AM 8.8 47.84 0.378 7.86 8.31 10.48
4/16/2021 6:00:00 AM 8.75 47.75 0.379 7.86 8.01 10.53
4/16/2021 6:15:00 AM 8.7 47.66 0.379 7.86 8.11 10.48
4/16/2021 6:30:00 AM 8.66 47.588 0.379 7.87 7.59 10.55
4/16/2021 6:45:00 AM 8.62 47.516 0.379 7.86 93.4 10.52
4/16/2021 7:00:00 AM 8.58 47.444 0.379 7.87 7.74 10.55
4/16/2021 7:15:00 AM 8.56 47.408 0.379 7.87 7.43 10.6
4/16/2021 7:30:00 AM 8.55 47.39 0.38 7.88 7.7 10.66
4/16/2021 7:45:00 AM 8.57 47.426 0.379 7.89 7.21 10.72
4/16/2021 8:00:00 AM 8.58 47.444 0.379 7.89 6.81 10.71
4/16/2021 8:15:00 AM 8.62 47.516 0.379 7.9 6.6 10.85
4/16/2021 8:30:00 AM 8.64 47.552 0.379 7.91 6.21 10.88
4/16/2021 8:45:00 AM 8.72 47.696 0.379 7.92 6.13 10.93
4/16/2021 9:00:00 AM 8.83 47.894 0.379 7.93 97.79 11.06
4/16/2021 9:15:00 AM 8.87 47.966 0.379 7.94 7.65 11.11
4/16/2021 9:30:00 AM 8.93 48.074 0.379 7.95 5.77 11.19
4/16/2021 9:45:00 AM 9.03 48.254 0.379 7.96